<?xml version="1.0" encoding="UTF-8" standalone="no" ?>
<gpx xmlns="http://www.topografix.com/GPX/1/1" xmlns:gpxtpx="http://www.garmin.com/xmlschemas/TrackPointExtension/v1" creator="OruxMaps v.7.4.22" version="1.1" xmlns:xsi="http://www.w3.org/2001/XMLSchema-instance" xsi:schemaLocation="http://www.topografix.com/GPX/1/1 http://www.topografix.com/GPX/1/1/gpx.xsd">
<metadata>
<name><![CDATA[2021-09-19 09:44]]></name>
<link href="https://www.oruxmaps.com">
<text>OruxMaps</text>
</link>
<time>2021-09-19T07:44:50Z</time><bounds maxlat="48.9549140" maxlon="2.9279852" minlat="48.8707321" minlon="2.8150591"/>
</metadata>
<wpt lat="48.8732073" lon="2.8437847">
<ele>93.67</ele>
<time>2021-09-19T07:44:52Z</time>
<name><![CDATA[Chaise]]></name>
<sym>Waypoint</sym>
<type>Point de départ</type>
<extensions>
<om:oruxmapsextensions xmlns:om="http://www.oruxmaps.com/oruxmapsextensions/1/0">
<om:ext type="ICON" subtype="0">38</om:ext>
</om:oruxmapsextensions>
</extensions>
</wpt>
<wpt lat="48.8733209" lon="2.8437395">
<ele>87.67</ele>
<time>2021-09-19T11:21:24Z</time>
<name><![CDATA[0000188]]></name>
<desc><![CDATA[<p><br /><h3>Nom: Segment: 1</h3><br />Heure de départ: 09:44 19 sept. 2021<br/>Heure d'arrivée: 13:21 19 sept. 2021<br/>Distance: 40,2km (03:36)<br/>Temps déplacement: 03:00<br/>Vitesse moyenne: 11,14 km/h<br/>Vitesse moyenne mouv.: 13,34 km/h<br/>Vitesse Max.: 27,83 km/h<br/>Altitude minimale: 38 m<br/>Altitude maximale: 139 m<br/>Vitesse de montée: 326,7 m/h<br/>Vitesse de descente: -342,3 m/h<br/>Gain d'altitude: 581 m<br/>Perte d'altitude: -588 m<br/>Temps de montée: 01:46<br/>Temps de descente: 01:43<br/></p>]]></desc>
<sym>Waypoint</sym>
<type>Point d'arrivée</type>
<extensions>
<om:oruxmapsextensions xmlns:om="http://www.oruxmaps.com/oruxmapsextensions/1/0">
<om:ext type="ICON" subtype="0">15</om:ext>
</om:oruxmapsextensions>
</extensions>
</wpt>
<trk>
<name><![CDATA[2021-09-19 09:44]]></name>
<desc><![CDATA[<p>Heure de départ: 09:44 19 sept. 2021<br/>Heure d'arrivée: 13:21 19 sept. 2021<br/>Distance: 40,2 km (03:36)<br/>Temps déplacement: 03:00<br/>Vitesse moyenne: 11,14 km/h<br/>Vitesse moyenne mouv.: 13,34 km/h<br/>Vitesse Max.: 27,83 km/h<br/>Altitude minimale: 38 m<br/>Altitude maximale: 139 m<br/>Vitesse de montée: 242,1 m/h<br/>Vitesse de descente: -255,1 m/h<br/>Gain d'altitude: 420 m<br/>Perte d'altitude: -425 m<br/>Temps de montée: 01:44<br/>Temps de descente: 01:40<br/></p><hr align="center" width="480" style="height: 2px; width: 517px"/>]]></desc>
<type>Indéfini</type>
<extensions>
<om:oruxmapsextensions xmlns:om="http://www.oruxmaps.com/oruxmapsextensions/1/0">
<om:ext type="TYPE" subtype="0">0</om:ext>
<om:ext type="DIFFICULTY">0</om:ext>
</om:oruxmapsextensions>
</extensions>
<trkseg>
<trkpt lat="48.8732073" lon="2.8437847">
<ele>93.67</ele>
<time>2021-09-19T07:44:53Z</time>
</trkpt>
<trkpt lat="48.8731276" lon="2.8440324">
<ele>90.87</ele>
<time>2021-09-19T07:45:21Z</time>
</trkpt>
<trkpt lat="48.8730243" lon="2.8443030">
<ele>92.01</ele>
<time>2021-09-19T07:45:28Z</time>
</trkpt>
<trkpt lat="48.8729278" lon="2.8445441">
<ele>90.83</ele>
<time>2021-09-19T07:45:36Z</time>
</trkpt>
<trkpt lat="48.8728292" lon="2.8448098">
<ele>92.56</ele>
<time>2021-09-19T07:45:45Z</time>
</trkpt>
<trkpt lat="48.8727328" lon="2.8450713">
<ele>93.26</ele>
<time>2021-09-19T07:45:54Z</time>
</trkpt>
<trkpt lat="48.8726708" lon="2.8453388">
<ele>93.84</ele>
<time>2021-09-19T07:46:03Z</time>
</trkpt>
<trkpt lat="48.8726152" lon="2.8456046">
<ele>93.92</ele>
<time>2021-09-19T07:46:12Z</time>
</trkpt>
<trkpt lat="48.8725772" lon="2.8458761">
<ele>93.96</ele>
<time>2021-09-19T07:46:20Z</time>
</trkpt>
<trkpt lat="48.8725413" lon="2.8461627">
<ele>93.82</ele>
<time>2021-09-19T07:46:28Z</time>
</trkpt>
<trkpt lat="48.8725051" lon="2.8464565">
<ele>93.91</ele>
<time>2021-09-19T07:46:37Z</time>
</trkpt>
<trkpt lat="48.8724762" lon="2.8467510">
<ele>93.25</ele>
<time>2021-09-19T07:46:44Z</time>
</trkpt>
<trkpt lat="48.8725093" lon="2.8470610">
<ele>92.77</ele>
<time>2021-09-19T07:46:51Z</time>
</trkpt>
<trkpt lat="48.8725229" lon="2.8473724">
<ele>92.73</ele>
<time>2021-09-19T07:46:59Z</time>
</trkpt>
<trkpt lat="48.8724799" lon="2.8476626">
<ele>93.12</ele>
<time>2021-09-19T07:47:06Z</time>
</trkpt>
<trkpt lat="48.8724326" lon="2.8479519">
<ele>94.25</ele>
<time>2021-09-19T07:47:13Z</time>
</trkpt>
<trkpt lat="48.8723887" lon="2.8482243">
<ele>95.14</ele>
<time>2021-09-19T07:47:21Z</time>
</trkpt>
<trkpt lat="48.8723433" lon="2.8485016">
<ele>95.37</ele>
<time>2021-09-19T07:47:27Z</time>
</trkpt>
<trkpt lat="48.8722969" lon="2.8487932">
<ele>96.32</ele>
<time>2021-09-19T07:47:34Z</time>
</trkpt>
<trkpt lat="48.8722412" lon="2.8490946">
<ele>96.99</ele>
<time>2021-09-19T07:47:41Z</time>
</trkpt>
<trkpt lat="48.8722043" lon="2.8493686">
<ele>97.71</ele>
<time>2021-09-19T07:47:48Z</time>
</trkpt>
<trkpt lat="48.8721548" lon="2.8496691">
<ele>99.61</ele>
<time>2021-09-19T07:47:56Z</time>
</trkpt>
<trkpt lat="48.8721125" lon="2.8499569">
<ele>101.14</ele>
<time>2021-09-19T07:48:04Z</time>
</trkpt>
<trkpt lat="48.8720788" lon="2.8502277">
<ele>101.02</ele>
<time>2021-09-19T07:48:11Z</time>
</trkpt>
<trkpt lat="48.8720189" lon="2.8505257">
<ele>101.47</ele>
<time>2021-09-19T07:48:19Z</time>
</trkpt>
<trkpt lat="48.8719597" lon="2.8507927">
<ele>102.21</ele>
<time>2021-09-19T07:48:26Z</time>
</trkpt>
<trkpt lat="48.8718994" lon="2.8510659">
<ele>101.92</ele>
<time>2021-09-19T07:48:33Z</time>
</trkpt>
<trkpt lat="48.8718393" lon="2.8513296">
<ele>103.03</ele>
<time>2021-09-19T07:48:40Z</time>
</trkpt>
<trkpt lat="48.8717793" lon="2.8516177">
<ele>102.87</ele>
<time>2021-09-19T07:48:47Z</time>
</trkpt>
<trkpt lat="48.8717249" lon="2.8518977">
<ele>103.46</ele>
<time>2021-09-19T07:48:53Z</time>
</trkpt>
<trkpt lat="48.8716838" lon="2.8521848">
<ele>103.62</ele>
<time>2021-09-19T07:48:59Z</time>
</trkpt>
<trkpt lat="48.8716082" lon="2.8524546">
<ele>103.28</ele>
<time>2021-09-19T07:49:07Z</time>
</trkpt>
<trkpt lat="48.8715431" lon="2.8527305">
<ele>103.14</ele>
<time>2021-09-19T07:49:14Z</time>
</trkpt>
<trkpt lat="48.8714878" lon="2.8530240">
<ele>102.63</ele>
<time>2021-09-19T07:49:21Z</time>
</trkpt>
<trkpt lat="48.8714143" lon="2.8533110">
<ele>102.44</ele>
<time>2021-09-19T07:49:31Z</time>
</trkpt>
<trkpt lat="48.8713482" lon="2.8535882">
<ele>103.04</ele>
<time>2021-09-19T07:49:40Z</time>
</trkpt>
<trkpt lat="48.8712703" lon="2.8538595">
<ele>103.35</ele>
<time>2021-09-19T07:49:47Z</time>
</trkpt>
<trkpt lat="48.8711794" lon="2.8541154">
<ele>103.87</ele>
<time>2021-09-19T07:49:53Z</time>
</trkpt>
<trkpt lat="48.8710943" lon="2.8543882">
<ele>102.63</ele>
<time>2021-09-19T07:50:00Z</time>
</trkpt>
<trkpt lat="48.8710023" lon="2.8546693">
<ele>103.42</ele>
<time>2021-09-19T07:50:07Z</time>
</trkpt>
<trkpt lat="48.8709187" lon="2.8549246">
<ele>102.69</ele>
<time>2021-09-19T07:50:14Z</time>
</trkpt>
<trkpt lat="48.8708253" lon="2.8551772">
<ele>102.48</ele>
<time>2021-09-19T07:50:21Z</time>
</trkpt>
<trkpt lat="48.8707321" lon="2.8554266">
<ele>101.74</ele>
<time>2021-09-19T07:50:29Z</time>
</trkpt>
<trkpt lat="48.8708621" lon="2.8556233">
<ele>101.77</ele>
<time>2021-09-19T07:50:40Z</time>
</trkpt>
<trkpt lat="48.8710379" lon="2.8557211">
<ele>101.01</ele>
<time>2021-09-19T07:50:48Z</time>
</trkpt>
<trkpt lat="48.8712159" lon="2.8558408">
<ele>100.52</ele>
<time>2021-09-19T07:50:55Z</time>
</trkpt>
<trkpt lat="48.8713948" lon="2.8559412">
<ele>99.33</ele>
<time>2021-09-19T07:51:02Z</time>
</trkpt>
<trkpt lat="48.8715710" lon="2.8560528">
<ele>101.21</ele>
<time>2021-09-19T07:51:09Z</time>
</trkpt>
<trkpt lat="48.8717743" lon="2.8561673">
<ele>103.24</ele>
<time>2021-09-19T07:51:15Z</time>
</trkpt>
<trkpt lat="48.8719478" lon="2.8562595">
<ele>104.11</ele>
<time>2021-09-19T07:51:21Z</time>
</trkpt>
<trkpt lat="48.8721160" lon="2.8564439">
<ele>101.61</ele>
<time>2021-09-19T07:51:29Z</time>
</trkpt>
<trkpt lat="48.8722855" lon="2.8565638">
<ele>98.76</ele>
<time>2021-09-19T07:51:35Z</time>
</trkpt>
<trkpt lat="48.8724536" lon="2.8566696">
<ele>99.02</ele>
<time>2021-09-19T07:51:42Z</time>
</trkpt>
<trkpt lat="48.8726405" lon="2.8567839">
<ele>97.97</ele>
<time>2021-09-19T07:51:49Z</time>
</trkpt>
<trkpt lat="48.8728126" lon="2.8569551">
<ele>97.77</ele>
<time>2021-09-19T07:51:58Z</time>
</trkpt>
<trkpt lat="48.8729703" lon="2.8571446">
<ele>95.08</ele>
<time>2021-09-19T07:52:05Z</time>
</trkpt>
<trkpt lat="48.8731214" lon="2.8572982">
<ele>92.75</ele>
<time>2021-09-19T07:52:10Z</time>
</trkpt>
<trkpt lat="48.8732719" lon="2.8574929">
<ele>89.73</ele>
<time>2021-09-19T07:52:16Z</time>
</trkpt>
<trkpt lat="48.8734580" lon="2.8575915">
<ele>89.33</ele>
<time>2021-09-19T07:52:21Z</time>
</trkpt>
<trkpt lat="48.8736717" lon="2.8575723">
<ele>88.69</ele>
<time>2021-09-19T07:52:27Z</time>
</trkpt>
<trkpt lat="48.8738403" lon="2.8574560">
<ele>85.43</ele>
<time>2021-09-19T07:52:34Z</time>
</trkpt>
<trkpt lat="48.8739765" lon="2.8572617">
<ele>86.66</ele>
<time>2021-09-19T07:52:41Z</time>
</trkpt>
<trkpt lat="48.8741424" lon="2.8570784">
<ele>86.33</ele>
<time>2021-09-19T07:52:48Z</time>
</trkpt>
<trkpt lat="48.8743159" lon="2.8569148">
<ele>86.20</ele>
<time>2021-09-19T07:52:55Z</time>
</trkpt>
<trkpt lat="48.8744615" lon="2.8567158">
<ele>84.75</ele>
<time>2021-09-19T07:53:01Z</time>
</trkpt>
<trkpt lat="48.8746270" lon="2.8565321">
<ele>82.03</ele>
<time>2021-09-19T07:53:07Z</time>
</trkpt>
<trkpt lat="48.8747731" lon="2.8563450">
<ele>82.14</ele>
<time>2021-09-19T07:53:13Z</time>
</trkpt>
<trkpt lat="48.8749710" lon="2.8561999">
<ele>85.14</ele>
<time>2021-09-19T07:53:20Z</time>
</trkpt>
<trkpt lat="48.8751415" lon="2.8560110">
<ele>84.36</ele>
<time>2021-09-19T07:53:26Z</time>
</trkpt>
<trkpt lat="48.8753391" lon="2.8558597">
<ele>81.78</ele>
<time>2021-09-19T07:53:31Z</time>
</trkpt>
<trkpt lat="48.8755208" lon="2.8557231">
<ele>77.00</ele>
<time>2021-09-19T07:53:37Z</time>
</trkpt>
<trkpt lat="48.8756827" lon="2.8555671">
<ele>73.10</ele>
<time>2021-09-19T07:53:43Z</time>
</trkpt>
<trkpt lat="48.8758603" lon="2.8554342">
<ele>71.90</ele>
<time>2021-09-19T07:54:02Z</time>
</trkpt>
<trkpt lat="48.8760393" lon="2.8553174">
<ele>69.10</ele>
<time>2021-09-19T07:54:09Z</time>
</trkpt>
<trkpt lat="48.8762050" lon="2.8551715">
<ele>66.79</ele>
<time>2021-09-19T07:54:16Z</time>
</trkpt>
<trkpt lat="48.8763643" lon="2.8550349">
<ele>64.95</ele>
<time>2021-09-19T07:54:22Z</time>
</trkpt>
<trkpt lat="48.8765029" lon="2.8548490">
<ele>61.57</ele>
<time>2021-09-19T07:54:28Z</time>
</trkpt>
<trkpt lat="48.8766711" lon="2.8546683">
<ele>58.86</ele>
<time>2021-09-19T07:54:35Z</time>
</trkpt>
<trkpt lat="48.8768288" lon="2.8545113">
<ele>56.66</ele>
<time>2021-09-19T07:54:41Z</time>
</trkpt>
<trkpt lat="48.8769917" lon="2.8543418">
<ele>55.38</ele>
<time>2021-09-19T07:54:47Z</time>
</trkpt>
<trkpt lat="48.8771661" lon="2.8541843">
<ele>54.51</ele>
<time>2021-09-19T07:54:53Z</time>
</trkpt>
<trkpt lat="48.8773432" lon="2.8540838">
<ele>53.43</ele>
<time>2021-09-19T07:54:58Z</time>
</trkpt>
<trkpt lat="48.8775498" lon="2.8540172">
<ele>52.16</ele>
<time>2021-09-19T07:55:03Z</time>
</trkpt>
<trkpt lat="48.8777317" lon="2.8539739">
<ele>51.74</ele>
<time>2021-09-19T07:55:07Z</time>
</trkpt>
<trkpt lat="48.8779112" lon="2.8539496">
<ele>51.01</ele>
<time>2021-09-19T07:55:11Z</time>
</trkpt>
<trkpt lat="48.8781232" lon="2.8539571">
<ele>50.12</ele>
<time>2021-09-19T07:55:16Z</time>
</trkpt>
<trkpt lat="48.8783276" lon="2.8539226">
<ele>48.48</ele>
<time>2021-09-19T07:55:21Z</time>
</trkpt>
<trkpt lat="48.8785337" lon="2.8538871">
<ele>47.44</ele>
<time>2021-09-19T07:55:26Z</time>
</trkpt>
<trkpt lat="48.8787273" lon="2.8538789">
<ele>46.96</ele>
<time>2021-09-19T07:55:31Z</time>
</trkpt>
<trkpt lat="48.8789116" lon="2.8538791">
<ele>47.40</ele>
<time>2021-09-19T07:55:36Z</time>
</trkpt>
<trkpt lat="48.8791265" lon="2.8539091">
<ele>47.79</ele>
<time>2021-09-19T07:55:42Z</time>
</trkpt>
<trkpt lat="48.8793089" lon="2.8539998">
<ele>52.32</ele>
<time>2021-09-19T07:55:48Z</time>
</trkpt>
<trkpt lat="48.8794988" lon="2.8540245">
<ele>50.92</ele>
<time>2021-09-19T07:55:53Z</time>
</trkpt>
<trkpt lat="48.8796809" lon="2.8540722">
<ele>50.35</ele>
<time>2021-09-19T07:56:01Z</time>
</trkpt>
<trkpt lat="48.8798545" lon="2.8541766">
<ele>50.69</ele>
<time>2021-09-19T07:56:08Z</time>
</trkpt>
<trkpt lat="48.8800095" lon="2.8543188">
<ele>51.31</ele>
<time>2021-09-19T07:56:14Z</time>
</trkpt>
<trkpt lat="48.8801721" lon="2.8544856">
<ele>51.53</ele>
<time>2021-09-19T07:56:20Z</time>
</trkpt>
<trkpt lat="48.8803465" lon="2.8546565">
<ele>49.95</ele>
<time>2021-09-19T07:56:26Z</time>
</trkpt>
<trkpt lat="48.8804928" lon="2.8548927">
<ele>48.75</ele>
<time>2021-09-19T07:56:32Z</time>
</trkpt>
<trkpt lat="48.8804249" lon="2.8551847">
<ele>47.34</ele>
<time>2021-09-19T07:56:37Z</time>
</trkpt>
<trkpt lat="48.8803012" lon="2.8554095">
<ele>45.95</ele>
<time>2021-09-19T07:56:42Z</time>
</trkpt>
<trkpt lat="48.8801682" lon="2.8556490">
<ele>44.85</ele>
<time>2021-09-19T07:56:48Z</time>
</trkpt>
<trkpt lat="48.8800697" lon="2.8558915">
<ele>45.51</ele>
<time>2021-09-19T07:56:54Z</time>
</trkpt>
<trkpt lat="48.8800831" lon="2.8561694">
<ele>46.08</ele>
<time>2021-09-19T07:57:01Z</time>
</trkpt>
<trkpt lat="48.8802532" lon="2.8563260">
<ele>44.20</ele>
<time>2021-09-19T07:57:09Z</time>
</trkpt>
<trkpt lat="48.8804255" lon="2.8561992">
<ele>43.60</ele>
<time>2021-09-19T07:57:15Z</time>
</trkpt>
<trkpt lat="48.8805834" lon="2.8560543">
<ele>43.31</ele>
<time>2021-09-19T07:57:21Z</time>
</trkpt>
<trkpt lat="48.8807464" lon="2.8559034">
<ele>43.60</ele>
<time>2021-09-19T07:57:27Z</time>
</trkpt>
<trkpt lat="48.8809258" lon="2.8557943">
<ele>45.10</ele>
<time>2021-09-19T07:57:33Z</time>
</trkpt>
<trkpt lat="48.8811032" lon="2.8556873">
<ele>45.65</ele>
<time>2021-09-19T07:57:39Z</time>
</trkpt>
<trkpt lat="48.8812837" lon="2.8555836">
<ele>46.44</ele>
<time>2021-09-19T07:57:45Z</time>
</trkpt>
<trkpt lat="48.8814780" lon="2.8555014">
<ele>46.10</ele>
<time>2021-09-19T07:57:51Z</time>
</trkpt>
<trkpt lat="48.8816428" lon="2.8553741">
<ele>46.70</ele>
<time>2021-09-19T07:57:56Z</time>
</trkpt>
<trkpt lat="48.8818355" lon="2.8552326">
<ele>46.10</ele>
<time>2021-09-19T07:58:02Z</time>
</trkpt>
<trkpt lat="48.8820014" lon="2.8551215">
<ele>44.89</ele>
<time>2021-09-19T07:58:07Z</time>
</trkpt>
<trkpt lat="48.8821708" lon="2.8549904">
<ele>45.18</ele>
<time>2021-09-19T07:58:12Z</time>
</trkpt>
<trkpt lat="48.8823301" lon="2.8548608">
<ele>45.37</ele>
<time>2021-09-19T07:58:17Z</time>
</trkpt>
<trkpt lat="48.8825297" lon="2.8547382">
<ele>44.34</ele>
<time>2021-09-19T07:58:23Z</time>
</trkpt>
<trkpt lat="48.8827079" lon="2.8546619">
<ele>43.07</ele>
<time>2021-09-19T07:58:28Z</time>
</trkpt>
<trkpt lat="48.8828894" lon="2.8545256">
<ele>43.18</ele>
<time>2021-09-19T07:58:34Z</time>
</trkpt>
<trkpt lat="48.8830530" lon="2.8543262">
<ele>43.37</ele>
<time>2021-09-19T07:58:40Z</time>
</trkpt>
<trkpt lat="48.8832431" lon="2.8541610">
<ele>42.73</ele>
<time>2021-09-19T07:58:46Z</time>
</trkpt>
<trkpt lat="48.8834274" lon="2.8540220">
<ele>41.84</ele>
<time>2021-09-19T07:58:52Z</time>
</trkpt>
<trkpt lat="48.8835849" lon="2.8538792">
<ele>42.06</ele>
<time>2021-09-19T07:59:00Z</time>
</trkpt>
<trkpt lat="48.8837431" lon="2.8540980">
<ele>43.81</ele>
<time>2021-09-19T07:59:13Z</time>
</trkpt>
<trkpt lat="48.8838426" lon="2.8543563">
<ele>44.85</ele>
<time>2021-09-19T07:59:18Z</time>
</trkpt>
<trkpt lat="48.8839453" lon="2.8546310">
<ele>45.36</ele>
<time>2021-09-19T07:59:23Z</time>
</trkpt>
<trkpt lat="48.8840791" lon="2.8548614">
<ele>44.58</ele>
<time>2021-09-19T07:59:28Z</time>
</trkpt>
<trkpt lat="48.8841034" lon="2.8545681">
<ele>45.03</ele>
<time>2021-09-19T07:59:36Z</time>
</trkpt>
<trkpt lat="48.8842598" lon="2.8543796">
<ele>42.54</ele>
<time>2021-09-19T07:59:43Z</time>
</trkpt>
<trkpt lat="48.8844391" lon="2.8542928">
<ele>42.84</ele>
<time>2021-09-19T07:59:49Z</time>
</trkpt>
<trkpt lat="48.8846176" lon="2.8542558">
<ele>44.81</ele>
<time>2021-09-19T07:59:56Z</time>
</trkpt>
<trkpt lat="48.8848040" lon="2.8542360">
<ele>45.46</ele>
<time>2021-09-19T08:00:03Z</time>
</trkpt>
<trkpt lat="48.8850019" lon="2.8542374">
<ele>44.92</ele>
<time>2021-09-19T08:00:10Z</time>
</trkpt>
<trkpt lat="48.8852018" lon="2.8542212">
<ele>43.18</ele>
<time>2021-09-19T08:00:17Z</time>
</trkpt>
<trkpt lat="48.8853885" lon="2.8541960">
<ele>41.99</ele>
<time>2021-09-19T08:00:23Z</time>
</trkpt>
<trkpt lat="48.8855710" lon="2.8541653">
<ele>42.39</ele>
<time>2021-09-19T08:00:29Z</time>
</trkpt>
<trkpt lat="48.8857587" lon="2.8542248">
<ele>44.55</ele>
<time>2021-09-19T08:00:36Z</time>
</trkpt>
<trkpt lat="48.8858826" lon="2.8544585">
<ele>43.97</ele>
<time>2021-09-19T08:00:43Z</time>
</trkpt>
<trkpt lat="48.8860605" lon="2.8545946">
<ele>44.14</ele>
<time>2021-09-19T08:00:55Z</time>
</trkpt>
<trkpt lat="48.8862466" lon="2.8546419">
<ele>47.24</ele>
<time>2021-09-19T08:01:03Z</time>
</trkpt>
<trkpt lat="48.8864474" lon="2.8546910">
<ele>50.03</ele>
<time>2021-09-19T08:01:11Z</time>
</trkpt>
<trkpt lat="48.8866240" lon="2.8547470">
<ele>50.38</ele>
<time>2021-09-19T08:01:18Z</time>
</trkpt>
<trkpt lat="48.8868022" lon="2.8548085">
<ele>52.71</ele>
<time>2021-09-19T08:01:26Z</time>
</trkpt>
<trkpt lat="48.8869872" lon="2.8548967">
<ele>57.20</ele>
<time>2021-09-19T08:01:35Z</time>
</trkpt>
<trkpt lat="48.8871742" lon="2.8549879">
<ele>58.94</ele>
<time>2021-09-19T08:01:44Z</time>
</trkpt>
<trkpt lat="48.8873534" lon="2.8550862">
<ele>60.12</ele>
<time>2021-09-19T08:01:53Z</time>
</trkpt>
<trkpt lat="48.8875273" lon="2.8552028">
<ele>63.72</ele>
<time>2021-09-19T08:02:02Z</time>
</trkpt>
<trkpt lat="48.8877027" lon="2.8552837">
<ele>64.46</ele>
<time>2021-09-19T08:02:11Z</time>
</trkpt>
<trkpt lat="48.8878156" lon="2.8550701">
<ele>62.46</ele>
<time>2021-09-19T08:02:22Z</time>
</trkpt>
<trkpt lat="48.8878627" lon="2.8547793">
<ele>63.14</ele>
<time>2021-09-19T08:02:31Z</time>
</trkpt>
<trkpt lat="48.8879051" lon="2.8545070">
<ele>63.55</ele>
<time>2021-09-19T08:02:39Z</time>
</trkpt>
<trkpt lat="48.8880931" lon="2.8544605">
<ele>64.34</ele>
<time>2021-09-19T08:02:47Z</time>
</trkpt>
<trkpt lat="48.8882538" lon="2.8543302">
<ele>67.57</ele>
<time>2021-09-19T08:02:57Z</time>
</trkpt>
<trkpt lat="48.8883038" lon="2.8540631">
<ele>66.53</ele>
<time>2021-09-19T08:03:06Z</time>
</trkpt>
<trkpt lat="48.8883478" lon="2.8537931">
<ele>66.40</ele>
<time>2021-09-19T08:03:15Z</time>
</trkpt>
<trkpt lat="48.8884136" lon="2.8535139">
<ele>65.53</ele>
<time>2021-09-19T08:03:24Z</time>
</trkpt>
<trkpt lat="48.8884525" lon="2.8532413">
<ele>66.50</ele>
<time>2021-09-19T08:03:33Z</time>
</trkpt>
<trkpt lat="48.8885147" lon="2.8529797">
<ele>66.79</ele>
<time>2021-09-19T08:03:43Z</time>
</trkpt>
<trkpt lat="48.8886317" lon="2.8527662">
<ele>67.35</ele>
<time>2021-09-19T08:03:54Z</time>
</trkpt>
<trkpt lat="48.8887305" lon="2.8525048">
<ele>72.33</ele>
<time>2021-09-19T08:04:05Z</time>
</trkpt>
<trkpt lat="48.8887973" lon="2.8522170">
<ele>71.96</ele>
<time>2021-09-19T08:04:15Z</time>
</trkpt>
<trkpt lat="48.8888500" lon="2.8519374">
<ele>75.19</ele>
<time>2021-09-19T08:04:24Z</time>
</trkpt>
<trkpt lat="48.8889205" lon="2.8516779">
<ele>77.82</ele>
<time>2021-09-19T08:04:33Z</time>
</trkpt>
<trkpt lat="48.8889861" lon="2.8514139">
<ele>76.74</ele>
<time>2021-09-19T08:04:43Z</time>
</trkpt>
<trkpt lat="48.8890749" lon="2.8511644">
<ele>76.22</ele>
<time>2021-09-19T08:04:52Z</time>
</trkpt>
<trkpt lat="48.8891361" lon="2.8508894">
<ele>76.93</ele>
<time>2021-09-19T08:05:01Z</time>
</trkpt>
<trkpt lat="48.8892014" lon="2.8506016">
<ele>78.36</ele>
<time>2021-09-19T08:05:10Z</time>
</trkpt>
<trkpt lat="48.8892738" lon="2.8503383">
<ele>78.35</ele>
<time>2021-09-19T08:05:18Z</time>
</trkpt>
<trkpt lat="48.8893768" lon="2.8501001">
<ele>80.64</ele>
<time>2021-09-19T08:05:26Z</time>
</trkpt>
<trkpt lat="48.8894712" lon="2.8498237">
<ele>82.19</ele>
<time>2021-09-19T08:05:34Z</time>
</trkpt>
<trkpt lat="48.8894962" lon="2.8495519">
<ele>85.65</ele>
<time>2021-09-19T08:05:40Z</time>
</trkpt>
<trkpt lat="48.8895599" lon="2.8492890">
<ele>86.88</ele>
<time>2021-09-19T08:05:46Z</time>
</trkpt>
<trkpt lat="48.8896328" lon="2.8490080">
<ele>88.47</ele>
<time>2021-09-19T08:05:53Z</time>
</trkpt>
<trkpt lat="48.8897150" lon="2.8487405">
<ele>88.92</ele>
<time>2021-09-19T08:06:00Z</time>
</trkpt>
<trkpt lat="48.8898163" lon="2.8485077">
<ele>89.57</ele>
<time>2021-09-19T08:06:06Z</time>
</trkpt>
<trkpt lat="48.8899168" lon="2.8482493">
<ele>90.90</ele>
<time>2021-09-19T08:06:13Z</time>
</trkpt>
<trkpt lat="48.8899948" lon="2.8480008">
<ele>89.19</ele>
<time>2021-09-19T08:06:19Z</time>
</trkpt>
<trkpt lat="48.8900782" lon="2.8477404">
<ele>86.95</ele>
<time>2021-09-19T08:06:24Z</time>
</trkpt>
<trkpt lat="48.8901436" lon="2.8474548">
<ele>86.11</ele>
<time>2021-09-19T08:06:29Z</time>
</trkpt>
<trkpt lat="48.8902324" lon="2.8471848">
<ele>80.73</ele>
<time>2021-09-19T08:06:34Z</time>
</trkpt>
<trkpt lat="48.8903280" lon="2.8468893">
<ele>80.71</ele>
<time>2021-09-19T08:06:39Z</time>
</trkpt>
<trkpt lat="48.8904212" lon="2.8466422">
<ele>80.11</ele>
<time>2021-09-19T08:06:44Z</time>
</trkpt>
<trkpt lat="48.8905306" lon="2.8464195">
<ele>81.73</ele>
<time>2021-09-19T08:06:50Z</time>
</trkpt>
<trkpt lat="48.8906065" lon="2.8461668">
<ele>84.07</ele>
<time>2021-09-19T08:06:58Z</time>
</trkpt>
<trkpt lat="48.8905921" lon="2.8458431">
<ele>82.80</ele>
<time>2021-09-19T08:07:04Z</time>
</trkpt>
<trkpt lat="48.8906266" lon="2.8455329">
<ele>79.99</ele>
<time>2021-09-19T08:07:08Z</time>
</trkpt>
<trkpt lat="48.8907526" lon="2.8453132">
<ele>82.14</ele>
<time>2021-09-19T08:07:12Z</time>
</trkpt>
<trkpt lat="48.8908542" lon="2.8450745">
<ele>80.74</ele>
<time>2021-09-19T08:07:16Z</time>
</trkpt>
<trkpt lat="48.8910323" lon="2.8450179">
<ele>81.42</ele>
<time>2021-09-19T08:07:23Z</time>
</trkpt>
<trkpt lat="48.8912123" lon="2.8451397">
<ele>84.89</ele>
<time>2021-09-19T08:07:31Z</time>
</trkpt>
<trkpt lat="48.8913767" lon="2.8452957">
<ele>86.49</ele>
<time>2021-09-19T08:07:41Z</time>
</trkpt>
<trkpt lat="48.8915710" lon="2.8454084">
<ele>90.52</ele>
<time>2021-09-19T08:07:48Z</time>
</trkpt>
<trkpt lat="48.8917480" lon="2.8455309">
<ele>92.39</ele>
<time>2021-09-19T08:07:55Z</time>
</trkpt>
<trkpt lat="48.8919273" lon="2.8456650">
<ele>95.18</ele>
<time>2021-09-19T08:08:03Z</time>
</trkpt>
<trkpt lat="48.8921067" lon="2.8457806">
<ele>97.29</ele>
<time>2021-09-19T08:08:10Z</time>
</trkpt>
<trkpt lat="48.8922623" lon="2.8459208">
<ele>99.98</ele>
<time>2021-09-19T08:08:16Z</time>
</trkpt>
<trkpt lat="48.8924250" lon="2.8460891">
<ele>104.62</ele>
<time>2021-09-19T08:08:23Z</time>
</trkpt>
<trkpt lat="48.8925791" lon="2.8462420">
<ele>103.75</ele>
<time>2021-09-19T08:08:29Z</time>
</trkpt>
<trkpt lat="48.8927392" lon="2.8464332">
<ele>107.69</ele>
<time>2021-09-19T08:08:36Z</time>
</trkpt>
<trkpt lat="48.8928966" lon="2.8466286">
<ele>111.75</ele>
<time>2021-09-19T08:08:43Z</time>
</trkpt>
<trkpt lat="48.8930556" lon="2.8468224">
<ele>108.69</ele>
<time>2021-09-19T08:08:48Z</time>
</trkpt>
<trkpt lat="48.8931650" lon="2.8470818">
<ele>110.24</ele>
<time>2021-09-19T08:08:53Z</time>
</trkpt>
<trkpt lat="48.8932435" lon="2.8473406">
<ele>109.94</ele>
<time>2021-09-19T08:09:00Z</time>
</trkpt>
<trkpt lat="48.8933649" lon="2.8475467">
<ele>114.39</ele>
<time>2021-09-19T08:09:09Z</time>
</trkpt>
<trkpt lat="48.8934904" lon="2.8477465">
<ele>114.48</ele>
<time>2021-09-19T08:09:16Z</time>
</trkpt>
<trkpt lat="48.8936607" lon="2.8479130">
<ele>114.58</ele>
<time>2021-09-19T08:09:23Z</time>
</trkpt>
<trkpt lat="48.8938326" lon="2.8480197">
<ele>113.20</ele>
<time>2021-09-19T08:09:28Z</time>
</trkpt>
<trkpt lat="48.8940008" lon="2.8481695">
<ele>114.23</ele>
<time>2021-09-19T08:09:34Z</time>
</trkpt>
<trkpt lat="48.8941761" lon="2.8482935">
<ele>113.46</ele>
<time>2021-09-19T08:09:40Z</time>
</trkpt>
<trkpt lat="48.8943758" lon="2.8483930">
<ele>115.80</ele>
<time>2021-09-19T08:09:45Z</time>
</trkpt>
<trkpt lat="48.8945448" lon="2.8485434">
<ele>112.28</ele>
<time>2021-09-19T08:09:53Z</time>
</trkpt>
<trkpt lat="48.8947111" lon="2.8486901">
<ele>112.17</ele>
<time>2021-09-19T08:10:00Z</time>
</trkpt>
<trkpt lat="48.8948789" lon="2.8488356">
<ele>114.66</ele>
<time>2021-09-19T08:10:07Z</time>
</trkpt>
<trkpt lat="48.8950372" lon="2.8490047">
<ele>114.50</ele>
<time>2021-09-19T08:10:17Z</time>
</trkpt>
<trkpt lat="48.8952009" lon="2.8491844">
<ele>114.95</ele>
<time>2021-09-19T08:10:24Z</time>
</trkpt>
<trkpt lat="48.8953151" lon="2.8494019">
<ele>114.70</ele>
<time>2021-09-19T08:10:27Z</time>
</trkpt>
<trkpt lat="48.8954441" lon="2.8496173">
<ele>113.60</ele>
<time>2021-09-19T08:10:34Z</time>
</trkpt>
<trkpt lat="48.8955656" lon="2.8498306">
<ele>110.72</ele>
<time>2021-09-19T08:10:40Z</time>
</trkpt>
<trkpt lat="48.8956678" lon="2.8500798">
<ele>109.54</ele>
<time>2021-09-19T08:10:46Z</time>
</trkpt>
<trkpt lat="48.8957933" lon="2.8502888">
<ele>112.09</ele>
<time>2021-09-19T08:10:53Z</time>
</trkpt>
<trkpt lat="48.8959579" lon="2.8504206">
<ele>112.30</ele>
<time>2021-09-19T08:10:59Z</time>
</trkpt>
<trkpt lat="48.8961479" lon="2.8505627">
<ele>112.64</ele>
<time>2021-09-19T08:11:05Z</time>
</trkpt>
<trkpt lat="48.8963287" lon="2.8507035">
<ele>113.15</ele>
<time>2021-09-19T08:11:11Z</time>
</trkpt>
<trkpt lat="48.8964920" lon="2.8508754">
<ele>113.84</ele>
<time>2021-09-19T08:11:17Z</time>
</trkpt>
<trkpt lat="48.8965642" lon="2.8511441">
<ele>112.76</ele>
<time>2021-09-19T08:11:23Z</time>
</trkpt>
<trkpt lat="48.8966050" lon="2.8514335">
<ele>114.45</ele>
<time>2021-09-19T08:11:29Z</time>
</trkpt>
<trkpt lat="48.8966493" lon="2.8517077">
<ele>113.63</ele>
<time>2021-09-19T08:11:35Z</time>
</trkpt>
<trkpt lat="48.8966987" lon="2.8519787">
<ele>114.39</ele>
<time>2021-09-19T08:11:41Z</time>
</trkpt>
<trkpt lat="48.8967422" lon="2.8522584">
<ele>114.68</ele>
<time>2021-09-19T08:11:48Z</time>
</trkpt>
<trkpt lat="48.8967891" lon="2.8525460">
<ele>115.10</ele>
<time>2021-09-19T08:11:55Z</time>
</trkpt>
<trkpt lat="48.8968378" lon="2.8528150">
<ele>114.30</ele>
<time>2021-09-19T08:12:02Z</time>
</trkpt>
<trkpt lat="48.8968465" lon="2.8530893">
<ele>116.58</ele>
<time>2021-09-19T08:12:13Z</time>
</trkpt>
<trkpt lat="48.8969407" lon="2.8533384">
<ele>117.96</ele>
<time>2021-09-19T08:12:43Z</time>
</trkpt>
<trkpt lat="48.8969743" lon="2.8536143">
<ele>117.47</ele>
<time>2021-09-19T08:12:51Z</time>
</trkpt>
<trkpt lat="48.8970531" lon="2.8538625">
<ele>117.94</ele>
<time>2021-09-19T08:13:03Z</time>
</trkpt>
<trkpt lat="48.8972373" lon="2.8539042">
<ele>117.60</ele>
<time>2021-09-19T08:13:12Z</time>
</trkpt>
<trkpt lat="48.8974193" lon="2.8539698">
<ele>116.23</ele>
<time>2021-09-19T08:13:18Z</time>
</trkpt>
<trkpt lat="48.8976123" lon="2.8540361">
<ele>114.64</ele>
<time>2021-09-19T08:13:23Z</time>
</trkpt>
<trkpt lat="48.8978086" lon="2.8540940">
<ele>114.15</ele>
<time>2021-09-19T08:13:28Z</time>
</trkpt>
<trkpt lat="48.8979994" lon="2.8541757">
<ele>113.53</ele>
<time>2021-09-19T08:13:33Z</time>
</trkpt>
<trkpt lat="48.8981843" lon="2.8542429">
<ele>113.23</ele>
<time>2021-09-19T08:13:37Z</time>
</trkpt>
<trkpt lat="48.8984039" lon="2.8542966">
<ele>111.25</ele>
<time>2021-09-19T08:13:42Z</time>
</trkpt>
<trkpt lat="48.8985985" lon="2.8543100">
<ele>109.67</ele>
<time>2021-09-19T08:13:47Z</time>
</trkpt>
<trkpt lat="48.8987972" lon="2.8543392">
<ele>111.22</ele>
<time>2021-09-19T08:13:52Z</time>
</trkpt>
<trkpt lat="48.8989235" lon="2.8545434">
<ele>107.29</ele>
<time>2021-09-19T08:13:58Z</time>
</trkpt>
<trkpt lat="48.8989303" lon="2.8548462">
<ele>106.72</ele>
<time>2021-09-19T08:14:04Z</time>
</trkpt>
<trkpt lat="48.8989350" lon="2.8551415">
<ele>106.24</ele>
<time>2021-09-19T08:14:10Z</time>
</trkpt>
<trkpt lat="48.8989449" lon="2.8554328">
<ele>105.39</ele>
<time>2021-09-19T08:14:16Z</time>
</trkpt>
<trkpt lat="48.8989626" lon="2.8557220">
<ele>105.88</ele>
<time>2021-09-19T08:14:22Z</time>
</trkpt>
<trkpt lat="48.8989717" lon="2.8560120">
<ele>105.60</ele>
<time>2021-09-19T08:14:28Z</time>
</trkpt>
<trkpt lat="48.8989676" lon="2.8563201">
<ele>105.78</ele>
<time>2021-09-19T08:14:34Z</time>
</trkpt>
<trkpt lat="48.8989713" lon="2.8566001">
<ele>106.99</ele>
<time>2021-09-19T08:14:41Z</time>
</trkpt>
<trkpt lat="48.8989978" lon="2.8568744">
<ele>105.32</ele>
<time>2021-09-19T08:14:54Z</time>
</trkpt>
<trkpt lat="48.8990606" lon="2.8571529">
<ele>107.18</ele>
<time>2021-09-19T08:15:11Z</time>
</trkpt>
<trkpt lat="48.8991107" lon="2.8574348">
<ele>108.80</ele>
<time>2021-09-19T08:15:18Z</time>
</trkpt>
<trkpt lat="48.8991485" lon="2.8577252">
<ele>109.55</ele>
<time>2021-09-19T08:15:25Z</time>
</trkpt>
<trkpt lat="48.8992074" lon="2.8579863">
<ele>111.42</ele>
<time>2021-09-19T08:15:32Z</time>
</trkpt>
<trkpt lat="48.8992656" lon="2.8582531">
<ele>113.59</ele>
<time>2021-09-19T08:15:38Z</time>
</trkpt>
<trkpt lat="48.8993656" lon="2.8584822">
<ele>114.68</ele>
<time>2021-09-19T08:15:46Z</time>
</trkpt>
<trkpt lat="48.8994701" lon="2.8587200">
<ele>115.97</ele>
<time>2021-09-19T08:15:54Z</time>
</trkpt>
<trkpt lat="48.8995611" lon="2.8589676">
<ele>115.96</ele>
<time>2021-09-19T08:16:00Z</time>
</trkpt>
<trkpt lat="48.8996162" lon="2.8592852">
<ele>113.96</ele>
<time>2021-09-19T08:16:06Z</time>
</trkpt>
<trkpt lat="48.8996717" lon="2.8596021">
<ele>113.25</ele>
<time>2021-09-19T08:16:12Z</time>
</trkpt>
<trkpt lat="48.8997582" lon="2.8598898">
<ele>113.07</ele>
<time>2021-09-19T08:16:18Z</time>
</trkpt>
<trkpt lat="48.8998272" lon="2.8601529">
<ele>112.94</ele>
<time>2021-09-19T08:16:23Z</time>
</trkpt>
<trkpt lat="48.8998997" lon="2.8604124">
<ele>112.40</ele>
<time>2021-09-19T08:16:28Z</time>
</trkpt>
<trkpt lat="48.8999534" lon="2.8606880">
<ele>111.86</ele>
<time>2021-09-19T08:16:34Z</time>
</trkpt>
<trkpt lat="48.9000139" lon="2.8609519">
<ele>111.77</ele>
<time>2021-09-19T08:16:40Z</time>
</trkpt>
<trkpt lat="48.9000847" lon="2.8612311">
<ele>111.22</ele>
<time>2021-09-19T08:16:47Z</time>
</trkpt>
<trkpt lat="48.8999979" lon="2.8614711">
<ele>109.12</ele>
<time>2021-09-19T08:16:58Z</time>
</trkpt>
<trkpt lat="48.8998149" lon="2.8615124">
<ele>111.72</ele>
<time>2021-09-19T08:17:03Z</time>
</trkpt>
<trkpt lat="48.8996139" lon="2.8615710">
<ele>113.93</ele>
<time>2021-09-19T08:17:09Z</time>
</trkpt>
<trkpt lat="48.8994327" lon="2.8616412">
<ele>114.59</ele>
<time>2021-09-19T08:17:16Z</time>
</trkpt>
<trkpt lat="48.8992570" lon="2.8617315">
<ele>115.80</ele>
<time>2021-09-19T08:17:21Z</time>
</trkpt>
<trkpt lat="48.8990616" lon="2.8618065">
<ele>116.98</ele>
<time>2021-09-19T08:17:27Z</time>
</trkpt>
<trkpt lat="48.8988825" lon="2.8618616">
<ele>116.87</ele>
<time>2021-09-19T08:17:33Z</time>
</trkpt>
<trkpt lat="48.8986931" lon="2.8619297">
<ele>119.69</ele>
<time>2021-09-19T08:17:40Z</time>
</trkpt>
<trkpt lat="48.8988577" lon="2.8621479">
<ele>119.50</ele>
<time>2021-09-19T08:17:56Z</time>
</trkpt>
<trkpt lat="48.8990222" lon="2.8622799">
<ele>120.03</ele>
<time>2021-09-19T08:18:01Z</time>
</trkpt>
<trkpt lat="48.8991915" lon="2.8624449">
<ele>120.61</ele>
<time>2021-09-19T08:18:06Z</time>
</trkpt>
<trkpt lat="48.8992290" lon="2.8627213">
<ele>118.45</ele>
<time>2021-09-19T08:18:11Z</time>
</trkpt>
<trkpt lat="48.8992611" lon="2.8629998">
<ele>118.08</ele>
<time>2021-09-19T08:18:18Z</time>
</trkpt>
<trkpt lat="48.8993440" lon="2.8632574">
<ele>118.00</ele>
<time>2021-09-19T08:18:45Z</time>
</trkpt>
<trkpt lat="48.8993803" lon="2.8635513">
<ele>118.08</ele>
<time>2021-09-19T08:18:52Z</time>
</trkpt>
<trkpt lat="48.8994350" lon="2.8638388">
<ele>119.21</ele>
<time>2021-09-19T08:18:57Z</time>
</trkpt>
<trkpt lat="48.8994904" lon="2.8641381">
<ele>119.34</ele>
<time>2021-09-19T08:19:02Z</time>
</trkpt>
<trkpt lat="48.8995546" lon="2.8644284">
<ele>118.57</ele>
<time>2021-09-19T08:19:08Z</time>
</trkpt>
<trkpt lat="48.8996097" lon="2.8647361">
<ele>117.83</ele>
<time>2021-09-19T08:19:14Z</time>
</trkpt>
<trkpt lat="48.8996541" lon="2.8650121">
<ele>118.26</ele>
<time>2021-09-19T08:19:20Z</time>
</trkpt>
<trkpt lat="48.8996958" lon="2.8653152">
<ele>118.61</ele>
<time>2021-09-19T08:19:27Z</time>
</trkpt>
<trkpt lat="48.8997441" lon="2.8655979">
<ele>118.74</ele>
<time>2021-09-19T08:19:33Z</time>
</trkpt>
<trkpt lat="48.8998003" lon="2.8658753">
<ele>119.89</ele>
<time>2021-09-19T08:19:39Z</time>
</trkpt>
<trkpt lat="48.8998435" lon="2.8661509">
<ele>121.03</ele>
<time>2021-09-19T08:19:45Z</time>
</trkpt>
<trkpt lat="48.8999081" lon="2.8664507">
<ele>119.93</ele>
<time>2021-09-19T08:19:52Z</time>
</trkpt>
<trkpt lat="48.8999710" lon="2.8667258">
<ele>119.92</ele>
<time>2021-09-19T08:19:58Z</time>
</trkpt>
<trkpt lat="48.9000663" lon="2.8669908">
<ele>120.75</ele>
<time>2021-09-19T08:20:04Z</time>
</trkpt>
<trkpt lat="48.9001611" lon="2.8672464">
<ele>121.03</ele>
<time>2021-09-19T08:20:10Z</time>
</trkpt>
<trkpt lat="48.9002647" lon="2.8675275">
<ele>121.59</ele>
<time>2021-09-19T08:20:16Z</time>
</trkpt>
<trkpt lat="48.9003454" lon="2.8677751">
<ele>122.12</ele>
<time>2021-09-19T08:20:26Z</time>
</trkpt>
<trkpt lat="48.9004219" lon="2.8680652">
<ele>121.21</ele>
<time>2021-09-19T08:20:34Z</time>
</trkpt>
<trkpt lat="48.9005292" lon="2.8683254">
<ele>120.15</ele>
<time>2021-09-19T08:20:42Z</time>
</trkpt>
<trkpt lat="48.9005424" lon="2.8686301">
<ele>115.78</ele>
<time>2021-09-19T08:20:49Z</time>
</trkpt>
<trkpt lat="48.9007099" lon="2.8688114">
<ele>115.63</ele>
<time>2021-09-19T08:20:56Z</time>
</trkpt>
<trkpt lat="48.9008305" lon="2.8690241">
<ele>118.94</ele>
<time>2021-09-19T08:21:09Z</time>
</trkpt>
<trkpt lat="48.9009457" lon="2.8692978">
<ele>119.25</ele>
<time>2021-09-19T08:21:14Z</time>
</trkpt>
<trkpt lat="48.9010537" lon="2.8695552">
<ele>119.36</ele>
<time>2021-09-19T08:21:18Z</time>
</trkpt>
<trkpt lat="48.9011442" lon="2.8698350">
<ele>118.54</ele>
<time>2021-09-19T08:21:23Z</time>
</trkpt>
<trkpt lat="48.9012238" lon="2.8701398">
<ele>117.00</ele>
<time>2021-09-19T08:21:29Z</time>
</trkpt>
<trkpt lat="48.9012827" lon="2.8704113">
<ele>116.97</ele>
<time>2021-09-19T08:21:34Z</time>
</trkpt>
<trkpt lat="48.9013394" lon="2.8706812">
<ele>116.64</ele>
<time>2021-09-19T08:21:40Z</time>
</trkpt>
<trkpt lat="48.9014101" lon="2.8709842">
<ele>117.09</ele>
<time>2021-09-19T08:21:45Z</time>
</trkpt>
<trkpt lat="48.9014634" lon="2.8712584">
<ele>117.72</ele>
<time>2021-09-19T08:21:51Z</time>
</trkpt>
<trkpt lat="48.9015253" lon="2.8715224">
<ele>116.93</ele>
<time>2021-09-19T08:21:55Z</time>
</trkpt>
<trkpt lat="48.9015939" lon="2.8718134">
<ele>117.36</ele>
<time>2021-09-19T08:22:01Z</time>
</trkpt>
<trkpt lat="48.9016681" lon="2.8721068">
<ele>117.00</ele>
<time>2021-09-19T08:22:06Z</time>
</trkpt>
<trkpt lat="48.9017549" lon="2.8723812">
<ele>117.22</ele>
<time>2021-09-19T08:22:12Z</time>
</trkpt>
<trkpt lat="48.9018548" lon="2.8726697">
<ele>117.15</ele>
<time>2021-09-19T08:22:17Z</time>
</trkpt>
<trkpt lat="48.9019512" lon="2.8729585">
<ele>116.73</ele>
<time>2021-09-19T08:22:23Z</time>
</trkpt>
<trkpt lat="48.9020442" lon="2.8732534">
<ele>118.14</ele>
<time>2021-09-19T08:22:29Z</time>
</trkpt>
<trkpt lat="48.9021233" lon="2.8735256">
<ele>118.72</ele>
<time>2021-09-19T08:22:33Z</time>
</trkpt>
<trkpt lat="48.9022133" lon="2.8737996">
<ele>118.11</ele>
<time>2021-09-19T08:22:39Z</time>
</trkpt>
<trkpt lat="48.9022697" lon="2.8740747">
<ele>118.97</ele>
<time>2021-09-19T08:22:45Z</time>
</trkpt>
<trkpt lat="48.9022653" lon="2.8743484">
<ele>121.07</ele>
<time>2021-09-19T08:23:16Z</time>
</trkpt>
<trkpt lat="48.9023110" lon="2.8746540">
<ele>121.51</ele>
<time>2021-09-19T08:23:24Z</time>
</trkpt>
<trkpt lat="48.9023822" lon="2.8749464">
<ele>120.72</ele>
<time>2021-09-19T08:23:31Z</time>
</trkpt>
<trkpt lat="48.9024988" lon="2.8751970">
<ele>119.74</ele>
<time>2021-09-19T08:23:36Z</time>
</trkpt>
<trkpt lat="48.9026144" lon="2.8754109">
<ele>119.17</ele>
<time>2021-09-19T08:23:41Z</time>
</trkpt>
<trkpt lat="48.9027546" lon="2.8756108">
<ele>119.43</ele>
<time>2021-09-19T08:23:47Z</time>
</trkpt>
<trkpt lat="48.9029151" lon="2.8757780">
<ele>119.06</ele>
<time>2021-09-19T08:23:53Z</time>
</trkpt>
<trkpt lat="48.9030702" lon="2.8759203">
<ele>122.14</ele>
<time>2021-09-19T08:24:01Z</time>
</trkpt>
<trkpt lat="48.9032142" lon="2.8760918">
<ele>123.27</ele>
<time>2021-09-19T08:24:08Z</time>
</trkpt>
<trkpt lat="48.9033738" lon="2.8762414">
<ele>122.57</ele>
<time>2021-09-19T08:24:18Z</time>
</trkpt>
<trkpt lat="48.9035316" lon="2.8763923">
<ele>118.10</ele>
<time>2021-09-19T08:24:54Z</time>
</trkpt>
<trkpt lat="48.9037008" lon="2.8765602">
<ele>119.71</ele>
<time>2021-09-19T08:25:02Z</time>
</trkpt>
<trkpt lat="48.9038594" lon="2.8767749">
<ele>120.70</ele>
<time>2021-09-19T08:25:08Z</time>
</trkpt>
<trkpt lat="48.9040267" lon="2.8769012">
<ele>120.57</ele>
<time>2021-09-19T08:25:13Z</time>
</trkpt>
<trkpt lat="48.9042128" lon="2.8770159">
<ele>119.64</ele>
<time>2021-09-19T08:25:19Z</time>
</trkpt>
<trkpt lat="48.9044470" lon="2.8771864">
<ele>124.54</ele>
<time>2021-09-19T08:25:30Z</time>
</trkpt>
<trkpt lat="48.9046357" lon="2.8773271">
<ele>124.09</ele>
<time>2021-09-19T08:25:36Z</time>
</trkpt>
<trkpt lat="48.9048281" lon="2.8772813">
<ele>123.05</ele>
<time>2021-09-19T08:25:43Z</time>
</trkpt>
<trkpt lat="48.9050291" lon="2.8772887">
<ele>124.57</ele>
<time>2021-09-19T08:25:50Z</time>
</trkpt>
<trkpt lat="48.9052276" lon="2.8773302">
<ele>122.91</ele>
<time>2021-09-19T08:25:55Z</time>
</trkpt>
<trkpt lat="48.9054151" lon="2.8773845">
<ele>125.63</ele>
<time>2021-09-19T08:26:00Z</time>
</trkpt>
<trkpt lat="48.9055987" lon="2.8773977">
<ele>124.17</ele>
<time>2021-09-19T08:26:07Z</time>
</trkpt>
<trkpt lat="48.9057878" lon="2.8774134">
<ele>126.95</ele>
<time>2021-09-19T08:26:15Z</time>
</trkpt>
<trkpt lat="48.9059653" lon="2.8775119">
<ele>129.05</ele>
<time>2021-09-19T08:26:20Z</time>
</trkpt>
<trkpt lat="48.9061517" lon="2.8775803">
<ele>128.16</ele>
<time>2021-09-19T08:26:27Z</time>
</trkpt>
<trkpt lat="48.9063362" lon="2.8776402">
<ele>126.73</ele>
<time>2021-09-19T08:26:35Z</time>
</trkpt>
<trkpt lat="48.9065420" lon="2.8777285">
<ele>127.57</ele>
<time>2021-09-19T08:26:42Z</time>
</trkpt>
<trkpt lat="48.9067295" lon="2.8778115">
<ele>126.06</ele>
<time>2021-09-19T08:26:47Z</time>
</trkpt>
<trkpt lat="48.9068885" lon="2.8779505">
<ele>125.20</ele>
<time>2021-09-19T08:26:53Z</time>
</trkpt>
<trkpt lat="48.9070965" lon="2.8779612">
<ele>126.11</ele>
<time>2021-09-19T08:27:01Z</time>
</trkpt>
<trkpt lat="48.9072824" lon="2.8779754">
<ele>123.30</ele>
<time>2021-09-19T08:27:08Z</time>
</trkpt>
<trkpt lat="48.9074814" lon="2.8780520">
<ele>121.28</ele>
<time>2021-09-19T08:27:15Z</time>
</trkpt>
<trkpt lat="48.9076548" lon="2.8779573">
<ele>119.13</ele>
<time>2021-09-19T08:27:20Z</time>
</trkpt>
<trkpt lat="48.9078338" lon="2.8778540">
<ele>118.67</ele>
<time>2021-09-19T08:27:25Z</time>
</trkpt>
<trkpt lat="48.9080057" lon="2.8777727">
<ele>116.46</ele>
<time>2021-09-19T08:27:31Z</time>
</trkpt>
<trkpt lat="48.9081877" lon="2.8776915">
<ele>115.15</ele>
<time>2021-09-19T08:27:37Z</time>
</trkpt>
<trkpt lat="48.9083609" lon="2.8775623">
<ele>116.16</ele>
<time>2021-09-19T08:27:43Z</time>
</trkpt>
<trkpt lat="48.9085347" lon="2.8774386">
<ele>117.09</ele>
<time>2021-09-19T08:27:49Z</time>
</trkpt>
<trkpt lat="48.9087272" lon="2.8775199">
<ele>116.98</ele>
<time>2021-09-19T08:27:55Z</time>
</trkpt>
<trkpt lat="48.9088128" lon="2.8778142">
<ele>118.29</ele>
<time>2021-09-19T08:28:01Z</time>
</trkpt>
<trkpt lat="48.9088847" lon="2.8780694">
<ele>121.46</ele>
<time>2021-09-19T08:28:06Z</time>
</trkpt>
<trkpt lat="48.9089559" lon="2.8783445">
<ele>124.58</ele>
<time>2021-09-19T08:28:11Z</time>
</trkpt>
<trkpt lat="48.9090370" lon="2.8785894">
<ele>125.55</ele>
<time>2021-09-19T08:28:16Z</time>
</trkpt>
<trkpt lat="48.9091192" lon="2.8788664">
<ele>126.57</ele>
<time>2021-09-19T08:28:22Z</time>
</trkpt>
<trkpt lat="48.9091940" lon="2.8791224">
<ele>127.79</ele>
<time>2021-09-19T08:28:28Z</time>
</trkpt>
<trkpt lat="48.9092737" lon="2.8793703">
<ele>127.05</ele>
<time>2021-09-19T08:28:35Z</time>
</trkpt>
<trkpt lat="48.9093535" lon="2.8796257">
<ele>128.29</ele>
<time>2021-09-19T08:28:42Z</time>
</trkpt>
<trkpt lat="48.9094273" lon="2.8798759">
<ele>129.32</ele>
<time>2021-09-19T08:28:48Z</time>
</trkpt>
<trkpt lat="48.9094975" lon="2.8801508">
<ele>130.86</ele>
<time>2021-09-19T08:28:55Z</time>
</trkpt>
<trkpt lat="48.9094042" lon="2.8803947">
<ele>134.95</ele>
<time>2021-09-19T08:30:04Z</time>
</trkpt>
<trkpt lat="48.9091758" lon="2.8803957">
<ele>133.22</ele>
<time>2021-09-19T08:30:09Z</time>
</trkpt>
<trkpt lat="48.9089798" lon="2.8803802">
<ele>132.28</ele>
<time>2021-09-19T08:30:14Z</time>
</trkpt>
<trkpt lat="48.9087942" lon="2.8803652">
<ele>133.75</ele>
<time>2021-09-19T08:30:19Z</time>
</trkpt>
<trkpt lat="48.9085874" lon="2.8803888">
<ele>134.33</ele>
<time>2021-09-19T08:30:25Z</time>
</trkpt>
<trkpt lat="48.9083964" lon="2.8803773">
<ele>132.86</ele>
<time>2021-09-19T08:30:30Z</time>
</trkpt>
<trkpt lat="48.9082106" lon="2.8803735">
<ele>132.63</ele>
<time>2021-09-19T08:30:35Z</time>
</trkpt>
<trkpt lat="48.9080103" lon="2.8803578">
<ele>131.48</ele>
<time>2021-09-19T08:30:41Z</time>
</trkpt>
<trkpt lat="48.9078131" lon="2.8803846">
<ele>130.77</ele>
<time>2021-09-19T08:30:47Z</time>
</trkpt>
<trkpt lat="48.9076270" lon="2.8805278">
<ele>131.27</ele>
<time>2021-09-19T08:30:53Z</time>
</trkpt>
<trkpt lat="48.9075564" lon="2.8807920">
<ele>131.24</ele>
<time>2021-09-19T08:30:58Z</time>
</trkpt>
<trkpt lat="48.9075087" lon="2.8810987">
<ele>132.14</ele>
<time>2021-09-19T08:31:04Z</time>
</trkpt>
<trkpt lat="48.9074733" lon="2.8813795">
<ele>134.54</ele>
<time>2021-09-19T08:31:09Z</time>
</trkpt>
<trkpt lat="48.9074359" lon="2.8816850">
<ele>136.63</ele>
<time>2021-09-19T08:31:15Z</time>
</trkpt>
<trkpt lat="48.9073934" lon="2.8819798">
<ele>139.90</ele>
<time>2021-09-19T08:31:21Z</time>
</trkpt>
<trkpt lat="48.9073447" lon="2.8822488">
<ele>138.98</ele>
<time>2021-09-19T08:31:27Z</time>
</trkpt>
<trkpt lat="48.9072986" lon="2.8825224">
<ele>138.52</ele>
<time>2021-09-19T08:31:33Z</time>
</trkpt>
<trkpt lat="48.9072397" lon="2.8828180">
<ele>138.27</ele>
<time>2021-09-19T08:31:39Z</time>
</trkpt>
<trkpt lat="48.9071097" lon="2.8830365">
<ele>138.48</ele>
<time>2021-09-19T08:31:45Z</time>
</trkpt>
<trkpt lat="48.9069167" lon="2.8829920">
<ele>138.14</ele>
<time>2021-09-19T08:31:52Z</time>
</trkpt>
<trkpt lat="48.9067204" lon="2.8828834">
<ele>137.30</ele>
<time>2021-09-19T08:31:59Z</time>
</trkpt>
<trkpt lat="48.9065246" lon="2.8828654">
<ele>138.04</ele>
<time>2021-09-19T08:32:04Z</time>
</trkpt>
<trkpt lat="48.9063379" lon="2.8828048">
<ele>139.81</ele>
<time>2021-09-19T08:32:10Z</time>
</trkpt>
<trkpt lat="48.9061532" lon="2.8827395">
<ele>139.16</ele>
<time>2021-09-19T08:32:16Z</time>
</trkpt>
<trkpt lat="48.9059632" lon="2.8827273">
<ele>139.39</ele>
<time>2021-09-19T08:32:22Z</time>
</trkpt>
<trkpt lat="48.9057901" lon="2.8828047">
<ele>139.16</ele>
<time>2021-09-19T08:32:31Z</time>
</trkpt>
<trkpt lat="48.9057841" lon="2.8830846">
<ele>137.86</ele>
<time>2021-09-19T08:33:00Z</time>
</trkpt>
<trkpt lat="48.9058781" lon="2.8833594">
<ele>137.90</ele>
<time>2021-09-19T08:33:07Z</time>
</trkpt>
<trkpt lat="48.9059107" lon="2.8836433">
<ele>139.30</ele>
<time>2021-09-19T08:33:13Z</time>
</trkpt>
<trkpt lat="48.9058624" lon="2.8839260">
<ele>139.15</ele>
<time>2021-09-19T08:33:18Z</time>
</trkpt>
<trkpt lat="48.9059596" lon="2.8842095">
<ele>139.14</ele>
<time>2021-09-19T08:33:23Z</time>
</trkpt>
<trkpt lat="48.9061420" lon="2.8843498">
<ele>139.22</ele>
<time>2021-09-19T08:33:28Z</time>
</trkpt>
<trkpt lat="48.9062808" lon="2.8845753">
<ele>138.38</ele>
<time>2021-09-19T08:33:33Z</time>
</trkpt>
<trkpt lat="48.9063856" lon="2.8848508">
<ele>137.82</ele>
<time>2021-09-19T08:33:38Z</time>
</trkpt>
<trkpt lat="48.9064765" lon="2.8851095">
<ele>136.44</ele>
<time>2021-09-19T08:33:43Z</time>
</trkpt>
<trkpt lat="48.9065683" lon="2.8853469">
<ele>135.79</ele>
<time>2021-09-19T08:33:47Z</time>
</trkpt>
<trkpt lat="48.9066573" lon="2.8856221">
<ele>135.47</ele>
<time>2021-09-19T08:33:51Z</time>
</trkpt>
<trkpt lat="48.9067525" lon="2.8858654">
<ele>134.98</ele>
<time>2021-09-19T08:33:55Z</time>
</trkpt>
<trkpt lat="48.9068361" lon="2.8861166">
<ele>134.41</ele>
<time>2021-09-19T08:33:59Z</time>
</trkpt>
<trkpt lat="48.9068882" lon="2.8864406">
<ele>134.87</ele>
<time>2021-09-19T08:34:04Z</time>
</trkpt>
<trkpt lat="48.9068611" lon="2.8867788">
<ele>134.57</ele>
<time>2021-09-19T08:34:09Z</time>
</trkpt>
<trkpt lat="48.9069428" lon="2.8870826">
<ele>134.22</ele>
<time>2021-09-19T08:34:14Z</time>
</trkpt>
<trkpt lat="48.9071331" lon="2.8872511">
<ele>134.14</ele>
<time>2021-09-19T08:34:19Z</time>
</trkpt>
<trkpt lat="48.9072535" lon="2.8874669">
<ele>133.83</ele>
<time>2021-09-19T08:34:23Z</time>
</trkpt>
<trkpt lat="48.9073691" lon="2.8876766">
<ele>133.63</ele>
<time>2021-09-19T08:34:27Z</time>
</trkpt>
<trkpt lat="48.9074659" lon="2.8879423">
<ele>132.72</ele>
<time>2021-09-19T08:34:31Z</time>
</trkpt>
<trkpt lat="48.9075660" lon="2.8882006">
<ele>132.17</ele>
<time>2021-09-19T08:34:35Z</time>
</trkpt>
<trkpt lat="48.9077164" lon="2.8883904">
<ele>131.66</ele>
<time>2021-09-19T08:34:39Z</time>
</trkpt>
<trkpt lat="48.9079232" lon="2.8883414">
<ele>130.98</ele>
<time>2021-09-19T08:34:43Z</time>
</trkpt>
<trkpt lat="48.9081047" lon="2.8881371">
<ele>133.05</ele>
<time>2021-09-19T08:34:49Z</time>
</trkpt>
<trkpt lat="48.9083019" lon="2.8881224">
<ele>132.92</ele>
<time>2021-09-19T08:34:53Z</time>
</trkpt>
<trkpt lat="48.9085293" lon="2.8881522">
<ele>133.22</ele>
<time>2021-09-19T08:34:58Z</time>
</trkpt>
<trkpt lat="48.9087093" lon="2.8881566">
<ele>132.09</ele>
<time>2021-09-19T08:35:02Z</time>
</trkpt>
<trkpt lat="48.9089203" lon="2.8881600">
<ele>131.11</ele>
<time>2021-09-19T08:35:07Z</time>
</trkpt>
<trkpt lat="48.9091217" lon="2.8881602">
<ele>130.78</ele>
<time>2021-09-19T08:35:12Z</time>
</trkpt>
<trkpt lat="48.9093180" lon="2.8881610">
<ele>129.91</ele>
<time>2021-09-19T08:35:17Z</time>
</trkpt>
<trkpt lat="48.9095007" lon="2.8881711">
<ele>129.79</ele>
<time>2021-09-19T08:35:23Z</time>
</trkpt>
<trkpt lat="48.9096777" lon="2.8882254">
<ele>130.26</ele>
<time>2021-09-19T08:35:28Z</time>
</trkpt>
<trkpt lat="48.9098640" lon="2.8882696">
<ele>130.52</ele>
<time>2021-09-19T08:35:34Z</time>
</trkpt>
<trkpt lat="48.9100459" lon="2.8883300">
<ele>129.90</ele>
<time>2021-09-19T08:35:39Z</time>
</trkpt>
<trkpt lat="48.9102239" lon="2.8883696">
<ele>129.83</ele>
<time>2021-09-19T08:35:44Z</time>
</trkpt>
<trkpt lat="48.9104204" lon="2.8883626">
<ele>130.24</ele>
<time>2021-09-19T08:35:50Z</time>
</trkpt>
<trkpt lat="48.9105966" lon="2.8882326">
<ele>130.51</ele>
<time>2021-09-19T08:35:56Z</time>
</trkpt>
<trkpt lat="48.9107710" lon="2.8880427">
<ele>130.91</ele>
<time>2021-09-19T08:36:02Z</time>
</trkpt>
<trkpt lat="48.9109621" lon="2.8879065">
<ele>129.98</ele>
<time>2021-09-19T08:36:10Z</time>
</trkpt>
<trkpt lat="48.9111199" lon="2.8877509">
<ele>129.56</ele>
<time>2021-09-19T08:36:16Z</time>
</trkpt>
<trkpt lat="48.9112819" lon="2.8876200">
<ele>129.71</ele>
<time>2021-09-19T08:36:29Z</time>
</trkpt>
<trkpt lat="48.9114654" lon="2.8874720">
<ele>128.53</ele>
<time>2021-09-19T08:36:36Z</time>
</trkpt>
<trkpt lat="48.9116341" lon="2.8875687">
<ele>128.48</ele>
<time>2021-09-19T08:36:42Z</time>
</trkpt>
<trkpt lat="48.9117123" lon="2.8878598">
<ele>126.99</ele>
<time>2021-09-19T08:36:47Z</time>
</trkpt>
<trkpt lat="48.9117871" lon="2.8881125">
<ele>126.71</ele>
<time>2021-09-19T08:36:51Z</time>
</trkpt>
<trkpt lat="48.9118707" lon="2.8884065">
<ele>126.77</ele>
<time>2021-09-19T08:36:55Z</time>
</trkpt>
<trkpt lat="48.9119578" lon="2.8887297">
<ele>126.64</ele>
<time>2021-09-19T08:36:59Z</time>
</trkpt>
<trkpt lat="48.9120548" lon="2.8890557">
<ele>125.95</ele>
<time>2021-09-19T08:37:03Z</time>
</trkpt>
<trkpt lat="48.9121235" lon="2.8893100">
<ele>125.70</ele>
<time>2021-09-19T08:37:06Z</time>
</trkpt>
<trkpt lat="48.9121960" lon="2.8895644">
<ele>125.64</ele>
<time>2021-09-19T08:37:09Z</time>
</trkpt>
<trkpt lat="48.9122865" lon="2.8898644">
<ele>125.04</ele>
<time>2021-09-19T08:37:13Z</time>
</trkpt>
<trkpt lat="48.9123661" lon="2.8901363">
<ele>124.52</ele>
<time>2021-09-19T08:37:17Z</time>
</trkpt>
<trkpt lat="48.9124605" lon="2.8904362">
<ele>122.98</ele>
<time>2021-09-19T08:37:22Z</time>
</trkpt>
<trkpt lat="48.9125294" lon="2.8907189">
<ele>124.25</ele>
<time>2021-09-19T08:37:27Z</time>
</trkpt>
<trkpt lat="48.9126004" lon="2.8909801">
<ele>124.65</ele>
<time>2021-09-19T08:37:35Z</time>
</trkpt>
<trkpt lat="48.9126577" lon="2.8912652">
<ele>123.26</ele>
<time>2021-09-19T08:37:40Z</time>
</trkpt>
<trkpt lat="48.9126548" lon="2.8915691">
<ele>122.05</ele>
<time>2021-09-19T08:37:45Z</time>
</trkpt>
<trkpt lat="48.9126409" lon="2.8918700">
<ele>120.60</ele>
<time>2021-09-19T08:37:49Z</time>
</trkpt>
<trkpt lat="48.9126264" lon="2.8921673">
<ele>119.74</ele>
<time>2021-09-19T08:37:53Z</time>
</trkpt>
<trkpt lat="48.9125926" lon="2.8924428">
<ele>118.62</ele>
<time>2021-09-19T08:37:57Z</time>
</trkpt>
<trkpt lat="48.9125028" lon="2.8927403">
<ele>118.19</ele>
<time>2021-09-19T08:38:02Z</time>
</trkpt>
<trkpt lat="48.9123856" lon="2.8929943">
<ele>118.58</ele>
<time>2021-09-19T08:38:07Z</time>
</trkpt>
<trkpt lat="48.9122665" lon="2.8932504">
<ele>120.06</ele>
<time>2021-09-19T08:38:12Z</time>
</trkpt>
<trkpt lat="48.9121511" lon="2.8934746">
<ele>118.23</ele>
<time>2021-09-19T08:38:17Z</time>
</trkpt>
<trkpt lat="48.9120252" lon="2.8937116">
<ele>117.23</ele>
<time>2021-09-19T08:38:22Z</time>
</trkpt>
<trkpt lat="48.9119652" lon="2.8940293">
<ele>115.94</ele>
<time>2021-09-19T08:38:27Z</time>
</trkpt>
<trkpt lat="48.9119409" lon="2.8943051">
<ele>114.99</ele>
<time>2021-09-19T08:38:32Z</time>
</trkpt>
<trkpt lat="48.9119074" lon="2.8946034">
<ele>115.99</ele>
<time>2021-09-19T08:38:40Z</time>
</trkpt>
<trkpt lat="48.9119075" lon="2.8949081">
<ele>117.47</ele>
<time>2021-09-19T08:38:52Z</time>
</trkpt>
<trkpt lat="48.9119024" lon="2.8951883">
<ele>117.72</ele>
<time>2021-09-19T08:39:00Z</time>
</trkpt>
<trkpt lat="48.9119007" lon="2.8954887">
<ele>118.08</ele>
<time>2021-09-19T08:39:06Z</time>
</trkpt>
<trkpt lat="48.9119057" lon="2.8957676">
<ele>117.33</ele>
<time>2021-09-19T08:39:11Z</time>
</trkpt>
<trkpt lat="48.9119130" lon="2.8960716">
<ele>116.54</ele>
<time>2021-09-19T08:39:16Z</time>
</trkpt>
<trkpt lat="48.9119261" lon="2.8963568">
<ele>116.59</ele>
<time>2021-09-19T08:39:21Z</time>
</trkpt>
<trkpt lat="48.9119436" lon="2.8966300">
<ele>116.58</ele>
<time>2021-09-19T08:39:26Z</time>
</trkpt>
<trkpt lat="48.9119615" lon="2.8969189">
<ele>116.33</ele>
<time>2021-09-19T08:39:31Z</time>
</trkpt>
<trkpt lat="48.9119782" lon="2.8972082">
<ele>116.28</ele>
<time>2021-09-19T08:39:36Z</time>
</trkpt>
<trkpt lat="48.9119968" lon="2.8974998">
<ele>116.07</ele>
<time>2021-09-19T08:39:41Z</time>
</trkpt>
<trkpt lat="48.9120172" lon="2.8978052">
<ele>116.30</ele>
<time>2021-09-19T08:39:46Z</time>
</trkpt>
<trkpt lat="48.9120667" lon="2.8981091">
<ele>116.68</ele>
<time>2021-09-19T08:39:52Z</time>
</trkpt>
<trkpt lat="48.9121636" lon="2.8983520">
<ele>116.92</ele>
<time>2021-09-19T08:39:58Z</time>
</trkpt>
<trkpt lat="48.9123128" lon="2.8985863">
<ele>115.41</ele>
<time>2021-09-19T08:40:04Z</time>
</trkpt>
<trkpt lat="48.9125161" lon="2.8986286">
<ele>116.20</ele>
<time>2021-09-19T08:40:10Z</time>
</trkpt>
<trkpt lat="48.9127284" lon="2.8985964">
<ele>116.96</ele>
<time>2021-09-19T08:40:16Z</time>
</trkpt>
<trkpt lat="48.9129312" lon="2.8985690">
<ele>116.81</ele>
<time>2021-09-19T08:40:22Z</time>
</trkpt>
<trkpt lat="48.9131440" lon="2.8985825">
<ele>116.71</ele>
<time>2021-09-19T08:40:28Z</time>
</trkpt>
<trkpt lat="48.9133471" lon="2.8984894">
<ele>116.11</ele>
<time>2021-09-19T08:40:34Z</time>
</trkpt>
<trkpt lat="48.9135443" lon="2.8983528">
<ele>115.41</ele>
<time>2021-09-19T08:40:40Z</time>
</trkpt>
<trkpt lat="48.9137165" lon="2.8982367">
<ele>114.32</ele>
<time>2021-09-19T08:40:45Z</time>
</trkpt>
<trkpt lat="48.9139260" lon="2.8982127">
<ele>113.99</ele>
<time>2021-09-19T08:40:51Z</time>
</trkpt>
<trkpt lat="48.9141091" lon="2.8982109">
<ele>112.96</ele>
<time>2021-09-19T08:40:56Z</time>
</trkpt>
<trkpt lat="48.9143066" lon="2.8981747">
<ele>111.77</ele>
<time>2021-09-19T08:41:01Z</time>
</trkpt>
<trkpt lat="48.9144939" lon="2.8982264">
<ele>114.54</ele>
<time>2021-09-19T08:41:07Z</time>
</trkpt>
<trkpt lat="48.9146584" lon="2.8984016">
<ele>115.96</ele>
<time>2021-09-19T08:41:13Z</time>
</trkpt>
<trkpt lat="48.9148125" lon="2.8985710">
<ele>117.62</ele>
<time>2021-09-19T08:41:24Z</time>
</trkpt>
<trkpt lat="48.9149290" lon="2.8987883">
<ele>120.13</ele>
<time>2021-09-19T08:41:32Z</time>
</trkpt>
<trkpt lat="48.9151097" lon="2.8989432">
<ele>122.98</ele>
<time>2021-09-19T08:41:38Z</time>
</trkpt>
<trkpt lat="48.9152597" lon="2.8991706">
<ele>121.59</ele>
<time>2021-09-19T08:41:43Z</time>
</trkpt>
<trkpt lat="48.9153950" lon="2.8993857">
<ele>122.52</ele>
<time>2021-09-19T08:41:47Z</time>
</trkpt>
<trkpt lat="48.9155262" lon="2.8996224">
<ele>121.31</ele>
<time>2021-09-19T08:41:52Z</time>
</trkpt>
<trkpt lat="48.9156607" lon="2.8998229">
<ele>122.05</ele>
<time>2021-09-19T08:41:57Z</time>
</trkpt>
<trkpt lat="48.9158005" lon="2.9000303">
<ele>119.04</ele>
<time>2021-09-19T08:42:03Z</time>
</trkpt>
<trkpt lat="48.9159857" lon="2.9001993">
<ele>121.62</ele>
<time>2021-09-19T08:42:10Z</time>
</trkpt>
<trkpt lat="48.9161663" lon="2.9003386">
<ele>123.50</ele>
<time>2021-09-19T08:42:19Z</time>
</trkpt>
<trkpt lat="48.9163354" lon="2.9004623">
<ele>124.34</ele>
<time>2021-09-19T08:42:25Z</time>
</trkpt>
<trkpt lat="48.9165124" lon="2.9005512">
<ele>125.18</ele>
<time>2021-09-19T08:42:32Z</time>
</trkpt>
<trkpt lat="48.9166712" lon="2.9007261">
<ele>129.41</ele>
<time>2021-09-19T08:42:41Z</time>
</trkpt>
<trkpt lat="48.9168790" lon="2.9007997">
<ele>130.35</ele>
<time>2021-09-19T08:42:47Z</time>
</trkpt>
<trkpt lat="48.9170804" lon="2.9008573">
<ele>126.18</ele>
<time>2021-09-19T08:42:52Z</time>
</trkpt>
<trkpt lat="48.9172693" lon="2.9009461">
<ele>124.79</ele>
<time>2021-09-19T08:42:59Z</time>
</trkpt>
<trkpt lat="48.9174364" lon="2.9011101">
<ele>123.40</ele>
<time>2021-09-19T08:43:06Z</time>
</trkpt>
<trkpt lat="48.9176262" lon="2.9013056">
<ele>125.96</ele>
<time>2021-09-19T08:43:12Z</time>
</trkpt>
<trkpt lat="48.9177939" lon="2.9014358">
<ele>124.01</ele>
<time>2021-09-19T08:43:17Z</time>
</trkpt>
<trkpt lat="48.9179472" lon="2.9015924">
<ele>123.22</ele>
<time>2021-09-19T08:43:22Z</time>
</trkpt>
<trkpt lat="48.9181100" lon="2.9017401">
<ele>122.01</ele>
<time>2021-09-19T08:43:27Z</time>
</trkpt>
<trkpt lat="48.9182728" lon="2.9018668">
<ele>121.20</ele>
<time>2021-09-19T08:43:32Z</time>
</trkpt>
<trkpt lat="48.9184520" lon="2.9019719">
<ele>122.42</ele>
<time>2021-09-19T08:43:38Z</time>
</trkpt>
<trkpt lat="48.9186303" lon="2.9021168">
<ele>125.79</ele>
<time>2021-09-19T08:43:45Z</time>
</trkpt>
<trkpt lat="48.9188093" lon="2.9022970">
<ele>124.61</ele>
<time>2021-09-19T08:43:50Z</time>
</trkpt>
<trkpt lat="48.9189888" lon="2.9024565">
<ele>122.66</ele>
<time>2021-09-19T08:43:55Z</time>
</trkpt>
<trkpt lat="48.9191690" lon="2.9026065">
<ele>123.38</ele>
<time>2021-09-19T08:44:00Z</time>
</trkpt>
<trkpt lat="48.9193204" lon="2.9027547">
<ele>122.11</ele>
<time>2021-09-19T08:44:05Z</time>
</trkpt>
<trkpt lat="48.9195058" lon="2.9028616">
<ele>119.55</ele>
<time>2021-09-19T08:44:11Z</time>
</trkpt>
<trkpt lat="48.9197060" lon="2.9029171">
<ele>119.92</ele>
<time>2021-09-19T08:44:18Z</time>
</trkpt>
<trkpt lat="48.9199201" lon="2.9029661">
<ele>118.38</ele>
<time>2021-09-19T08:44:25Z</time>
</trkpt>
<trkpt lat="48.9201114" lon="2.9030519">
<ele>118.50</ele>
<time>2021-09-19T08:44:30Z</time>
</trkpt>
<trkpt lat="48.9202952" lon="2.9032083">
<ele>118.56</ele>
<time>2021-09-19T08:44:36Z</time>
</trkpt>
<trkpt lat="48.9204578" lon="2.9033779">
<ele>118.40</ele>
<time>2021-09-19T08:44:42Z</time>
</trkpt>
<trkpt lat="48.9206248" lon="2.9035534">
<ele>117.45</ele>
<time>2021-09-19T08:44:48Z</time>
</trkpt>
<trkpt lat="48.9208011" lon="2.9037387">
<ele>117.31</ele>
<time>2021-09-19T08:44:54Z</time>
</trkpt>
<trkpt lat="48.9209541" lon="2.9038984">
<ele>117.03</ele>
<time>2021-09-19T08:44:59Z</time>
</trkpt>
<trkpt lat="48.9210815" lon="2.9040924">
<ele>117.37</ele>
<time>2021-09-19T08:45:05Z</time>
</trkpt>
<trkpt lat="48.9211168" lon="2.9043657">
<ele>117.78</ele>
<time>2021-09-19T08:45:16Z</time>
</trkpt>
<trkpt lat="48.9211204" lon="2.9046463">
<ele>116.06</ele>
<time>2021-09-19T08:45:25Z</time>
</trkpt>
<trkpt lat="48.9210136" lon="2.9048842">
<ele>118.64</ele>
<time>2021-09-19T08:45:33Z</time>
</trkpt>
<trkpt lat="48.9209279" lon="2.9051615">
<ele>121.45</ele>
<time>2021-09-19T08:45:40Z</time>
</trkpt>
<trkpt lat="48.9208469" lon="2.9054099">
<ele>121.45</ele>
<time>2021-09-19T08:45:46Z</time>
</trkpt>
<trkpt lat="48.9207549" lon="2.9056935">
<ele>124.15</ele>
<time>2021-09-19T08:45:53Z</time>
</trkpt>
<trkpt lat="48.9206188" lon="2.9059431">
<ele>124.47</ele>
<time>2021-09-19T08:45:59Z</time>
</trkpt>
<trkpt lat="48.9205045" lon="2.9062029">
<ele>125.70</ele>
<time>2021-09-19T08:46:04Z</time>
</trkpt>
<trkpt lat="48.9203907" lon="2.9064556">
<ele>126.64</ele>
<time>2021-09-19T08:46:09Z</time>
</trkpt>
<trkpt lat="48.9202888" lon="2.9066905">
<ele>126.62</ele>
<time>2021-09-19T08:46:14Z</time>
</trkpt>
<trkpt lat="48.9202154" lon="2.9069468">
<ele>126.45</ele>
<time>2021-09-19T08:46:20Z</time>
</trkpt>
<trkpt lat="48.9201309" lon="2.9072086">
<ele>126.64</ele>
<time>2021-09-19T08:46:28Z</time>
</trkpt>
<trkpt lat="48.9202485" lon="2.9069615">
<ele>125.69</ele>
<time>2021-09-19T08:46:39Z</time>
</trkpt>
<trkpt lat="48.9204169" lon="2.9068000">
<ele>125.71</ele>
<time>2021-09-19T08:46:44Z</time>
</trkpt>
<trkpt lat="48.9206043" lon="2.9067879">
<ele>124.96</ele>
<time>2021-09-19T08:46:48Z</time>
</trkpt>
<trkpt lat="48.9208190" lon="2.9067585">
<ele>125.58</ele>
<time>2021-09-19T08:46:51Z</time>
</trkpt>
<trkpt lat="48.9210468" lon="2.9067275">
<ele>126.09</ele>
<time>2021-09-19T08:46:57Z</time>
</trkpt>
<trkpt lat="48.9212568" lon="2.9066529">
<ele>122.48</ele>
<time>2021-09-19T08:47:01Z</time>
</trkpt>
<trkpt lat="48.9214733" lon="2.9065950">
<ele>120.65</ele>
<time>2021-09-19T08:47:05Z</time>
</trkpt>
<trkpt lat="48.9216854" lon="2.9065168">
<ele>118.88</ele>
<time>2021-09-19T08:47:10Z</time>
</trkpt>
<trkpt lat="48.9218805" lon="2.9065379">
<ele>116.16</ele>
<time>2021-09-19T08:47:16Z</time>
</trkpt>
<trkpt lat="48.9219390" lon="2.9068132">
<ele>116.50</ele>
<time>2021-09-19T08:47:23Z</time>
</trkpt>
<trkpt lat="48.9219809" lon="2.9071041">
<ele>117.97</ele>
<time>2021-09-19T08:47:31Z</time>
</trkpt>
<trkpt lat="48.9220839" lon="2.9073694">
<ele>117.62</ele>
<time>2021-09-19T08:47:35Z</time>
</trkpt>
<trkpt lat="48.9221785" lon="2.9076435">
<ele>116.95</ele>
<time>2021-09-19T08:47:40Z</time>
</trkpt>
<trkpt lat="48.9222667" lon="2.9079542">
<ele>116.97</ele>
<time>2021-09-19T08:47:45Z</time>
</trkpt>
<trkpt lat="48.9222957" lon="2.9082467">
<ele>116.62</ele>
<time>2021-09-19T08:47:50Z</time>
</trkpt>
<trkpt lat="48.9222935" lon="2.9085626">
<ele>117.57</ele>
<time>2021-09-19T08:47:56Z</time>
</trkpt>
<trkpt lat="48.9223003" lon="2.9088605">
<ele>117.35</ele>
<time>2021-09-19T08:48:01Z</time>
</trkpt>
<trkpt lat="48.9222514" lon="2.9092914">
<ele>117.58</ele>
<time>2021-09-19T08:48:07Z</time>
</trkpt>
<trkpt lat="48.9221640" lon="2.9095418">
<ele>117.03</ele>
<time>2021-09-19T08:48:11Z</time>
</trkpt>
<trkpt lat="48.9220574" lon="2.9097835">
<ele>116.83</ele>
<time>2021-09-19T08:48:15Z</time>
</trkpt>
<trkpt lat="48.9219564" lon="2.9100207">
<ele>117.00</ele>
<time>2021-09-19T08:48:19Z</time>
</trkpt>
<trkpt lat="48.9218258" lon="2.9103110">
<ele>117.56</ele>
<time>2021-09-19T08:48:25Z</time>
</trkpt>
<trkpt lat="48.9217216" lon="2.9105747">
<ele>118.31</ele>
<time>2021-09-19T08:48:28Z</time>
</trkpt>
<trkpt lat="48.9216513" lon="2.9108470">
<ele>116.79</ele>
<time>2021-09-19T08:48:32Z</time>
</trkpt>
<trkpt lat="48.9215777" lon="2.9111627">
<ele>117.36</ele>
<time>2021-09-19T08:48:38Z</time>
</trkpt>
<trkpt lat="48.9215761" lon="2.9114498">
<ele>120.47</ele>
<time>2021-09-19T08:48:42Z</time>
</trkpt>
<trkpt lat="48.9215903" lon="2.9117344">
<ele>120.20</ele>
<time>2021-09-19T08:48:46Z</time>
</trkpt>
<trkpt lat="48.9216109" lon="2.9120096">
<ele>119.55</ele>
<time>2021-09-19T08:48:50Z</time>
</trkpt>
<trkpt lat="48.9215834" lon="2.9122895">
<ele>119.43</ele>
<time>2021-09-19T08:48:56Z</time>
</trkpt>
<trkpt lat="48.9215857" lon="2.9125681">
<ele>118.88</ele>
<time>2021-09-19T08:49:03Z</time>
</trkpt>
<trkpt lat="48.9215402" lon="2.9128398">
<ele>121.56</ele>
<time>2021-09-19T08:49:12Z</time>
</trkpt>
<trkpt lat="48.9214949" lon="2.9131572">
<ele>121.95</ele>
<time>2021-09-19T08:49:17Z</time>
</trkpt>
<trkpt lat="48.9214617" lon="2.9134389">
<ele>120.43</ele>
<time>2021-09-19T08:49:22Z</time>
</trkpt>
<trkpt lat="48.9214333" lon="2.9137495">
<ele>118.97</ele>
<time>2021-09-19T08:49:30Z</time>
</trkpt>
<trkpt lat="48.9213333" lon="2.9140199">
<ele>117.90</ele>
<time>2021-09-19T08:49:37Z</time>
</trkpt>
<trkpt lat="48.9213062" lon="2.9142927">
<ele>118.41</ele>
<time>2021-09-19T08:49:43Z</time>
</trkpt>
<trkpt lat="48.9212227" lon="2.9145527">
<ele>120.61</ele>
<time>2021-09-19T08:49:53Z</time>
</trkpt>
<trkpt lat="48.9211796" lon="2.9148667">
<ele>120.96</ele>
<time>2021-09-19T08:50:00Z</time>
</trkpt>
<trkpt lat="48.9211320" lon="2.9151533">
<ele>119.61</ele>
<time>2021-09-19T08:50:05Z</time>
</trkpt>
<trkpt lat="48.9211239" lon="2.9154551">
<ele>117.74</ele>
<time>2021-09-19T08:50:10Z</time>
</trkpt>
<trkpt lat="48.9210639" lon="2.9157443">
<ele>117.06</ele>
<time>2021-09-19T08:50:15Z</time>
</trkpt>
<trkpt lat="48.9209907" lon="2.9160230">
<ele>118.07</ele>
<time>2021-09-19T08:50:20Z</time>
</trkpt>
<trkpt lat="48.9209250" lon="2.9162811">
<ele>116.50</ele>
<time>2021-09-19T08:50:25Z</time>
</trkpt>
<trkpt lat="48.9208441" lon="2.9165383">
<ele>116.94</ele>
<time>2021-09-19T08:50:29Z</time>
</trkpt>
<trkpt lat="48.9207501" lon="2.9167918">
<ele>116.54</ele>
<time>2021-09-19T08:50:33Z</time>
</trkpt>
<trkpt lat="48.9206804" lon="2.9170851">
<ele>116.28</ele>
<time>2021-09-19T08:50:38Z</time>
</trkpt>
<trkpt lat="48.9206012" lon="2.9173728">
<ele>116.15</ele>
<time>2021-09-19T08:50:43Z</time>
</trkpt>
<trkpt lat="48.9205635" lon="2.9176817">
<ele>116.50</ele>
<time>2021-09-19T08:50:47Z</time>
</trkpt>
<trkpt lat="48.9205276" lon="2.9180101">
<ele>116.58</ele>
<time>2021-09-19T08:50:52Z</time>
</trkpt>
<trkpt lat="48.9205054" lon="2.9183293">
<ele>116.74</ele>
<time>2021-09-19T08:50:57Z</time>
</trkpt>
<trkpt lat="48.9204646" lon="2.9186361">
<ele>116.02</ele>
<time>2021-09-19T08:51:02Z</time>
</trkpt>
<trkpt lat="48.9204398" lon="2.9189078">
<ele>116.29</ele>
<time>2021-09-19T08:51:08Z</time>
</trkpt>
<trkpt lat="48.9204045" lon="2.9191771">
<ele>115.41</ele>
<time>2021-09-19T08:51:12Z</time>
</trkpt>
<trkpt lat="48.9204068" lon="2.9194847">
<ele>115.11</ele>
<time>2021-09-19T08:51:18Z</time>
</trkpt>
<trkpt lat="48.9204617" lon="2.9197476">
<ele>114.74</ele>
<time>2021-09-19T08:51:23Z</time>
</trkpt>
<trkpt lat="48.9205216" lon="2.9200547">
<ele>115.24</ele>
<time>2021-09-19T08:51:28Z</time>
</trkpt>
<trkpt lat="48.9205700" lon="2.9203285">
<ele>115.56</ele>
<time>2021-09-19T08:51:33Z</time>
</trkpt>
<trkpt lat="48.9205878" lon="2.9206386">
<ele>115.64</ele>
<time>2021-09-19T08:51:38Z</time>
</trkpt>
<trkpt lat="48.9205757" lon="2.9209572">
<ele>116.25</ele>
<time>2021-09-19T08:51:43Z</time>
</trkpt>
<trkpt lat="48.9205605" lon="2.9212677">
<ele>115.76</ele>
<time>2021-09-19T08:51:48Z</time>
</trkpt>
<trkpt lat="48.9205487" lon="2.9215757">
<ele>116.36</ele>
<time>2021-09-19T08:51:53Z</time>
</trkpt>
<trkpt lat="48.9205488" lon="2.9218991">
<ele>116.21</ele>
<time>2021-09-19T08:51:58Z</time>
</trkpt>
<trkpt lat="48.9205521" lon="2.9222210">
<ele>116.49</ele>
<time>2021-09-19T08:52:03Z</time>
</trkpt>
<trkpt lat="48.9205670" lon="2.9225297">
<ele>115.82</ele>
<time>2021-09-19T08:52:08Z</time>
</trkpt>
<trkpt lat="48.9205982" lon="2.9228022">
<ele>116.13</ele>
<time>2021-09-19T08:52:13Z</time>
</trkpt>
<trkpt lat="48.9206832" lon="2.9230961">
<ele>116.51</ele>
<time>2021-09-19T08:52:19Z</time>
</trkpt>
<trkpt lat="48.9207702" lon="2.9233519">
<ele>116.36</ele>
<time>2021-09-19T08:52:24Z</time>
</trkpt>
<trkpt lat="48.9208545" lon="2.9236161">
<ele>116.05</ele>
<time>2021-09-19T08:52:32Z</time>
</trkpt>
<trkpt lat="48.9208336" lon="2.9238987">
<ele>115.19</ele>
<time>2021-09-19T08:52:54Z</time>
</trkpt>
<trkpt lat="48.9208090" lon="2.9241952">
<ele>115.33</ele>
<time>2021-09-19T08:53:03Z</time>
</trkpt>
<trkpt lat="48.9209327" lon="2.9244020">
<ele>115.93</ele>
<time>2021-09-19T08:53:13Z</time>
</trkpt>
<trkpt lat="48.9209936" lon="2.9246727">
<ele>116.12</ele>
<time>2021-09-19T08:53:23Z</time>
</trkpt>
<trkpt lat="48.9210191" lon="2.9249938">
<ele>114.90</ele>
<time>2021-09-19T08:55:46Z</time>
</trkpt>
<trkpt lat="48.9210397" lon="2.9252892">
<ele>115.09</ele>
<time>2021-09-19T08:55:51Z</time>
</trkpt>
<trkpt lat="48.9210438" lon="2.9256099">
<ele>115.49</ele>
<time>2021-09-19T08:55:56Z</time>
</trkpt>
<trkpt lat="48.9210655" lon="2.9258936">
<ele>115.58</ele>
<time>2021-09-19T08:56:00Z</time>
</trkpt>
<trkpt lat="48.9210518" lon="2.9261730">
<ele>116.67</ele>
<time>2021-09-19T08:56:04Z</time>
</trkpt>
<trkpt lat="48.9209984" lon="2.9264639">
<ele>114.87</ele>
<time>2021-09-19T08:56:11Z</time>
</trkpt>
<trkpt lat="48.9211698" lon="2.9266141">
<ele>116.71</ele>
<time>2021-09-19T09:03:37Z</time>
</trkpt>
<trkpt lat="48.9213641" lon="2.9266293">
<ele>114.78</ele>
<time>2021-09-19T09:03:43Z</time>
</trkpt>
<trkpt lat="48.9215674" lon="2.9266706">
<ele>112.98</ele>
<time>2021-09-19T09:03:49Z</time>
</trkpt>
<trkpt lat="48.9217594" lon="2.9266930">
<ele>111.39</ele>
<time>2021-09-19T09:03:53Z</time>
</trkpt>
<trkpt lat="48.9219392" lon="2.9267190">
<ele>108.17</ele>
<time>2021-09-19T09:04:23Z</time>
</trkpt>
<trkpt lat="48.9221236" lon="2.9267649">
<ele>107.67</ele>
<time>2021-09-19T09:04:33Z</time>
</trkpt>
<trkpt lat="48.9223229" lon="2.9268159">
<ele>106.29</ele>
<time>2021-09-19T09:04:41Z</time>
</trkpt>
<trkpt lat="48.9225223" lon="2.9268347">
<ele>103.40</ele>
<time>2021-09-19T09:04:45Z</time>
</trkpt>
<trkpt lat="48.9227156" lon="2.9268588">
<ele>103.35</ele>
<time>2021-09-19T09:04:50Z</time>
</trkpt>
<trkpt lat="48.9229217" lon="2.9269383">
<ele>102.50</ele>
<time>2021-09-19T09:04:54Z</time>
</trkpt>
<trkpt lat="48.9231314" lon="2.9270309">
<ele>100.86</ele>
<time>2021-09-19T09:04:59Z</time>
</trkpt>
<trkpt lat="48.9233171" lon="2.9271366">
<ele>99.70</ele>
<time>2021-09-19T09:05:03Z</time>
</trkpt>
<trkpt lat="48.9235119" lon="2.9271946">
<ele>98.79</ele>
<time>2021-09-19T09:05:08Z</time>
</trkpt>
<trkpt lat="48.9237294" lon="2.9272961">
<ele>97.37</ele>
<time>2021-09-19T09:05:13Z</time>
</trkpt>
<trkpt lat="48.9239269" lon="2.9273887">
<ele>95.16</ele>
<time>2021-09-19T09:05:17Z</time>
</trkpt>
<trkpt lat="48.9241281" lon="2.9274632">
<ele>93.94</ele>
<time>2021-09-19T09:05:22Z</time>
</trkpt>
<trkpt lat="48.9243307" lon="2.9275593">
<ele>92.06</ele>
<time>2021-09-19T09:05:27Z</time>
</trkpt>
<trkpt lat="48.9245375" lon="2.9276590">
<ele>90.59</ele>
<time>2021-09-19T09:05:31Z</time>
</trkpt>
<trkpt lat="48.9247149" lon="2.9277584">
<ele>89.45</ele>
<time>2021-09-19T09:05:35Z</time>
</trkpt>
<trkpt lat="48.9248971" lon="2.9278526">
<ele>88.52</ele>
<time>2021-09-19T09:05:39Z</time>
</trkpt>
<trkpt lat="48.9250878" lon="2.9279438">
<ele>87.24</ele>
<time>2021-09-19T09:05:44Z</time>
</trkpt>
<trkpt lat="48.9252816" lon="2.9279852">
<ele>86.16</ele>
<time>2021-09-19T09:05:54Z</time>
</trkpt>
<trkpt lat="48.9254100" lon="2.9277562">
<ele>85.10</ele>
<time>2021-09-19T09:05:59Z</time>
</trkpt>
<trkpt lat="48.9255174" lon="2.9274765">
<ele>84.60</ele>
<time>2021-09-19T09:06:03Z</time>
</trkpt>
<trkpt lat="48.9256175" lon="2.9272132">
<ele>84.59</ele>
<time>2021-09-19T09:06:07Z</time>
</trkpt>
<trkpt lat="48.9257159" lon="2.9268719">
<ele>84.54</ele>
<time>2021-09-19T09:06:12Z</time>
</trkpt>
<trkpt lat="48.9257790" lon="2.9265707">
<ele>83.41</ele>
<time>2021-09-19T09:06:17Z</time>
</trkpt>
<trkpt lat="48.9258226" lon="2.9262859">
<ele>82.24</ele>
<time>2021-09-19T09:06:21Z</time>
</trkpt>
<trkpt lat="48.9258740" lon="2.9259821">
<ele>81.32</ele>
<time>2021-09-19T09:06:26Z</time>
</trkpt>
<trkpt lat="48.9259240" lon="2.9256687">
<ele>80.59</ele>
<time>2021-09-19T09:06:31Z</time>
</trkpt>
<trkpt lat="48.9259466" lon="2.9253867">
<ele>81.54</ele>
<time>2021-09-19T09:06:36Z</time>
</trkpt>
<trkpt lat="48.9259740" lon="2.9250729">
<ele>82.16</ele>
<time>2021-09-19T09:06:41Z</time>
</trkpt>
<trkpt lat="48.9260030" lon="2.9248002">
<ele>81.70</ele>
<time>2021-09-19T09:06:46Z</time>
</trkpt>
<trkpt lat="48.9260222" lon="2.9244741">
<ele>81.18</ele>
<time>2021-09-19T09:06:52Z</time>
</trkpt>
<trkpt lat="48.9260495" lon="2.9242025">
<ele>81.85</ele>
<time>2021-09-19T09:07:00Z</time>
</trkpt>
<trkpt lat="48.9260769" lon="2.9239214">
<ele>77.80</ele>
<time>2021-09-19T09:07:08Z</time>
</trkpt>
<trkpt lat="48.9261107" lon="2.9236424">
<ele>79.14</ele>
<time>2021-09-19T09:07:16Z</time>
</trkpt>
<trkpt lat="48.9261481" lon="2.9233472">
<ele>78.64</ele>
<time>2021-09-19T09:07:23Z</time>
</trkpt>
<trkpt lat="48.9261546" lon="2.9230554">
<ele>76.42</ele>
<time>2021-09-19T09:07:28Z</time>
</trkpt>
<trkpt lat="48.9261971" lon="2.9227643">
<ele>76.37</ele>
<time>2021-09-19T09:07:34Z</time>
</trkpt>
<trkpt lat="48.9262840" lon="2.9225006">
<ele>75.23</ele>
<time>2021-09-19T09:07:40Z</time>
</trkpt>
<trkpt lat="48.9263771" lon="2.9222335">
<ele>76.30</ele>
<time>2021-09-19T09:07:46Z</time>
</trkpt>
<trkpt lat="48.9265045" lon="2.9220033">
<ele>73.16</ele>
<time>2021-09-19T09:07:53Z</time>
</trkpt>
<trkpt lat="48.9266541" lon="2.9218324">
<ele>71.73</ele>
<time>2021-09-19T09:08:00Z</time>
</trkpt>
<trkpt lat="48.9268191" lon="2.9216392">
<ele>69.08</ele>
<time>2021-09-19T09:08:07Z</time>
</trkpt>
<trkpt lat="48.9268925" lon="2.9213649">
<ele>69.33</ele>
<time>2021-09-19T09:08:15Z</time>
</trkpt>
<trkpt lat="48.9270054" lon="2.9211503">
<ele>64.47</ele>
<time>2021-09-19T09:08:48Z</time>
</trkpt>
<trkpt lat="48.9270959" lon="2.9208992">
<ele>62.69</ele>
<time>2021-09-19T09:08:59Z</time>
</trkpt>
<trkpt lat="48.9272091" lon="2.9206479">
<ele>60.97</ele>
<time>2021-09-19T09:09:05Z</time>
</trkpt>
<trkpt lat="48.9273018" lon="2.9203815">
<ele>60.50</ele>
<time>2021-09-19T09:09:11Z</time>
</trkpt>
<trkpt lat="48.9273301" lon="2.9201012">
<ele>61.14</ele>
<time>2021-09-19T09:09:18Z</time>
</trkpt>
<trkpt lat="48.9273025" lon="2.9198019">
<ele>62.39</ele>
<time>2021-09-19T09:09:28Z</time>
</trkpt>
<trkpt lat="48.9273656" lon="2.9195302">
<ele>63.65</ele>
<time>2021-09-19T09:09:35Z</time>
</trkpt>
<trkpt lat="48.9274356" lon="2.9192749">
<ele>65.38</ele>
<time>2021-09-19T09:09:44Z</time>
</trkpt>
<trkpt lat="48.9274823" lon="2.9190046">
<ele>61.34</ele>
<time>2021-09-19T09:10:02Z</time>
</trkpt>
<trkpt lat="48.9275552" lon="2.9187439">
<ele>63.28</ele>
<time>2021-09-19T09:10:09Z</time>
</trkpt>
<trkpt lat="48.9276175" lon="2.9184626">
<ele>63.90</ele>
<time>2021-09-19T09:10:19Z</time>
</trkpt>
<trkpt lat="48.9276849" lon="2.9182057">
<ele>64.12</ele>
<time>2021-09-19T09:10:26Z</time>
</trkpt>
<trkpt lat="48.9278203" lon="2.9179890">
<ele>62.55</ele>
<time>2021-09-19T09:10:32Z</time>
</trkpt>
<trkpt lat="48.9279636" lon="2.9177686">
<ele>62.26</ele>
<time>2021-09-19T09:10:36Z</time>
</trkpt>
<trkpt lat="48.9281708" lon="2.9174628">
<ele>60.22</ele>
<time>2021-09-19T09:10:42Z</time>
</trkpt>
<trkpt lat="48.9283112" lon="2.9172348">
<ele>59.30</ele>
<time>2021-09-19T09:10:47Z</time>
</trkpt>
<trkpt lat="48.9284161" lon="2.9169836">
<ele>58.80</ele>
<time>2021-09-19T09:10:52Z</time>
</trkpt>
<trkpt lat="48.9285482" lon="2.9167862">
<ele>62.24</ele>
<time>2021-09-19T09:11:01Z</time>
</trkpt>
<trkpt lat="48.9286640" lon="2.9165627">
<ele>61.49</ele>
<time>2021-09-19T09:11:44Z</time>
</trkpt>
<trkpt lat="48.9287484" lon="2.9163053">
<ele>66.73</ele>
<time>2021-09-19T09:12:07Z</time>
</trkpt>
<trkpt lat="48.9288950" lon="2.9161198">
<ele>63.90</ele>
<time>2021-09-19T09:12:52Z</time>
</trkpt>
<trkpt lat="48.9290048" lon="2.9158914">
<ele>65.07</ele>
<time>2021-09-19T09:13:03Z</time>
</trkpt>
<trkpt lat="48.9290973" lon="2.9156450">
<ele>62.20</ele>
<time>2021-09-19T09:13:10Z</time>
</trkpt>
<trkpt lat="48.9291996" lon="2.9153934">
<ele>63.32</ele>
<time>2021-09-19T09:13:16Z</time>
</trkpt>
<trkpt lat="48.9292752" lon="2.9151130">
<ele>65.02</ele>
<time>2021-09-19T09:13:22Z</time>
</trkpt>
<trkpt lat="48.9292977" lon="2.9148282">
<ele>62.92</ele>
<time>2021-09-19T09:13:32Z</time>
</trkpt>
<trkpt lat="48.9293273" lon="2.9145414">
<ele>63.69</ele>
<time>2021-09-19T09:13:40Z</time>
</trkpt>
<trkpt lat="48.9293673" lon="2.9142622">
<ele>65.80</ele>
<time>2021-09-19T09:13:48Z</time>
</trkpt>
<trkpt lat="48.9294133" lon="2.9139750">
<ele>67.88</ele>
<time>2021-09-19T09:13:57Z</time>
</trkpt>
<trkpt lat="48.9294950" lon="2.9136165">
<ele>66.07</ele>
<time>2021-09-19T09:14:07Z</time>
</trkpt>
<trkpt lat="48.9295897" lon="2.9133714">
<ele>66.91</ele>
<time>2021-09-19T09:14:13Z</time>
</trkpt>
<trkpt lat="48.9296638" lon="2.9130714">
<ele>65.66</ele>
<time>2021-09-19T09:14:20Z</time>
</trkpt>
<trkpt lat="48.9297399" lon="2.9128051">
<ele>66.64</ele>
<time>2021-09-19T09:14:24Z</time>
</trkpt>
<trkpt lat="48.9298125" lon="2.9125248">
<ele>68.31</ele>
<time>2021-09-19T09:14:30Z</time>
</trkpt>
<trkpt lat="48.9298905" lon="2.9122709">
<ele>68.51</ele>
<time>2021-09-19T09:14:38Z</time>
</trkpt>
<trkpt lat="48.9299355" lon="2.9119735">
<ele>69.23</ele>
<time>2021-09-19T09:14:45Z</time>
</trkpt>
<trkpt lat="48.9299928" lon="2.9117012">
<ele>68.66</ele>
<time>2021-09-19T09:14:51Z</time>
</trkpt>
<trkpt lat="48.9300163" lon="2.9114155">
<ele>69.13</ele>
<time>2021-09-19T09:14:55Z</time>
</trkpt>
<trkpt lat="48.9300440" lon="2.9110982">
<ele>70.47</ele>
<time>2021-09-19T09:15:00Z</time>
</trkpt>
<trkpt lat="48.9300821" lon="2.9108175">
<ele>70.88</ele>
<time>2021-09-19T09:15:04Z</time>
</trkpt>
<trkpt lat="48.9301426" lon="2.9105457">
<ele>70.28</ele>
<time>2021-09-19T09:15:07Z</time>
</trkpt>
<trkpt lat="48.9302165" lon="2.9102246">
<ele>69.17</ele>
<time>2021-09-19T09:15:12Z</time>
</trkpt>
<trkpt lat="48.9303217" lon="2.9099685">
<ele>66.89</ele>
<time>2021-09-19T09:15:17Z</time>
</trkpt>
<trkpt lat="48.9304170" lon="2.9097270">
<ele>66.77</ele>
<time>2021-09-19T09:15:20Z</time>
</trkpt>
<trkpt lat="48.9305327" lon="2.9094772">
<ele>66.00</ele>
<time>2021-09-19T09:15:24Z</time>
</trkpt>
<trkpt lat="48.9306485" lon="2.9092053">
<ele>66.16</ele>
<time>2021-09-19T09:15:28Z</time>
</trkpt>
<trkpt lat="48.9307478" lon="2.9089710">
<ele>65.32</ele>
<time>2021-09-19T09:15:32Z</time>
</trkpt>
<trkpt lat="48.9308737" lon="2.9087022">
<ele>63.02</ele>
<time>2021-09-19T09:15:38Z</time>
</trkpt>
<trkpt lat="48.9309791" lon="2.9084612">
<ele>62.00</ele>
<time>2021-09-19T09:15:42Z</time>
</trkpt>
<trkpt lat="48.9310888" lon="2.9082233">
<ele>61.85</ele>
<time>2021-09-19T09:15:49Z</time>
</trkpt>
<trkpt lat="48.9311659" lon="2.9079546">
<ele>60.94</ele>
<time>2021-09-19T09:15:53Z</time>
</trkpt>
<trkpt lat="48.9312573" lon="2.9076383">
<ele>61.30</ele>
<time>2021-09-19T09:15:58Z</time>
</trkpt>
<trkpt lat="48.9313808" lon="2.9074227">
<ele>63.15</ele>
<time>2021-09-19T09:16:03Z</time>
</trkpt>
<trkpt lat="48.9314803" lon="2.9071327">
<ele>62.86</ele>
<time>2021-09-19T09:16:07Z</time>
</trkpt>
<trkpt lat="48.9316183" lon="2.9069181">
<ele>59.51</ele>
<time>2021-09-19T09:16:12Z</time>
</trkpt>
<trkpt lat="48.9317696" lon="2.9066528">
<ele>56.25</ele>
<time>2021-09-19T09:16:16Z</time>
</trkpt>
<trkpt lat="48.9318814" lon="2.9064368">
<ele>55.71</ele>
<time>2021-09-19T09:16:20Z</time>
</trkpt>
<trkpt lat="48.9320396" lon="2.9062874">
<ele>56.48</ele>
<time>2021-09-19T09:16:24Z</time>
</trkpt>
<trkpt lat="48.9322190" lon="2.9061922">
<ele>56.28</ele>
<time>2021-09-19T09:16:28Z</time>
</trkpt>
<trkpt lat="48.9324000" lon="2.9061546">
<ele>55.87</ele>
<time>2021-09-19T09:16:34Z</time>
</trkpt>
<trkpt lat="48.9326340" lon="2.9061596">
<ele>56.24</ele>
<time>2021-09-19T09:16:37Z</time>
</trkpt>
<trkpt lat="48.9328228" lon="2.9061690">
<ele>53.23</ele>
<time>2021-09-19T09:16:40Z</time>
</trkpt>
<trkpt lat="48.9329990" lon="2.9061126">
<ele>54.57</ele>
<time>2021-09-19T09:16:44Z</time>
</trkpt>
<trkpt lat="48.9331949" lon="2.9060710">
<ele>53.06</ele>
<time>2021-09-19T09:16:48Z</time>
</trkpt>
<trkpt lat="48.9333876" lon="2.9060720">
<ele>51.44</ele>
<time>2021-09-19T09:16:53Z</time>
</trkpt>
<trkpt lat="48.9335771" lon="2.9060566">
<ele>48.43</ele>
<time>2021-09-19T09:17:34Z</time>
</trkpt>
<trkpt lat="48.9337527" lon="2.9059279">
<ele>45.57</ele>
<time>2021-09-19T09:17:40Z</time>
</trkpt>
<trkpt lat="48.9339228" lon="2.9057600">
<ele>43.63</ele>
<time>2021-09-19T09:17:44Z</time>
</trkpt>
<trkpt lat="48.9340972" lon="2.9056868">
<ele>42.45</ele>
<time>2021-09-19T09:17:50Z</time>
</trkpt>
<trkpt lat="48.9342887" lon="2.9056773">
<ele>41.46</ele>
<time>2021-09-19T09:17:55Z</time>
</trkpt>
<trkpt lat="48.9344943" lon="2.9056684">
<ele>40.89</ele>
<time>2021-09-19T09:17:59Z</time>
</trkpt>
<trkpt lat="48.9347258" lon="2.9055499">
<ele>40.74</ele>
<time>2021-09-19T09:18:03Z</time>
</trkpt>
<trkpt lat="48.9349115" lon="2.9054826">
<ele>40.81</ele>
<time>2021-09-19T09:18:06Z</time>
</trkpt>
<trkpt lat="48.9350927" lon="2.9053870">
<ele>41.33</ele>
<time>2021-09-19T09:18:10Z</time>
</trkpt>
<trkpt lat="48.9353025" lon="2.9052629">
<ele>42.40</ele>
<time>2021-09-19T09:18:16Z</time>
</trkpt>
<trkpt lat="48.9354724" lon="2.9051397">
<ele>43.00</ele>
<time>2021-09-19T09:18:20Z</time>
</trkpt>
<trkpt lat="48.9356467" lon="2.9050385">
<ele>43.13</ele>
<time>2021-09-19T09:18:24Z</time>
</trkpt>
<trkpt lat="48.9357216" lon="2.9047556">
<ele>41.17</ele>
<time>2021-09-19T09:18:33Z</time>
</trkpt>
<trkpt lat="48.9357349" lon="2.9044572">
<ele>41.09</ele>
<time>2021-09-19T09:18:37Z</time>
</trkpt>
<trkpt lat="48.9356909" lon="2.9041631">
<ele>40.89</ele>
<time>2021-09-19T09:18:41Z</time>
</trkpt>
<trkpt lat="48.9356286" lon="2.9038996">
<ele>41.08</ele>
<time>2021-09-19T09:18:45Z</time>
</trkpt>
<trkpt lat="48.9355762" lon="2.9036310">
<ele>43.43</ele>
<time>2021-09-19T09:18:49Z</time>
</trkpt>
<trkpt lat="48.9355016" lon="2.9033415">
<ele>42.72</ele>
<time>2021-09-19T09:18:54Z</time>
</trkpt>
<trkpt lat="48.9353718" lon="2.9030644">
<ele>44.78</ele>
<time>2021-09-19T09:18:59Z</time>
</trkpt>
<trkpt lat="48.9353955" lon="2.9027916">
<ele>42.16</ele>
<time>2021-09-19T09:19:03Z</time>
</trkpt>
<trkpt lat="48.9353667" lon="2.9024369">
<ele>41.00</ele>
<time>2021-09-19T09:19:10Z</time>
</trkpt>
<trkpt lat="48.9353318" lon="2.9021344">
<ele>41.26</ele>
<time>2021-09-19T09:19:14Z</time>
</trkpt>
<trkpt lat="48.9352758" lon="2.9018726">
<ele>42.45</ele>
<time>2021-09-19T09:19:19Z</time>
</trkpt>
<trkpt lat="48.9352209" lon="2.9015794">
<ele>44.43</ele>
<time>2021-09-19T09:19:24Z</time>
</trkpt>
<trkpt lat="48.9351948" lon="2.9012762">
<ele>46.34</ele>
<time>2021-09-19T09:19:31Z</time>
</trkpt>
<trkpt lat="48.9351766" lon="2.9009853">
<ele>46.40</ele>
<time>2021-09-19T09:19:35Z</time>
</trkpt>
<trkpt lat="48.9351507" lon="2.9007016">
<ele>47.04</ele>
<time>2021-09-19T09:19:40Z</time>
</trkpt>
<trkpt lat="48.9351625" lon="2.9004216">
<ele>45.19</ele>
<time>2021-09-19T09:24:43Z</time>
</trkpt>
<trkpt lat="48.9351194" lon="2.9001481">
<ele>46.53</ele>
<time>2021-09-19T09:24:56Z</time>
</trkpt>
<trkpt lat="48.9351172" lon="2.8998706">
<ele>45.29</ele>
<time>2021-09-19T09:25:03Z</time>
</trkpt>
<trkpt lat="48.9351565" lon="2.8996031">
<ele>46.26</ele>
<time>2021-09-19T09:25:08Z</time>
</trkpt>
<trkpt lat="48.9352167" lon="2.8992936">
<ele>45.00</ele>
<time>2021-09-19T09:25:13Z</time>
</trkpt>
<trkpt lat="48.9352401" lon="2.8989680">
<ele>44.42</ele>
<time>2021-09-19T09:25:18Z</time>
</trkpt>
<trkpt lat="48.9353149" lon="2.8986694">
<ele>44.79</ele>
<time>2021-09-19T09:25:24Z</time>
</trkpt>
<trkpt lat="48.9352426" lon="2.8984130">
<ele>43.91</ele>
<time>2021-09-19T09:25:34Z</time>
</trkpt>
<trkpt lat="48.9350265" lon="2.8983165">
<ele>45.83</ele>
<time>2021-09-19T09:25:41Z</time>
</trkpt>
<trkpt lat="48.9348466" lon="2.8981882">
<ele>45.59</ele>
<time>2021-09-19T09:25:48Z</time>
</trkpt>
<trkpt lat="48.9348635" lon="2.8978650">
<ele>43.81</ele>
<time>2021-09-19T09:25:54Z</time>
</trkpt>
<trkpt lat="48.9349483" lon="2.8975075">
<ele>42.90</ele>
<time>2021-09-19T09:25:59Z</time>
</trkpt>
<trkpt lat="48.9350110" lon="2.8972270">
<ele>43.67</ele>
<time>2021-09-19T09:26:03Z</time>
</trkpt>
<trkpt lat="48.9351005" lon="2.8969127">
<ele>44.20</ele>
<time>2021-09-19T09:26:08Z</time>
</trkpt>
<trkpt lat="48.9351829" lon="2.8966349">
<ele>42.61</ele>
<time>2021-09-19T09:26:13Z</time>
</trkpt>
<trkpt lat="48.9352712" lon="2.8963677">
<ele>43.98</ele>
<time>2021-09-19T09:26:18Z</time>
</trkpt>
<trkpt lat="48.9353499" lon="2.8960615">
<ele>44.35</ele>
<time>2021-09-19T09:26:22Z</time>
</trkpt>
<trkpt lat="48.9354174" lon="2.8957661">
<ele>42.39</ele>
<time>2021-09-19T09:26:26Z</time>
</trkpt>
<trkpt lat="48.9355332" lon="2.8954465">
<ele>42.69</ele>
<time>2021-09-19T09:26:31Z</time>
</trkpt>
<trkpt lat="48.9355955" lon="2.8951282">
<ele>43.93</ele>
<time>2021-09-19T09:26:34Z</time>
</trkpt>
<trkpt lat="48.9356467" lon="2.8948220">
<ele>41.97</ele>
<time>2021-09-19T09:26:38Z</time>
</trkpt>
<trkpt lat="48.9357166" lon="2.8945361">
<ele>47.97</ele>
<time>2021-09-19T09:26:47Z</time>
</trkpt>
<trkpt lat="48.9358181" lon="2.8942797">
<ele>46.46</ele>
<time>2021-09-19T09:26:53Z</time>
</trkpt>
<trkpt lat="48.9359367" lon="2.8940588">
<ele>43.20</ele>
<time>2021-09-19T09:26:59Z</time>
</trkpt>
<trkpt lat="48.9360777" lon="2.8938600">
<ele>44.02</ele>
<time>2021-09-19T09:27:03Z</time>
</trkpt>
<trkpt lat="48.9361764" lon="2.8936170">
<ele>43.31</ele>
<time>2021-09-19T09:27:07Z</time>
</trkpt>
<trkpt lat="48.9363078" lon="2.8934170">
<ele>44.25</ele>
<time>2021-09-19T09:27:12Z</time>
</trkpt>
<trkpt lat="48.9364440" lon="2.8931928">
<ele>47.70</ele>
<time>2021-09-19T09:27:18Z</time>
</trkpt>
<trkpt lat="48.9365539" lon="2.8929756">
<ele>49.92</ele>
<time>2021-09-19T09:27:39Z</time>
</trkpt>
<trkpt lat="48.9366732" lon="2.8927426">
<ele>47.80</ele>
<time>2021-09-19T09:27:47Z</time>
</trkpt>
<trkpt lat="48.9368054" lon="2.8925361">
<ele>45.40</ele>
<time>2021-09-19T09:27:52Z</time>
</trkpt>
<trkpt lat="48.9369207" lon="2.8922814">
<ele>42.11</ele>
<time>2021-09-19T09:27:55Z</time>
</trkpt>
<trkpt lat="48.9370594" lon="2.8920587">
<ele>43.73</ele>
<time>2021-09-19T09:27:59Z</time>
</trkpt>
<trkpt lat="48.9372511" lon="2.8918069">
<ele>43.28</ele>
<time>2021-09-19T09:28:05Z</time>
</trkpt>
<trkpt lat="48.9373850" lon="2.8916209">
<ele>42.98</ele>
<time>2021-09-19T09:28:06Z</time>
</trkpt>
<trkpt lat="48.9375382" lon="2.8914270">
<ele>45.23</ele>
<time>2021-09-19T09:28:10Z</time>
</trkpt>
<trkpt lat="48.9376872" lon="2.8912212">
<ele>42.22</ele>
<time>2021-09-19T09:28:13Z</time>
</trkpt>
<trkpt lat="48.9378330" lon="2.8910524">
<ele>39.88</ele>
<time>2021-09-19T09:28:16Z</time>
</trkpt>
<trkpt lat="48.9379715" lon="2.8908643">
<ele>40.67</ele>
<time>2021-09-19T09:28:19Z</time>
</trkpt>
<trkpt lat="48.9381351" lon="2.8906036">
<ele>40.30</ele>
<time>2021-09-19T09:28:23Z</time>
</trkpt>
<trkpt lat="48.9383124" lon="2.8903974">
<ele>39.68</ele>
<time>2021-09-19T09:28:27Z</time>
</trkpt>
<trkpt lat="48.9384357" lon="2.8901934">
<ele>41.81</ele>
<time>2021-09-19T09:28:31Z</time>
</trkpt>
<trkpt lat="48.9385893" lon="2.8899808">
<ele>43.56</ele>
<time>2021-09-19T09:28:35Z</time>
</trkpt>
<trkpt lat="48.9387241" lon="2.8897574">
<ele>46.49</ele>
<time>2021-09-19T09:28:39Z</time>
</trkpt>
<trkpt lat="48.9388802" lon="2.8895546">
<ele>49.81</ele>
<time>2021-09-19T09:28:43Z</time>
</trkpt>
<trkpt lat="48.9390250" lon="2.8893301">
<ele>49.76</ele>
<time>2021-09-19T09:28:47Z</time>
</trkpt>
<trkpt lat="48.9391869" lon="2.8891610">
<ele>49.99</ele>
<time>2021-09-19T09:28:51Z</time>
</trkpt>
<trkpt lat="48.9393373" lon="2.8889735">
<ele>49.89</ele>
<time>2021-09-19T09:28:56Z</time>
</trkpt>
<trkpt lat="48.9395021" lon="2.8887658">
<ele>48.43</ele>
<time>2021-09-19T09:29:01Z</time>
</trkpt>
<trkpt lat="48.9396580" lon="2.8885864">
<ele>46.72</ele>
<time>2021-09-19T09:29:05Z</time>
</trkpt>
<trkpt lat="48.9398078" lon="2.8884112">
<ele>48.16</ele>
<time>2021-09-19T09:29:09Z</time>
</trkpt>
<trkpt lat="48.9399422" lon="2.8882161">
<ele>47.87</ele>
<time>2021-09-19T09:29:13Z</time>
</trkpt>
<trkpt lat="48.9401025" lon="2.8880529">
<ele>46.91</ele>
<time>2021-09-19T09:29:17Z</time>
</trkpt>
<trkpt lat="48.9402496" lon="2.8878808">
<ele>46.26</ele>
<time>2021-09-19T09:29:21Z</time>
</trkpt>
<trkpt lat="48.9404265" lon="2.8876783">
<ele>46.63</ele>
<time>2021-09-19T09:29:25Z</time>
</trkpt>
<trkpt lat="48.9406151" lon="2.8875041">
<ele>42.75</ele>
<time>2021-09-19T09:29:29Z</time>
</trkpt>
<trkpt lat="48.9407802" lon="2.8873182">
<ele>44.20</ele>
<time>2021-09-19T09:29:33Z</time>
</trkpt>
<trkpt lat="48.9410044" lon="2.8871195">
<ele>44.60</ele>
<time>2021-09-19T09:29:40Z</time>
</trkpt>
<trkpt lat="48.9411949" lon="2.8869322">
<ele>47.81</ele>
<time>2021-09-19T09:29:43Z</time>
</trkpt>
<trkpt lat="48.9413645" lon="2.8867757">
<ele>48.56</ele>
<time>2021-09-19T09:29:47Z</time>
</trkpt>
<trkpt lat="48.9415466" lon="2.8866062">
<ele>48.35</ele>
<time>2021-09-19T09:29:51Z</time>
</trkpt>
<trkpt lat="48.9417214" lon="2.8864303">
<ele>50.40</ele>
<time>2021-09-19T09:29:55Z</time>
</trkpt>
<trkpt lat="48.9418982" lon="2.8862148">
<ele>53.07</ele>
<time>2021-09-19T09:30:00Z</time>
</trkpt>
<trkpt lat="48.9420889" lon="2.8861378">
<ele>51.56</ele>
<time>2021-09-19T09:30:04Z</time>
</trkpt>
<trkpt lat="48.9423110" lon="2.8860473">
<ele>50.88</ele>
<time>2021-09-19T09:30:08Z</time>
</trkpt>
<trkpt lat="48.9425017" lon="2.8859613">
<ele>49.93</ele>
<time>2021-09-19T09:30:14Z</time>
</trkpt>
<trkpt lat="48.9426838" lon="2.8858676">
<ele>48.56</ele>
<time>2021-09-19T09:30:18Z</time>
</trkpt>
<trkpt lat="48.9429001" lon="2.8856993">
<ele>47.67</ele>
<time>2021-09-19T09:30:22Z</time>
</trkpt>
<trkpt lat="48.9430704" lon="2.8855747">
<ele>45.95</ele>
<time>2021-09-19T09:30:25Z</time>
</trkpt>
<trkpt lat="48.9432527" lon="2.8854385">
<ele>45.00</ele>
<time>2021-09-19T09:30:28Z</time>
</trkpt>
<trkpt lat="48.9434441" lon="2.8852886">
<ele>43.54</ele>
<time>2021-09-19T09:30:32Z</time>
</trkpt>
<trkpt lat="48.9436461" lon="2.8851269">
<ele>44.84</ele>
<time>2021-09-19T09:30:37Z</time>
</trkpt>
<trkpt lat="48.9438108" lon="2.8849809">
<ele>46.77</ele>
<time>2021-09-19T09:30:42Z</time>
</trkpt>
<trkpt lat="48.9439891" lon="2.8849127">
<ele>47.20</ele>
<time>2021-09-19T09:30:47Z</time>
</trkpt>
<trkpt lat="48.9442456" lon="2.8847739">
<ele>46.04</ele>
<time>2021-09-19T09:30:51Z</time>
</trkpt>
<trkpt lat="48.9444339" lon="2.8846381">
<ele>41.85</ele>
<time>2021-09-19T09:30:56Z</time>
</trkpt>
<trkpt lat="48.9446350" lon="2.8845806">
<ele>43.33</ele>
<time>2021-09-19T09:31:00Z</time>
</trkpt>
<trkpt lat="48.9448035" lon="2.8844487">
<ele>44.24</ele>
<time>2021-09-19T09:31:04Z</time>
</trkpt>
<trkpt lat="48.9449799" lon="2.8843529">
<ele>42.60</ele>
<time>2021-09-19T09:31:08Z</time>
</trkpt>
<trkpt lat="48.9451683" lon="2.8842605">
<ele>43.55</ele>
<time>2021-09-19T09:31:13Z</time>
</trkpt>
<trkpt lat="48.9453846" lon="2.8841671">
<ele>43.64</ele>
<time>2021-09-19T09:31:18Z</time>
</trkpt>
<trkpt lat="48.9455655" lon="2.8840921">
<ele>43.65</ele>
<time>2021-09-19T09:31:22Z</time>
</trkpt>
<trkpt lat="48.9457729" lon="2.8839363">
<ele>44.56</ele>
<time>2021-09-19T09:31:27Z</time>
</trkpt>
<trkpt lat="48.9459693" lon="2.8837890">
<ele>44.33</ele>
<time>2021-09-19T09:31:32Z</time>
</trkpt>
<trkpt lat="48.9461567" lon="2.8836649">
<ele>46.11</ele>
<time>2021-09-19T09:31:37Z</time>
</trkpt>
<trkpt lat="48.9463332" lon="2.8835728">
<ele>45.43</ele>
<time>2021-09-19T09:31:42Z</time>
</trkpt>
<trkpt lat="48.9465332" lon="2.8834459">
<ele>46.28</ele>
<time>2021-09-19T09:31:47Z</time>
</trkpt>
<trkpt lat="48.9467095" lon="2.8833497">
<ele>46.19</ele>
<time>2021-09-19T09:31:51Z</time>
</trkpt>
<trkpt lat="48.9469107" lon="2.8832540">
<ele>45.31</ele>
<time>2021-09-19T09:31:56Z</time>
</trkpt>
<trkpt lat="48.9470924" lon="2.8831664">
<ele>46.27</ele>
<time>2021-09-19T09:32:01Z</time>
</trkpt>
<trkpt lat="48.9472640" lon="2.8830678">
<ele>47.20</ele>
<time>2021-09-19T09:32:09Z</time>
</trkpt>
<trkpt lat="48.9474423" lon="2.8829702">
<ele>46.73</ele>
<time>2021-09-19T09:32:18Z</time>
</trkpt>
<trkpt lat="48.9476284" lon="2.8828595">
<ele>48.83</ele>
<time>2021-09-19T09:32:26Z</time>
</trkpt>
<trkpt lat="48.9478222" lon="2.8827656">
<ele>48.65</ele>
<time>2021-09-19T09:32:33Z</time>
</trkpt>
<trkpt lat="48.9480103" lon="2.8826807">
<ele>48.08</ele>
<time>2021-09-19T09:32:40Z</time>
</trkpt>
<trkpt lat="48.9481921" lon="2.8826133">
<ele>48.23</ele>
<time>2021-09-19T09:32:47Z</time>
</trkpt>
<trkpt lat="48.9483883" lon="2.8825580">
<ele>48.23</ele>
<time>2021-09-19T09:32:54Z</time>
</trkpt>
<trkpt lat="48.9485671" lon="2.8824574">
<ele>49.36</ele>
<time>2021-09-19T09:33:02Z</time>
</trkpt>
<trkpt lat="48.9487548" lon="2.8823644">
<ele>48.88</ele>
<time>2021-09-19T09:33:11Z</time>
</trkpt>
<trkpt lat="48.9489522" lon="2.8822897">
<ele>50.08</ele>
<time>2021-09-19T09:33:20Z</time>
</trkpt>
<trkpt lat="48.9491245" lon="2.8821715">
<ele>49.42</ele>
<time>2021-09-19T09:33:27Z</time>
</trkpt>
<trkpt lat="48.9493032" lon="2.8820413">
<ele>48.38</ele>
<time>2021-09-19T09:33:34Z</time>
</trkpt>
<trkpt lat="48.9494747" lon="2.8818576">
<ele>49.35</ele>
<time>2021-09-19T09:33:41Z</time>
</trkpt>
<trkpt lat="48.9496249" lon="2.8816936">
<ele>49.65</ele>
<time>2021-09-19T09:33:47Z</time>
</trkpt>
<trkpt lat="48.9497671" lon="2.8815235">
<ele>49.64</ele>
<time>2021-09-19T09:33:53Z</time>
</trkpt>
<trkpt lat="48.9499119" lon="2.8813378">
<ele>49.28</ele>
<time>2021-09-19T09:34:00Z</time>
</trkpt>
<trkpt lat="48.9500613" lon="2.8811611">
<ele>49.63</ele>
<time>2021-09-19T09:34:07Z</time>
</trkpt>
<trkpt lat="48.9502297" lon="2.8810301">
<ele>50.44</ele>
<time>2021-09-19T09:34:15Z</time>
</trkpt>
<trkpt lat="48.9503764" lon="2.8808327">
<ele>52.47</ele>
<time>2021-09-19T09:34:24Z</time>
</trkpt>
<trkpt lat="48.9505391" lon="2.8806683">
<ele>56.27</ele>
<time>2021-09-19T09:34:35Z</time>
</trkpt>
<trkpt lat="48.9506399" lon="2.8804061">
<ele>57.69</ele>
<time>2021-09-19T09:34:43Z</time>
</trkpt>
<trkpt lat="48.9506317" lon="2.8801115">
<ele>58.38</ele>
<time>2021-09-19T09:34:52Z</time>
</trkpt>
<trkpt lat="48.9507488" lon="2.8798901">
<ele>59.34</ele>
<time>2021-09-19T09:36:00Z</time>
</trkpt>
<trkpt lat="48.9509640" lon="2.8798178">
<ele>58.52</ele>
<time>2021-09-19T09:36:04Z</time>
</trkpt>
<trkpt lat="48.9511489" lon="2.8797975">
<ele>58.11</ele>
<time>2021-09-19T09:36:07Z</time>
</trkpt>
<trkpt lat="48.9513647" lon="2.8797501">
<ele>57.76</ele>
<time>2021-09-19T09:36:10Z</time>
</trkpt>
<trkpt lat="48.9515604" lon="2.8797173">
<ele>56.54</ele>
<time>2021-09-19T09:36:13Z</time>
</trkpt>
<trkpt lat="48.9517384" lon="2.8796422">
<ele>55.80</ele>
<time>2021-09-19T09:36:16Z</time>
</trkpt>
<trkpt lat="48.9518606" lon="2.8793737">
<ele>54.14</ele>
<time>2021-09-19T09:36:21Z</time>
</trkpt>
<trkpt lat="48.9520665" lon="2.8793352">
<ele>52.49</ele>
<time>2021-09-19T09:36:26Z</time>
</trkpt>
<trkpt lat="48.9521291" lon="2.8790384">
<ele>49.77</ele>
<time>2021-09-19T09:36:32Z</time>
</trkpt>
<trkpt lat="48.9521318" lon="2.8787148">
<ele>48.06</ele>
<time>2021-09-19T09:36:36Z</time>
</trkpt>
<trkpt lat="48.9521223" lon="2.8783553">
<ele>47.00</ele>
<time>2021-09-19T09:36:40Z</time>
</trkpt>
<trkpt lat="48.9521238" lon="2.8780811">
<ele>46.22</ele>
<time>2021-09-19T09:36:45Z</time>
</trkpt>
<trkpt lat="48.9521177" lon="2.8777922">
<ele>46.95</ele>
<time>2021-09-19T09:36:57Z</time>
</trkpt>
<trkpt lat="48.9521294" lon="2.8780879">
<ele>46.92</ele>
<time>2021-09-19T09:37:13Z</time>
</trkpt>
<trkpt lat="48.9521362" lon="2.8783779">
<ele>46.53</ele>
<time>2021-09-19T09:37:23Z</time>
</trkpt>
<trkpt lat="48.9521467" lon="2.8786628">
<ele>45.99</ele>
<time>2021-09-19T09:37:32Z</time>
</trkpt>
<trkpt lat="48.9521403" lon="2.8789518">
<ele>47.37</ele>
<time>2021-09-19T09:37:39Z</time>
</trkpt>
<trkpt lat="48.9521694" lon="2.8792570">
<ele>51.07</ele>
<time>2021-09-19T09:37:48Z</time>
</trkpt>
<trkpt lat="48.9523400" lon="2.8793499">
<ele>55.27</ele>
<time>2021-09-19T09:37:56Z</time>
</trkpt>
<trkpt lat="48.9525403" lon="2.8794325">
<ele>53.27</ele>
<time>2021-09-19T09:38:05Z</time>
</trkpt>
<trkpt lat="48.9527322" lon="2.8794078">
<ele>52.95</ele>
<time>2021-09-19T09:38:11Z</time>
</trkpt>
<trkpt lat="48.9529394" lon="2.8793405">
<ele>51.68</ele>
<time>2021-09-19T09:38:33Z</time>
</trkpt>
<trkpt lat="48.9531340" lon="2.8793244">
<ele>53.57</ele>
<time>2021-09-19T09:38:39Z</time>
</trkpt>
<trkpt lat="48.9532241" lon="2.8790474">
<ele>48.56</ele>
<time>2021-09-19T09:38:50Z</time>
</trkpt>
<trkpt lat="48.9532171" lon="2.8787148">
<ele>49.93</ele>
<time>2021-09-19T09:38:54Z</time>
</trkpt>
<trkpt lat="48.9531909" lon="2.8783682">
<ele>50.64</ele>
<time>2021-09-19T09:38:58Z</time>
</trkpt>
<trkpt lat="48.9531777" lon="2.8780829">
<ele>50.45</ele>
<time>2021-09-19T09:39:02Z</time>
</trkpt>
<trkpt lat="48.9531543" lon="2.8777714">
<ele>49.63</ele>
<time>2021-09-19T09:39:07Z</time>
</trkpt>
<trkpt lat="48.9529714" lon="2.8776918">
<ele>48.07</ele>
<time>2021-09-19T09:39:21Z</time>
</trkpt>
<trkpt lat="48.9527873" lon="2.8777112">
<ele>50.49</ele>
<time>2021-09-19T09:39:30Z</time>
</trkpt>
<trkpt lat="48.9527324" lon="2.8774430">
<ele>46.10</ele>
<time>2021-09-19T09:39:42Z</time>
</trkpt>
<trkpt lat="48.9528484" lon="2.8772213">
<ele>47.66</ele>
<time>2021-09-19T09:39:49Z</time>
</trkpt>
<trkpt lat="48.9529160" lon="2.8769273">
<ele>48.54</ele>
<time>2021-09-19T09:39:55Z</time>
</trkpt>
<trkpt lat="48.9529739" lon="2.8766414">
<ele>49.85</ele>
<time>2021-09-19T09:40:01Z</time>
</trkpt>
<trkpt lat="48.9529268" lon="2.8763647">
<ele>50.14</ele>
<time>2021-09-19T09:40:07Z</time>
</trkpt>
<trkpt lat="48.9530547" lon="2.8761268">
<ele>50.25</ele>
<time>2021-09-19T09:40:13Z</time>
</trkpt>
<trkpt lat="48.9529613" lon="2.8758498">
<ele>49.67</ele>
<time>2021-09-19T09:40:21Z</time>
</trkpt>
<trkpt lat="48.9527970" lon="2.8757137">
<ele>49.57</ele>
<time>2021-09-19T09:40:32Z</time>
</trkpt>
<trkpt lat="48.9528622" lon="2.8754362">
<ele>48.31</ele>
<time>2021-09-19T09:40:42Z</time>
</trkpt>
<trkpt lat="48.9530419" lon="2.8753488">
<ele>48.07</ele>
<time>2021-09-19T09:40:50Z</time>
</trkpt>
<trkpt lat="48.9532204" lon="2.8752544">
<ele>48.78</ele>
<time>2021-09-19T09:40:56Z</time>
</trkpt>
<trkpt lat="48.9534031" lon="2.8752501">
<ele>49.28</ele>
<time>2021-09-19T09:41:03Z</time>
</trkpt>
<trkpt lat="48.9536070" lon="2.8752158">
<ele>48.23</ele>
<time>2021-09-19T09:41:10Z</time>
</trkpt>
<trkpt lat="48.9538194" lon="2.8751373">
<ele>46.96</ele>
<time>2021-09-19T09:41:15Z</time>
</trkpt>
<trkpt lat="48.9540360" lon="2.8750651">
<ele>46.75</ele>
<time>2021-09-19T09:41:21Z</time>
</trkpt>
<trkpt lat="48.9542295" lon="2.8749991">
<ele>46.69</ele>
<time>2021-09-19T09:41:25Z</time>
</trkpt>
<trkpt lat="48.9541636" lon="2.8752935">
<ele>47.73</ele>
<time>2021-09-19T09:41:49Z</time>
</trkpt>
<trkpt lat="48.9541657" lon="2.8755836">
<ele>47.42</ele>
<time>2021-09-19T09:41:54Z</time>
</trkpt>
<trkpt lat="48.9542754" lon="2.8753463">
<ele>50.08</ele>
<time>2021-09-19T09:42:14Z</time>
</trkpt>
<trkpt lat="48.9542560" lon="2.8750653">
<ele>52.39</ele>
<time>2021-09-19T09:42:33Z</time>
</trkpt>
<trkpt lat="48.9542374" lon="2.8747826">
<ele>52.08</ele>
<time>2021-09-19T09:42:41Z</time>
</trkpt>
<trkpt lat="48.9542143" lon="2.8744933">
<ele>52.46</ele>
<time>2021-09-19T09:42:47Z</time>
</trkpt>
<trkpt lat="48.9541926" lon="2.8741809">
<ele>50.26</ele>
<time>2021-09-19T09:42:53Z</time>
</trkpt>
<trkpt lat="48.9543282" lon="2.8739441">
<ele>48.90</ele>
<time>2021-09-19T09:43:00Z</time>
</trkpt>
<trkpt lat="48.9545153" lon="2.8738916">
<ele>47.72</ele>
<time>2021-09-19T09:43:04Z</time>
</trkpt>
<trkpt lat="48.9547274" lon="2.8738244">
<ele>46.92</ele>
<time>2021-09-19T09:43:09Z</time>
</trkpt>
<trkpt lat="48.9549140" lon="2.8738383">
<ele>46.19</ele>
<time>2021-09-19T09:43:14Z</time>
</trkpt>
<trkpt lat="48.9547417" lon="2.8737083">
<ele>45.40</ele>
<time>2021-09-19T09:43:23Z</time>
</trkpt>
<trkpt lat="48.9545444" lon="2.8737109">
<ele>45.30</ele>
<time>2021-09-19T09:43:29Z</time>
</trkpt>
<trkpt lat="48.9543311" lon="2.8737425">
<ele>45.02</ele>
<time>2021-09-19T09:43:34Z</time>
</trkpt>
<trkpt lat="48.9541133" lon="2.8737779">
<ele>44.61</ele>
<time>2021-09-19T09:43:39Z</time>
</trkpt>
<trkpt lat="48.9539197" lon="2.8738001">
<ele>44.98</ele>
<time>2021-09-19T09:43:44Z</time>
</trkpt>
<trkpt lat="48.9537378" lon="2.8738273">
<ele>45.85</ele>
<time>2021-09-19T09:43:49Z</time>
</trkpt>
<trkpt lat="48.9535517" lon="2.8737537">
<ele>45.04</ele>
<time>2021-09-19T09:43:55Z</time>
</trkpt>
<trkpt lat="48.9533682" lon="2.8736368">
<ele>45.31</ele>
<time>2021-09-19T09:44:01Z</time>
</trkpt>
<trkpt lat="48.9531688" lon="2.8735680">
<ele>44.17</ele>
<time>2021-09-19T09:44:09Z</time>
</trkpt>
<trkpt lat="48.9529765" lon="2.8734991">
<ele>44.85</ele>
<time>2021-09-19T09:44:17Z</time>
</trkpt>
<trkpt lat="48.9527916" lon="2.8734995">
<ele>45.99</ele>
<time>2021-09-19T09:44:26Z</time>
</trkpt>
<trkpt lat="48.9526671" lon="2.8737268">
<ele>46.32</ele>
<time>2021-09-19T09:44:35Z</time>
</trkpt>
<trkpt lat="48.9526501" lon="2.8740220">
<ele>46.06</ele>
<time>2021-09-19T09:44:41Z</time>
</trkpt>
<trkpt lat="48.9525068" lon="2.8742328">
<ele>45.94</ele>
<time>2021-09-19T09:44:48Z</time>
</trkpt>
<trkpt lat="48.9523123" lon="2.8743195">
<ele>45.91</ele>
<time>2021-09-19T09:44:54Z</time>
</trkpt>
<trkpt lat="48.9521289" lon="2.8744227">
<ele>45.78</ele>
<time>2021-09-19T09:45:02Z</time>
</trkpt>
<trkpt lat="48.9519426" lon="2.8744258">
<ele>48.59</ele>
<time>2021-09-19T09:45:13Z</time>
</trkpt>
<trkpt lat="48.9517661" lon="2.8744989">
<ele>47.15</ele>
<time>2021-09-19T09:45:54Z</time>
</trkpt>
<trkpt lat="48.9515942" lon="2.8745798">
<ele>46.75</ele>
<time>2021-09-19T09:46:11Z</time>
</trkpt>
<trkpt lat="48.9514176" lon="2.8746482">
<ele>46.25</ele>
<time>2021-09-19T09:46:29Z</time>
</trkpt>
<trkpt lat="48.9512428" lon="2.8747438">
<ele>44.80</ele>
<time>2021-09-19T09:46:50Z</time>
</trkpt>
<trkpt lat="48.9510379" lon="2.8748317">
<ele>45.90</ele>
<time>2021-09-19T09:47:02Z</time>
</trkpt>
<trkpt lat="48.9508615" lon="2.8749145">
<ele>45.44</ele>
<time>2021-09-19T09:47:06Z</time>
</trkpt>
<trkpt lat="48.9506591" lon="2.8750480">
<ele>47.04</ele>
<time>2021-09-19T09:47:10Z</time>
</trkpt>
<trkpt lat="48.9504602" lon="2.8751306">
<ele>46.03</ele>
<time>2021-09-19T09:47:14Z</time>
</trkpt>
<trkpt lat="48.9502522" lon="2.8752478">
<ele>41.91</ele>
<time>2021-09-19T09:47:18Z</time>
</trkpt>
<trkpt lat="48.9500558" lon="2.8754066">
<ele>43.56</ele>
<time>2021-09-19T09:47:22Z</time>
</trkpt>
<trkpt lat="48.9498604" lon="2.8755128">
<ele>43.16</ele>
<time>2021-09-19T09:47:26Z</time>
</trkpt>
<trkpt lat="48.9496744" lon="2.8757234">
<ele>42.72</ele>
<time>2021-09-19T09:47:31Z</time>
</trkpt>
<trkpt lat="48.9494593" lon="2.8757755">
<ele>41.67</ele>
<time>2021-09-19T09:47:37Z</time>
</trkpt>
<trkpt lat="48.9492582" lon="2.8757128">
<ele>41.08</ele>
<time>2021-09-19T09:47:41Z</time>
</trkpt>
<trkpt lat="48.9490853" lon="2.8758040">
<ele>43.84</ele>
<time>2021-09-19T09:47:46Z</time>
</trkpt>
<trkpt lat="48.9488986" lon="2.8757510">
<ele>45.40</ele>
<time>2021-09-19T09:47:52Z</time>
</trkpt>
<trkpt lat="48.9487183" lon="2.8756208">
<ele>44.20</ele>
<time>2021-09-19T09:47:58Z</time>
</trkpt>
<trkpt lat="48.9485548" lon="2.8754314">
<ele>44.33</ele>
<time>2021-09-19T09:48:03Z</time>
</trkpt>
<trkpt lat="48.9483976" lon="2.8752565">
<ele>44.69</ele>
<time>2021-09-19T09:48:08Z</time>
</trkpt>
<trkpt lat="48.9482269" lon="2.8750522">
<ele>45.28</ele>
<time>2021-09-19T09:48:13Z</time>
</trkpt>
<trkpt lat="48.9480542" lon="2.8748767">
<ele>46.03</ele>
<time>2021-09-19T09:48:18Z</time>
</trkpt>
<trkpt lat="48.9479112" lon="2.8746731">
<ele>45.80</ele>
<time>2021-09-19T09:48:23Z</time>
</trkpt>
<trkpt lat="48.9477730" lon="2.8744764">
<ele>46.05</ele>
<time>2021-09-19T09:48:28Z</time>
</trkpt>
<trkpt lat="48.9476151" lon="2.8742992">
<ele>46.53</ele>
<time>2021-09-19T09:48:32Z</time>
</trkpt>
<trkpt lat="48.9474585" lon="2.8740912">
<ele>46.13</ele>
<time>2021-09-19T09:48:36Z</time>
</trkpt>
<trkpt lat="48.9472662" lon="2.8739540">
<ele>46.31</ele>
<time>2021-09-19T09:48:40Z</time>
</trkpt>
<trkpt lat="48.9470711" lon="2.8738330">
<ele>46.06</ele>
<time>2021-09-19T09:48:45Z</time>
</trkpt>
<trkpt lat="48.9468888" lon="2.8737625">
<ele>45.77</ele>
<time>2021-09-19T09:48:49Z</time>
</trkpt>
<trkpt lat="48.9466980" lon="2.8736532">
<ele>46.13</ele>
<time>2021-09-19T09:48:54Z</time>
</trkpt>
<trkpt lat="48.9464507" lon="2.8735535">
<ele>46.58</ele>
<time>2021-09-19T09:49:01Z</time>
</trkpt>
<trkpt lat="48.9462383" lon="2.8734198">
<ele>46.07</ele>
<time>2021-09-19T09:49:06Z</time>
</trkpt>
<trkpt lat="48.9460620" lon="2.8733154">
<ele>45.79</ele>
<time>2021-09-19T09:49:12Z</time>
</trkpt>
<trkpt lat="48.9458887" lon="2.8731906">
<ele>47.56</ele>
<time>2021-09-19T09:49:18Z</time>
</trkpt>
<trkpt lat="48.9457082" lon="2.8731291">
<ele>44.82</ele>
<time>2021-09-19T09:49:24Z</time>
</trkpt>
<trkpt lat="48.9455197" lon="2.8729792">
<ele>46.64</ele>
<time>2021-09-19T09:49:29Z</time>
</trkpt>
<trkpt lat="48.9453605" lon="2.8728101">
<ele>45.75</ele>
<time>2021-09-19T09:49:37Z</time>
</trkpt>
<trkpt lat="48.9451830" lon="2.8726563">
<ele>45.47</ele>
<time>2021-09-19T09:49:45Z</time>
</trkpt>
<trkpt lat="48.9450053" lon="2.8725263">
<ele>46.05</ele>
<time>2021-09-19T09:49:50Z</time>
</trkpt>
<trkpt lat="48.9448112" lon="2.8723367">
<ele>46.53</ele>
<time>2021-09-19T09:49:55Z</time>
</trkpt>
<trkpt lat="48.9446355" lon="2.8721456">
<ele>47.18</ele>
<time>2021-09-19T09:49:59Z</time>
</trkpt>
<trkpt lat="48.9444456" lon="2.8719992">
<ele>48.11</ele>
<time>2021-09-19T09:50:03Z</time>
</trkpt>
<trkpt lat="48.9442632" lon="2.8718315">
<ele>47.16</ele>
<time>2021-09-19T09:50:07Z</time>
</trkpt>
<trkpt lat="48.9440899" lon="2.8716394">
<ele>46.92</ele>
<time>2021-09-19T09:50:11Z</time>
</trkpt>
<trkpt lat="48.9439318" lon="2.8714262">
<ele>44.68</ele>
<time>2021-09-19T09:50:16Z</time>
</trkpt>
<trkpt lat="48.9437710" lon="2.8712595">
<ele>44.06</ele>
<time>2021-09-19T09:50:20Z</time>
</trkpt>
<trkpt lat="48.9436223" lon="2.8710904">
<ele>44.31</ele>
<time>2021-09-19T09:50:24Z</time>
</trkpt>
<trkpt lat="48.9434660" lon="2.8708740">
<ele>45.33</ele>
<time>2021-09-19T09:50:29Z</time>
</trkpt>
<trkpt lat="48.9433472" lon="2.8706649">
<ele>44.53</ele>
<time>2021-09-19T09:50:33Z</time>
</trkpt>
<trkpt lat="48.9432355" lon="2.8704441">
<ele>44.51</ele>
<time>2021-09-19T09:50:38Z</time>
</trkpt>
<trkpt lat="48.9431092" lon="2.8702344">
<ele>46.22</ele>
<time>2021-09-19T09:50:45Z</time>
</trkpt>
<trkpt lat="48.9429180" lon="2.8700867">
<ele>46.45</ele>
<time>2021-09-19T09:50:50Z</time>
</trkpt>
<trkpt lat="48.9427363" lon="2.8699194">
<ele>46.66</ele>
<time>2021-09-19T09:50:55Z</time>
</trkpt>
<trkpt lat="48.9425804" lon="2.8697015">
<ele>45.23</ele>
<time>2021-09-19T09:51:00Z</time>
</trkpt>
<trkpt lat="48.9424149" lon="2.8695095">
<ele>44.48</ele>
<time>2021-09-19T09:51:05Z</time>
</trkpt>
<trkpt lat="48.9422470" lon="2.8692974">
<ele>43.83</ele>
<time>2021-09-19T09:51:10Z</time>
</trkpt>
<trkpt lat="48.9421188" lon="2.8690932">
<ele>43.81</ele>
<time>2021-09-19T09:51:15Z</time>
</trkpt>
<trkpt lat="48.9419791" lon="2.8688916">
<ele>44.33</ele>
<time>2021-09-19T09:51:21Z</time>
</trkpt>
<trkpt lat="48.9418224" lon="2.8687405">
<ele>43.70</ele>
<time>2021-09-19T09:51:27Z</time>
</trkpt>
<trkpt lat="48.9416605" lon="2.8685520">
<ele>43.33</ele>
<time>2021-09-19T09:51:33Z</time>
</trkpt>
<trkpt lat="48.9415085" lon="2.8683731">
<ele>43.57</ele>
<time>2021-09-19T09:51:38Z</time>
</trkpt>
<trkpt lat="48.9413599" lon="2.8682029">
<ele>43.29</ele>
<time>2021-09-19T09:51:42Z</time>
</trkpt>
<trkpt lat="48.9412072" lon="2.8680492">
<ele>44.15</ele>
<time>2021-09-19T09:51:46Z</time>
</trkpt>
<trkpt lat="48.9410464" lon="2.8678293">
<ele>44.57</ele>
<time>2021-09-19T09:51:51Z</time>
</trkpt>
<trkpt lat="48.9408898" lon="2.8676378">
<ele>43.90</ele>
<time>2021-09-19T09:51:56Z</time>
</trkpt>
<trkpt lat="48.9407388" lon="2.8674533">
<ele>44.36</ele>
<time>2021-09-19T09:52:01Z</time>
</trkpt>
<trkpt lat="48.9405772" lon="2.8672754">
<ele>44.63</ele>
<time>2021-09-19T09:52:06Z</time>
</trkpt>
<trkpt lat="48.9404260" lon="2.8670901">
<ele>43.72</ele>
<time>2021-09-19T09:52:11Z</time>
</trkpt>
<trkpt lat="48.9402647" lon="2.8668843">
<ele>43.92</ele>
<time>2021-09-19T09:52:17Z</time>
</trkpt>
<trkpt lat="48.9400980" lon="2.8667042">
<ele>43.45</ele>
<time>2021-09-19T09:52:23Z</time>
</trkpt>
<trkpt lat="48.9399308" lon="2.8664999">
<ele>42.62</ele>
<time>2021-09-19T09:52:29Z</time>
</trkpt>
<trkpt lat="48.9397658" lon="2.8663323">
<ele>42.41</ele>
<time>2021-09-19T09:52:34Z</time>
</trkpt>
<trkpt lat="48.9396124" lon="2.8661477">
<ele>42.45</ele>
<time>2021-09-19T09:52:39Z</time>
</trkpt>
<trkpt lat="48.9394613" lon="2.8659514">
<ele>42.37</ele>
<time>2021-09-19T09:52:44Z</time>
</trkpt>
<trkpt lat="48.9392842" lon="2.8657328">
<ele>41.70</ele>
<time>2021-09-19T09:52:49Z</time>
</trkpt>
<trkpt lat="48.9391434" lon="2.8655484">
<ele>42.67</ele>
<time>2021-09-19T09:52:53Z</time>
</trkpt>
<trkpt lat="48.9389891" lon="2.8653460">
<ele>43.64</ele>
<time>2021-09-19T09:52:58Z</time>
</trkpt>
<trkpt lat="48.9388347" lon="2.8651417">
<ele>42.88</ele>
<time>2021-09-19T09:53:03Z</time>
</trkpt>
<trkpt lat="48.9386823" lon="2.8649181">
<ele>43.76</ele>
<time>2021-09-19T09:53:08Z</time>
</trkpt>
<trkpt lat="48.9385230" lon="2.8646800">
<ele>43.85</ele>
<time>2021-09-19T09:53:13Z</time>
</trkpt>
<trkpt lat="48.9383850" lon="2.8644582">
<ele>45.00</ele>
<time>2021-09-19T09:53:19Z</time>
</trkpt>
<trkpt lat="48.9382409" lon="2.8642163">
<ele>45.61</ele>
<time>2021-09-19T09:53:28Z</time>
</trkpt>
<trkpt lat="48.9380857" lon="2.8639934">
<ele>45.15</ele>
<time>2021-09-19T09:53:33Z</time>
</trkpt>
<trkpt lat="48.9378968" lon="2.8638079">
<ele>44.11</ele>
<time>2021-09-19T09:53:37Z</time>
</trkpt>
<trkpt lat="48.9377213" lon="2.8635776">
<ele>43.52</ele>
<time>2021-09-19T09:53:41Z</time>
</trkpt>
<trkpt lat="48.9375650" lon="2.8633383">
<ele>43.17</ele>
<time>2021-09-19T09:53:45Z</time>
</trkpt>
<trkpt lat="48.9374179" lon="2.8631322">
<ele>42.77</ele>
<time>2021-09-19T09:53:49Z</time>
</trkpt>
<trkpt lat="48.9372585" lon="2.8629225">
<ele>41.66</ele>
<time>2021-09-19T09:53:54Z</time>
</trkpt>
<trkpt lat="48.9371294" lon="2.8627306">
<ele>42.05</ele>
<time>2021-09-19T09:53:58Z</time>
</trkpt>
<trkpt lat="48.9370000" lon="2.8625221">
<ele>42.00</ele>
<time>2021-09-19T09:54:02Z</time>
</trkpt>
<trkpt lat="48.9368639" lon="2.8623240">
<ele>42.05</ele>
<time>2021-09-19T09:54:06Z</time>
</trkpt>
<trkpt lat="48.9367210" lon="2.8621042">
<ele>43.17</ele>
<time>2021-09-19T09:54:11Z</time>
</trkpt>
<trkpt lat="48.9365694" lon="2.8619126">
<ele>42.29</ele>
<time>2021-09-19T09:54:16Z</time>
</trkpt>
<trkpt lat="48.9364113" lon="2.8617067">
<ele>43.77</ele>
<time>2021-09-19T09:54:21Z</time>
</trkpt>
<trkpt lat="48.9362599" lon="2.8615148">
<ele>42.39</ele>
<time>2021-09-19T09:54:25Z</time>
</trkpt>
<trkpt lat="48.9361021" lon="2.8612836">
<ele>44.59</ele>
<time>2021-09-19T09:54:30Z</time>
</trkpt>
<trkpt lat="48.9359356" lon="2.8610656">
<ele>43.70</ele>
<time>2021-09-19T09:54:35Z</time>
</trkpt>
<trkpt lat="48.9357878" lon="2.8608650">
<ele>42.15</ele>
<time>2021-09-19T09:54:40Z</time>
</trkpt>
<trkpt lat="48.9356465" lon="2.8606955">
<ele>42.15</ele>
<time>2021-09-19T09:54:44Z</time>
</trkpt>
<trkpt lat="48.9354868" lon="2.8605075">
<ele>42.50</ele>
<time>2021-09-19T09:54:49Z</time>
</trkpt>
<trkpt lat="48.9353437" lon="2.8603109">
<ele>43.83</ele>
<time>2021-09-19T09:54:54Z</time>
</trkpt>
<trkpt lat="48.9352011" lon="2.8601388">
<ele>42.55</ele>
<time>2021-09-19T09:54:59Z</time>
</trkpt>
<trkpt lat="48.9350576" lon="2.8599351">
<ele>41.96</ele>
<time>2021-09-19T09:55:04Z</time>
</trkpt>
<trkpt lat="48.9348805" lon="2.8597391">
<ele>42.16</ele>
<time>2021-09-19T09:55:09Z</time>
</trkpt>
<trkpt lat="48.9347066" lon="2.8595481">
<ele>41.60</ele>
<time>2021-09-19T09:55:15Z</time>
</trkpt>
<trkpt lat="48.9345536" lon="2.8593806">
<ele>41.48</ele>
<time>2021-09-19T09:55:20Z</time>
</trkpt>
<trkpt lat="48.9343722" lon="2.8591980">
<ele>41.20</ele>
<time>2021-09-19T09:55:25Z</time>
</trkpt>
<trkpt lat="48.9341894" lon="2.8590376">
<ele>41.54</ele>
<time>2021-09-19T09:55:30Z</time>
</trkpt>
<trkpt lat="48.9340306" lon="2.8588693">
<ele>41.99</ele>
<time>2021-09-19T09:55:35Z</time>
</trkpt>
<trkpt lat="48.9338576" lon="2.8587052">
<ele>42.18</ele>
<time>2021-09-19T09:55:41Z</time>
</trkpt>
<trkpt lat="48.9336813" lon="2.8585353">
<ele>42.36</ele>
<time>2021-09-19T09:55:48Z</time>
</trkpt>
<trkpt lat="48.9335011" lon="2.8583738">
<ele>42.46</ele>
<time>2021-09-19T09:55:54Z</time>
</trkpt>
<trkpt lat="48.9333149" lon="2.8582113">
<ele>43.70</ele>
<time>2021-09-19T09:56:00Z</time>
</trkpt>
<trkpt lat="48.9331476" lon="2.8580885">
<ele>43.89</ele>
<time>2021-09-19T09:56:05Z</time>
</trkpt>
<trkpt lat="48.9329779" lon="2.8579752">
<ele>45.02</ele>
<time>2021-09-19T09:56:10Z</time>
</trkpt>
<trkpt lat="48.9327886" lon="2.8578570">
<ele>44.31</ele>
<time>2021-09-19T09:56:15Z</time>
</trkpt>
<trkpt lat="48.9326013" lon="2.8577530">
<ele>44.22</ele>
<time>2021-09-19T09:56:20Z</time>
</trkpt>
<trkpt lat="48.9324334" lon="2.8576266">
<ele>44.34</ele>
<time>2021-09-19T09:56:25Z</time>
</trkpt>
<trkpt lat="48.9322564" lon="2.8575562">
<ele>44.28</ele>
<time>2021-09-19T09:56:30Z</time>
</trkpt>
<trkpt lat="48.9320743" lon="2.8574436">
<ele>44.15</ele>
<time>2021-09-19T09:56:35Z</time>
</trkpt>
<trkpt lat="48.9318880" lon="2.8573148">
<ele>44.18</ele>
<time>2021-09-19T09:56:40Z</time>
</trkpt>
<trkpt lat="48.9317047" lon="2.8571757">
<ele>43.79</ele>
<time>2021-09-19T09:56:45Z</time>
</trkpt>
<trkpt lat="48.9315270" lon="2.8570100">
<ele>44.53</ele>
<time>2021-09-19T09:56:50Z</time>
</trkpt>
<trkpt lat="48.9313658" lon="2.8568121">
<ele>44.04</ele>
<time>2021-09-19T09:56:56Z</time>
</trkpt>
<trkpt lat="48.9312304" lon="2.8565881">
<ele>45.40</ele>
<time>2021-09-19T09:57:04Z</time>
</trkpt>
<trkpt lat="48.9310373" lon="2.8564705">
<ele>44.83</ele>
<time>2021-09-19T09:57:11Z</time>
</trkpt>
<trkpt lat="48.9308666" lon="2.8563286">
<ele>44.94</ele>
<time>2021-09-19T09:57:17Z</time>
</trkpt>
<trkpt lat="48.9306999" lon="2.8561773">
<ele>44.95</ele>
<time>2021-09-19T09:57:23Z</time>
</trkpt>
<trkpt lat="48.9305431" lon="2.8560284">
<ele>44.43</ele>
<time>2021-09-19T09:57:29Z</time>
</trkpt>
<trkpt lat="48.9303890" lon="2.8558861">
<ele>44.33</ele>
<time>2021-09-19T09:57:35Z</time>
</trkpt>
<trkpt lat="48.9302263" lon="2.8557532">
<ele>44.09</ele>
<time>2021-09-19T09:57:42Z</time>
</trkpt>
<trkpt lat="48.9300495" lon="2.8555982">
<ele>43.92</ele>
<time>2021-09-19T09:57:49Z</time>
</trkpt>
<trkpt lat="48.9298714" lon="2.8554501">
<ele>44.76</ele>
<time>2021-09-19T09:57:57Z</time>
</trkpt>
<trkpt lat="48.9297062" lon="2.8553201">
<ele>43.46</ele>
<time>2021-09-19T09:58:04Z</time>
</trkpt>
<trkpt lat="48.9295243" lon="2.8551715">
<ele>42.83</ele>
<time>2021-09-19T09:58:10Z</time>
</trkpt>
<trkpt lat="48.9293501" lon="2.8550193">
<ele>43.17</ele>
<time>2021-09-19T09:58:16Z</time>
</trkpt>
<trkpt lat="48.9291859" lon="2.8548747">
<ele>44.04</ele>
<time>2021-09-19T09:58:27Z</time>
</trkpt>
<trkpt lat="48.9290200" lon="2.8547451">
<ele>43.49</ele>
<time>2021-09-19T09:58:38Z</time>
</trkpt>
<trkpt lat="48.9288489" lon="2.8546114">
<ele>44.04</ele>
<time>2021-09-19T09:58:47Z</time>
</trkpt>
<trkpt lat="48.9286897" lon="2.8544143">
<ele>43.16</ele>
<time>2021-09-19T10:08:07Z</time>
</trkpt>
<trkpt lat="48.9284938" lon="2.8542989">
<ele>43.52</ele>
<time>2021-09-19T10:08:13Z</time>
</trkpt>
<trkpt lat="48.9283347" lon="2.8541668">
<ele>44.81</ele>
<time>2021-09-19T10:08:20Z</time>
</trkpt>
<trkpt lat="48.9281732" lon="2.8540256">
<ele>46.03</ele>
<time>2021-09-19T10:08:28Z</time>
</trkpt>
<trkpt lat="48.9279940" lon="2.8539105">
<ele>45.48</ele>
<time>2021-09-19T10:08:36Z</time>
</trkpt>
<trkpt lat="48.9278273" lon="2.8538036">
<ele>45.47</ele>
<time>2021-09-19T10:08:43Z</time>
</trkpt>
<trkpt lat="48.9276594" lon="2.8536686">
<ele>46.49</ele>
<time>2021-09-19T10:08:50Z</time>
</trkpt>
<trkpt lat="48.9274855" lon="2.8535456">
<ele>46.63</ele>
<time>2021-09-19T10:08:57Z</time>
</trkpt>
<trkpt lat="48.9273017" lon="2.8534201">
<ele>44.99</ele>
<time>2021-09-19T10:09:04Z</time>
</trkpt>
<trkpt lat="48.9271142" lon="2.8533004">
<ele>43.63</ele>
<time>2021-09-19T10:09:11Z</time>
</trkpt>
<trkpt lat="48.9269337" lon="2.8531782">
<ele>45.02</ele>
<time>2021-09-19T10:09:19Z</time>
</trkpt>
<trkpt lat="48.9267690" lon="2.8530445">
<ele>45.36</ele>
<time>2021-09-19T10:09:26Z</time>
</trkpt>
<trkpt lat="48.9265809" lon="2.8529038">
<ele>44.55</ele>
<time>2021-09-19T10:09:33Z</time>
</trkpt>
<trkpt lat="48.9264249" lon="2.8527535">
<ele>44.37</ele>
<time>2021-09-19T10:09:39Z</time>
</trkpt>
<trkpt lat="48.9262939" lon="2.8525481">
<ele>47.60</ele>
<time>2021-09-19T10:09:45Z</time>
</trkpt>
<trkpt lat="48.9261204" lon="2.8523737">
<ele>46.82</ele>
<time>2021-09-19T10:09:51Z</time>
</trkpt>
<trkpt lat="48.9259623" lon="2.8521669">
<ele>47.39</ele>
<time>2021-09-19T10:09:57Z</time>
</trkpt>
<trkpt lat="48.9258051" lon="2.8519855">
<ele>46.13</ele>
<time>2021-09-19T10:10:03Z</time>
</trkpt>
<trkpt lat="48.9256371" lon="2.8518167">
<ele>45.50</ele>
<time>2021-09-19T10:10:09Z</time>
</trkpt>
<trkpt lat="48.9254595" lon="2.8516839">
<ele>42.98</ele>
<time>2021-09-19T10:10:15Z</time>
</trkpt>
<trkpt lat="48.9253031" lon="2.8515437">
<ele>41.04</ele>
<time>2021-09-19T10:10:22Z</time>
</trkpt>
<trkpt lat="48.9251637" lon="2.8513502">
<ele>38.65</ele>
<time>2021-09-19T10:10:31Z</time>
</trkpt>
<trkpt lat="48.9250234" lon="2.8511776">
<ele>42.17</ele>
<time>2021-09-19T10:10:44Z</time>
</trkpt>
<trkpt lat="48.9248443" lon="2.8510647">
<ele>42.52</ele>
<time>2021-09-19T10:10:52Z</time>
</trkpt>
<trkpt lat="48.9246702" lon="2.8511806">
<ele>40.26</ele>
<time>2021-09-19T10:11:05Z</time>
</trkpt>
<trkpt lat="48.9248212" lon="2.8510188">
<ele>46.55</ele>
<time>2021-09-19T10:11:59Z</time>
</trkpt>
<trkpt lat="48.9249949" lon="2.8511279">
<ele>47.92</ele>
<time>2021-09-19T10:12:14Z</time>
</trkpt>
<trkpt lat="48.9251511" lon="2.8512678">
<ele>45.81</ele>
<time>2021-09-19T10:12:22Z</time>
</trkpt>
<trkpt lat="48.9253027" lon="2.8514491">
<ele>45.10</ele>
<time>2021-09-19T10:12:30Z</time>
</trkpt>
<trkpt lat="48.9254507" lon="2.8516149">
<ele>49.31</ele>
<time>2021-09-19T10:12:35Z</time>
</trkpt>
<trkpt lat="48.9256202" lon="2.8517970">
<ele>51.10</ele>
<time>2021-09-19T10:12:44Z</time>
</trkpt>
<trkpt lat="48.9258255" lon="2.8519945">
<ele>50.10</ele>
<time>2021-09-19T10:12:50Z</time>
</trkpt>
<trkpt lat="48.9259728" lon="2.8521568">
<ele>49.83</ele>
<time>2021-09-19T10:12:55Z</time>
</trkpt>
<trkpt lat="48.9261277" lon="2.8523257">
<ele>45.46</ele>
<time>2021-09-19T10:13:00Z</time>
</trkpt>
<trkpt lat="48.9262724" lon="2.8525194">
<ele>44.74</ele>
<time>2021-09-19T10:13:05Z</time>
</trkpt>
<trkpt lat="48.9264084" lon="2.8527007">
<ele>43.78</ele>
<time>2021-09-19T10:13:12Z</time>
</trkpt>
<trkpt lat="48.9265694" lon="2.8528595">
<ele>44.63</ele>
<time>2021-09-19T10:13:20Z</time>
</trkpt>
<trkpt lat="48.9267381" lon="2.8530143">
<ele>45.07</ele>
<time>2021-09-19T10:13:28Z</time>
</trkpt>
<trkpt lat="48.9269239" lon="2.8531431">
<ele>46.48</ele>
<time>2021-09-19T10:13:36Z</time>
</trkpt>
<trkpt lat="48.9270920" lon="2.8532770">
<ele>46.45</ele>
<time>2021-09-19T10:13:44Z</time>
</trkpt>
<trkpt lat="48.9272800" lon="2.8533956">
<ele>47.58</ele>
<time>2021-09-19T10:13:51Z</time>
</trkpt>
<trkpt lat="48.9274726" lon="2.8535310">
<ele>47.75</ele>
<time>2021-09-19T10:13:59Z</time>
</trkpt>
<trkpt lat="48.9276465" lon="2.8536749">
<ele>46.65</ele>
<time>2021-09-19T10:14:04Z</time>
</trkpt>
<trkpt lat="48.9278364" lon="2.8537906">
<ele>46.05</ele>
<time>2021-09-19T10:14:12Z</time>
</trkpt>
<trkpt lat="48.9280045" lon="2.8538996">
<ele>46.43</ele>
<time>2021-09-19T10:14:17Z</time>
</trkpt>
<trkpt lat="48.9281872" lon="2.8540481">
<ele>46.20</ele>
<time>2021-09-19T10:14:24Z</time>
</trkpt>
<trkpt lat="48.9283617" lon="2.8541983">
<ele>43.79</ele>
<time>2021-09-19T10:14:32Z</time>
</trkpt>
<trkpt lat="48.9285189" lon="2.8543394">
<ele>43.23</ele>
<time>2021-09-19T10:14:38Z</time>
</trkpt>
<trkpt lat="48.9287013" lon="2.8544851">
<ele>44.82</ele>
<time>2021-09-19T10:14:45Z</time>
</trkpt>
<trkpt lat="48.9288596" lon="2.8546186">
<ele>44.96</ele>
<time>2021-09-19T10:14:51Z</time>
</trkpt>
<trkpt lat="48.9290458" lon="2.8547607">
<ele>44.66</ele>
<time>2021-09-19T10:14:58Z</time>
</trkpt>
<trkpt lat="48.9292249" lon="2.8549089">
<ele>45.24</ele>
<time>2021-09-19T10:15:05Z</time>
</trkpt>
<trkpt lat="48.9293891" lon="2.8550468">
<ele>44.56</ele>
<time>2021-09-19T10:15:11Z</time>
</trkpt>
<trkpt lat="48.9295611" lon="2.8552117">
<ele>43.91</ele>
<time>2021-09-19T10:15:19Z</time>
</trkpt>
<trkpt lat="48.9297340" lon="2.8553473">
<ele>44.30</ele>
<time>2021-09-19T10:15:25Z</time>
</trkpt>
<trkpt lat="48.9299036" lon="2.8554838">
<ele>43.91</ele>
<time>2021-09-19T10:15:31Z</time>
</trkpt>
<trkpt lat="48.9300740" lon="2.8556439">
<ele>43.57</ele>
<time>2021-09-19T10:15:38Z</time>
</trkpt>
<trkpt lat="48.9302313" lon="2.8557797">
<ele>44.61</ele>
<time>2021-09-19T10:15:43Z</time>
</trkpt>
<trkpt lat="48.9304001" lon="2.8559231">
<ele>45.23</ele>
<time>2021-09-19T10:15:49Z</time>
</trkpt>
<trkpt lat="48.9305706" lon="2.8560701">
<ele>45.40</ele>
<time>2021-09-19T10:15:55Z</time>
</trkpt>
<trkpt lat="48.9307314" lon="2.8562296">
<ele>45.69</ele>
<time>2021-09-19T10:16:01Z</time>
</trkpt>
<trkpt lat="48.9308930" lon="2.8563731">
<ele>45.94</ele>
<time>2021-09-19T10:16:07Z</time>
</trkpt>
<trkpt lat="48.9310725" lon="2.8565168">
<ele>45.82</ele>
<time>2021-09-19T10:16:15Z</time>
</trkpt>
<trkpt lat="48.9312542" lon="2.8566131">
<ele>46.54</ele>
<time>2021-09-19T10:16:21Z</time>
</trkpt>
<trkpt lat="48.9314082" lon="2.8568166">
<ele>44.67</ele>
<time>2021-09-19T10:16:27Z</time>
</trkpt>
<trkpt lat="48.9315430" lon="2.8570227">
<ele>44.06</ele>
<time>2021-09-19T10:16:32Z</time>
</trkpt>
<trkpt lat="48.9317098" lon="2.8571813">
<ele>43.28</ele>
<time>2021-09-19T10:16:37Z</time>
</trkpt>
<trkpt lat="48.9318891" lon="2.8573366">
<ele>42.92</ele>
<time>2021-09-19T10:16:42Z</time>
</trkpt>
<trkpt lat="48.9320562" lon="2.8574433">
<ele>43.09</ele>
<time>2021-09-19T10:16:46Z</time>
</trkpt>
<trkpt lat="48.9322461" lon="2.8575706">
<ele>43.02</ele>
<time>2021-09-19T10:16:51Z</time>
</trkpt>
<trkpt lat="48.9324252" lon="2.8576616">
<ele>42.52</ele>
<time>2021-09-19T10:16:58Z</time>
</trkpt>
<trkpt lat="48.9326261" lon="2.8577774">
<ele>44.07</ele>
<time>2021-09-19T10:17:06Z</time>
</trkpt>
<trkpt lat="48.9328272" lon="2.8578746">
<ele>45.64</ele>
<time>2021-09-19T10:17:12Z</time>
</trkpt>
<trkpt lat="48.9330045" lon="2.8579833">
<ele>45.32</ele>
<time>2021-09-19T10:17:18Z</time>
</trkpt>
<trkpt lat="48.9331976" lon="2.8581089">
<ele>44.54</ele>
<time>2021-09-19T10:17:24Z</time>
</trkpt>
<trkpt lat="48.9333585" lon="2.8582480">
<ele>44.48</ele>
<time>2021-09-19T10:17:30Z</time>
</trkpt>
<trkpt lat="48.9335234" lon="2.8583734">
<ele>44.58</ele>
<time>2021-09-19T10:17:35Z</time>
</trkpt>
<trkpt lat="48.9336967" lon="2.8585218">
<ele>44.17</ele>
<time>2021-09-19T10:17:42Z</time>
</trkpt>
<trkpt lat="48.9338500" lon="2.8586702">
<ele>43.74</ele>
<time>2021-09-19T10:17:48Z</time>
</trkpt>
<trkpt lat="48.9340064" lon="2.8588342">
<ele>43.29</ele>
<time>2021-09-19T10:17:54Z</time>
</trkpt>
<trkpt lat="48.9341682" lon="2.8589977">
<ele>42.63</ele>
<time>2021-09-19T10:18:00Z</time>
</trkpt>
<trkpt lat="48.9343412" lon="2.8591599">
<ele>42.57</ele>
<time>2021-09-19T10:18:06Z</time>
</trkpt>
<trkpt lat="48.9345069" lon="2.8593239">
<ele>42.50</ele>
<time>2021-09-19T10:18:12Z</time>
</trkpt>
<trkpt lat="48.9346877" lon="2.8594963">
<ele>43.07</ele>
<time>2021-09-19T10:18:18Z</time>
</trkpt>
<trkpt lat="48.9348499" lon="2.8596944">
<ele>42.93</ele>
<time>2021-09-19T10:18:24Z</time>
</trkpt>
<trkpt lat="48.9350090" lon="2.8598905">
<ele>42.74</ele>
<time>2021-09-19T10:18:30Z</time>
</trkpt>
<trkpt lat="48.9351779" lon="2.8600875">
<ele>42.52</ele>
<time>2021-09-19T10:18:36Z</time>
</trkpt>
<trkpt lat="48.9353358" lon="2.8602917">
<ele>42.62</ele>
<time>2021-09-19T10:18:42Z</time>
</trkpt>
<trkpt lat="48.9354984" lon="2.8605046">
<ele>42.83</ele>
<time>2021-09-19T10:18:48Z</time>
</trkpt>
<trkpt lat="48.9356388" lon="2.8606843">
<ele>43.38</ele>
<time>2021-09-19T10:18:53Z</time>
</trkpt>
<trkpt lat="48.9357819" lon="2.8608557">
<ele>44.25</ele>
<time>2021-09-19T10:18:58Z</time>
</trkpt>
<trkpt lat="48.9359177" lon="2.8610417">
<ele>44.08</ele>
<time>2021-09-19T10:19:03Z</time>
</trkpt>
<trkpt lat="48.9360779" lon="2.8612617">
<ele>43.57</ele>
<time>2021-09-19T10:19:09Z</time>
</trkpt>
<trkpt lat="48.9362413" lon="2.8614522">
<ele>43.53</ele>
<time>2021-09-19T10:19:14Z</time>
</trkpt>
<trkpt lat="48.9363957" lon="2.8616512">
<ele>44.29</ele>
<time>2021-09-19T10:19:19Z</time>
</trkpt>
<trkpt lat="48.9365532" lon="2.8618534">
<ele>44.04</ele>
<time>2021-09-19T10:19:24Z</time>
</trkpt>
<trkpt lat="48.9366852" lon="2.8620482">
<ele>44.20</ele>
<time>2021-09-19T10:19:29Z</time>
</trkpt>
<trkpt lat="48.9368425" lon="2.8622600">
<ele>44.57</ele>
<time>2021-09-19T10:19:35Z</time>
</trkpt>
<trkpt lat="48.9369781" lon="2.8624461">
<ele>44.54</ele>
<time>2021-09-19T10:19:40Z</time>
</trkpt>
<trkpt lat="48.9371245" lon="2.8626873">
<ele>44.34</ele>
<time>2021-09-19T10:19:46Z</time>
</trkpt>
<trkpt lat="48.9372489" lon="2.8628964">
<ele>43.70</ele>
<time>2021-09-19T10:19:51Z</time>
</trkpt>
<trkpt lat="48.9373865" lon="2.8630888">
<ele>43.76</ele>
<time>2021-09-19T10:19:56Z</time>
</trkpt>
<trkpt lat="48.9375275" lon="2.8632865">
<ele>43.47</ele>
<time>2021-09-19T10:20:01Z</time>
</trkpt>
<trkpt lat="48.9376678" lon="2.8634898">
<ele>44.04</ele>
<time>2021-09-19T10:20:07Z</time>
</trkpt>
<trkpt lat="48.9378238" lon="2.8637011">
<ele>43.86</ele>
<time>2021-09-19T10:20:13Z</time>
</trkpt>
<trkpt lat="48.9379889" lon="2.8639188">
<ele>44.43</ele>
<time>2021-09-19T10:20:18Z</time>
</trkpt>
<trkpt lat="48.9381852" lon="2.8638643">
<ele>44.60</ele>
<time>2021-09-19T10:20:24Z</time>
</trkpt>
<trkpt lat="48.9382550" lon="2.8635954">
<ele>45.37</ele>
<time>2021-09-19T10:20:30Z</time>
</trkpt>
<trkpt lat="48.9383535" lon="2.8633574">
<ele>46.04</ele>
<time>2021-09-19T10:20:37Z</time>
</trkpt>
<trkpt lat="48.9384626" lon="2.8631387">
<ele>48.82</ele>
<time>2021-09-19T10:22:14Z</time>
</trkpt>
<trkpt lat="48.9385877" lon="2.8629207">
<ele>47.87</ele>
<time>2021-09-19T10:23:01Z</time>
</trkpt>
<trkpt lat="48.9387090" lon="2.8627014">
<ele>46.79</ele>
<time>2021-09-19T10:23:15Z</time>
</trkpt>
<trkpt lat="48.9388315" lon="2.8624673">
<ele>48.21</ele>
<time>2021-09-19T10:23:24Z</time>
</trkpt>
<trkpt lat="48.9389607" lon="2.8622490">
<ele>48.73</ele>
<time>2021-09-19T10:23:38Z</time>
</trkpt>
<trkpt lat="48.9390809" lon="2.8620350">
<ele>50.70</ele>
<time>2021-09-19T10:23:46Z</time>
</trkpt>
<trkpt lat="48.9391973" lon="2.8618236">
<ele>49.67</ele>
<time>2021-09-19T10:23:55Z</time>
</trkpt>
<trkpt lat="48.9393257" lon="2.8616027">
<ele>51.82</ele>
<time>2021-09-19T10:24:03Z</time>
</trkpt>
<trkpt lat="48.9394429" lon="2.8613765">
<ele>51.47</ele>
<time>2021-09-19T10:24:11Z</time>
</trkpt>
<trkpt lat="48.9395545" lon="2.8611448">
<ele>52.84</ele>
<time>2021-09-19T10:24:19Z</time>
</trkpt>
<trkpt lat="48.9395157" lon="2.8608654">
<ele>53.70</ele>
<time>2021-09-19T10:24:30Z</time>
</trkpt>
<trkpt lat="48.9393857" lon="2.8606538">
<ele>54.78</ele>
<time>2021-09-19T10:24:38Z</time>
</trkpt>
<trkpt lat="48.9392412" lon="2.8604525">
<ele>53.96</ele>
<time>2021-09-19T10:24:45Z</time>
</trkpt>
<trkpt lat="48.9390973" lon="2.8602759">
<ele>52.19</ele>
<time>2021-09-19T10:24:51Z</time>
</trkpt>
<trkpt lat="48.9389553" lon="2.8600941">
<ele>52.24</ele>
<time>2021-09-19T10:24:57Z</time>
</trkpt>
<trkpt lat="48.9387939" lon="2.8599246">
<ele>51.32</ele>
<time>2021-09-19T10:25:03Z</time>
</trkpt>
<trkpt lat="48.9386411" lon="2.8597175">
<ele>51.03</ele>
<time>2021-09-19T10:25:09Z</time>
</trkpt>
<trkpt lat="48.9384807" lon="2.8595431">
<ele>51.48</ele>
<time>2021-09-19T10:25:14Z</time>
</trkpt>
<trkpt lat="48.9383247" lon="2.8593863">
<ele>51.74</ele>
<time>2021-09-19T10:25:19Z</time>
</trkpt>
<trkpt lat="48.9381625" lon="2.8592091">
<ele>51.97</ele>
<time>2021-09-19T10:25:26Z</time>
</trkpt>
<trkpt lat="48.9379870" lon="2.8590648">
<ele>52.56</ele>
<time>2021-09-19T10:25:33Z</time>
</trkpt>
<trkpt lat="48.9378258" lon="2.8589068">
<ele>52.70</ele>
<time>2021-09-19T10:25:44Z</time>
</trkpt>
<trkpt lat="48.9376652" lon="2.8587648">
<ele>51.80</ele>
<time>2021-09-19T10:25:53Z</time>
</trkpt>
<trkpt lat="48.9375145" lon="2.8585972">
<ele>51.40</ele>
<time>2021-09-19T10:26:03Z</time>
</trkpt>
<trkpt lat="48.9373402" lon="2.8584876">
<ele>50.94</ele>
<time>2021-09-19T10:26:13Z</time>
</trkpt>
<trkpt lat="48.9371708" lon="2.8583580">
<ele>49.52</ele>
<time>2021-09-19T10:26:26Z</time>
</trkpt>
<trkpt lat="48.9370045" lon="2.8582265">
<ele>49.26</ele>
<time>2021-09-19T10:26:38Z</time>
</trkpt>
<trkpt lat="48.9368484" lon="2.8580843">
<ele>49.90</ele>
<time>2021-09-19T10:26:48Z</time>
</trkpt>
<trkpt lat="48.9366868" lon="2.8579535">
<ele>51.24</ele>
<time>2021-09-19T10:26:56Z</time>
</trkpt>
<trkpt lat="48.9365157" lon="2.8578226">
<ele>51.94</ele>
<time>2021-09-19T10:27:03Z</time>
</trkpt>
<trkpt lat="48.9363428" lon="2.8576783">
<ele>52.40</ele>
<time>2021-09-19T10:27:11Z</time>
</trkpt>
<trkpt lat="48.9361658" lon="2.8575367">
<ele>52.34</ele>
<time>2021-09-19T10:27:17Z</time>
</trkpt>
<trkpt lat="48.9359940" lon="2.8574141">
<ele>51.98</ele>
<time>2021-09-19T10:27:22Z</time>
</trkpt>
<trkpt lat="48.9358203" lon="2.8572709">
<ele>51.84</ele>
<time>2021-09-19T10:27:27Z</time>
</trkpt>
<trkpt lat="48.9356453" lon="2.8571387">
<ele>51.73</ele>
<time>2021-09-19T10:27:32Z</time>
</trkpt>
<trkpt lat="48.9354732" lon="2.8570000">
<ele>51.55</ele>
<time>2021-09-19T10:27:37Z</time>
</trkpt>
<trkpt lat="48.9352913" lon="2.8568620">
<ele>51.16</ele>
<time>2021-09-19T10:27:42Z</time>
</trkpt>
<trkpt lat="48.9351103" lon="2.8567383">
<ele>50.47</ele>
<time>2021-09-19T10:27:47Z</time>
</trkpt>
<trkpt lat="48.9349366" lon="2.8566083">
<ele>50.12</ele>
<time>2021-09-19T10:27:52Z</time>
</trkpt>
<trkpt lat="48.9347530" lon="2.8564711">
<ele>50.94</ele>
<time>2021-09-19T10:27:57Z</time>
</trkpt>
<trkpt lat="48.9345858" lon="2.8563285">
<ele>51.34</ele>
<time>2021-09-19T10:28:02Z</time>
</trkpt>
<trkpt lat="48.9344237" lon="2.8562074">
<ele>51.06</ele>
<time>2021-09-19T10:28:07Z</time>
</trkpt>
<trkpt lat="48.9342411" lon="2.8560711">
<ele>51.08</ele>
<time>2021-09-19T10:28:14Z</time>
</trkpt>
<trkpt lat="48.9340588" lon="2.8559499">
<ele>51.38</ele>
<time>2021-09-19T10:28:20Z</time>
</trkpt>
<trkpt lat="48.9338827" lon="2.8561019">
<ele>50.16</ele>
<time>2021-09-19T10:28:27Z</time>
</trkpt>
<trkpt lat="48.9338509" lon="2.8564315">
<ele>49.48</ele>
<time>2021-09-19T10:28:32Z</time>
</trkpt>
<trkpt lat="48.9338176" lon="2.8567197">
<ele>48.42</ele>
<time>2021-09-19T10:28:36Z</time>
</trkpt>
<trkpt lat="48.9337300" lon="2.8569723">
<ele>47.78</ele>
<time>2021-09-19T10:28:40Z</time>
</trkpt>
<trkpt lat="48.9335419" lon="2.8569335">
<ele>47.03</ele>
<time>2021-09-19T10:28:47Z</time>
</trkpt>
<trkpt lat="48.9337341" lon="2.8569828">
<ele>46.42</ele>
<time>2021-09-19T10:29:51Z</time>
</trkpt>
<trkpt lat="48.9338293" lon="2.8567444">
<ele>47.07</ele>
<time>2021-09-19T10:29:58Z</time>
</trkpt>
<trkpt lat="48.9338492" lon="2.8564511">
<ele>47.72</ele>
<time>2021-09-19T10:30:05Z</time>
</trkpt>
<trkpt lat="48.9338796" lon="2.8561679">
<ele>49.11</ele>
<time>2021-09-19T10:30:12Z</time>
</trkpt>
<trkpt lat="48.9339912" lon="2.8559210">
<ele>49.37</ele>
<time>2021-09-19T10:30:20Z</time>
</trkpt>
<trkpt lat="48.9341801" lon="2.8559990">
<ele>49.84</ele>
<time>2021-09-19T10:30:27Z</time>
</trkpt>
<trkpt lat="48.9343526" lon="2.8561377">
<ele>51.05</ele>
<time>2021-09-19T10:30:34Z</time>
</trkpt>
<trkpt lat="48.9345147" lon="2.8562647">
<ele>51.43</ele>
<time>2021-09-19T10:30:40Z</time>
</trkpt>
<trkpt lat="48.9347010" lon="2.8563887">
<ele>51.03</ele>
<time>2021-09-19T10:30:48Z</time>
</trkpt>
<trkpt lat="48.9348709" lon="2.8565102">
<ele>51.61</ele>
<time>2021-09-19T10:30:55Z</time>
</trkpt>
<trkpt lat="48.9350510" lon="2.8566343">
<ele>51.14</ele>
<time>2021-09-19T10:31:01Z</time>
</trkpt>
<trkpt lat="48.9352145" lon="2.8567603">
<ele>50.55</ele>
<time>2021-09-19T10:31:07Z</time>
</trkpt>
<trkpt lat="48.9353839" lon="2.8568946">
<ele>49.67</ele>
<time>2021-09-19T10:31:12Z</time>
</trkpt>
<trkpt lat="48.9355540" lon="2.8570344">
<ele>49.80</ele>
<time>2021-09-19T10:31:18Z</time>
</trkpt>
<trkpt lat="48.9357301" lon="2.8571716">
<ele>49.88</ele>
<time>2021-09-19T10:31:23Z</time>
</trkpt>
<trkpt lat="48.9359014" lon="2.8573206">
<ele>49.20</ele>
<time>2021-09-19T10:31:29Z</time>
</trkpt>
<trkpt lat="48.9360737" lon="2.8574576">
<ele>48.82</ele>
<time>2021-09-19T10:31:34Z</time>
</trkpt>
<trkpt lat="48.9362604" lon="2.8576200">
<ele>49.31</ele>
<time>2021-09-19T10:31:40Z</time>
</trkpt>
<trkpt lat="48.9364463" lon="2.8577620">
<ele>49.83</ele>
<time>2021-09-19T10:31:46Z</time>
</trkpt>
<trkpt lat="48.9366148" lon="2.8578904">
<ele>50.31</ele>
<time>2021-09-19T10:31:51Z</time>
</trkpt>
<trkpt lat="48.9367791" lon="2.8580099">
<ele>50.71</ele>
<time>2021-09-19T10:31:56Z</time>
</trkpt>
<trkpt lat="48.9369522" lon="2.8581445">
<ele>50.16</ele>
<time>2021-09-19T10:32:05Z</time>
</trkpt>
<trkpt lat="48.9371152" lon="2.8582747">
<ele>50.33</ele>
<time>2021-09-19T10:32:11Z</time>
</trkpt>
<trkpt lat="48.9372728" lon="2.8584228">
<ele>50.19</ele>
<time>2021-09-19T10:32:17Z</time>
</trkpt>
<trkpt lat="48.9374488" lon="2.8585799">
<ele>49.87</ele>
<time>2021-09-19T10:32:23Z</time>
</trkpt>
<trkpt lat="48.9376119" lon="2.8587073">
<ele>50.08</ele>
<time>2021-09-19T10:32:28Z</time>
</trkpt>
<trkpt lat="48.9377645" lon="2.8588664">
<ele>50.15</ele>
<time>2021-09-19T10:32:34Z</time>
</trkpt>
<trkpt lat="48.9379356" lon="2.8590011">
<ele>52.23</ele>
<time>2021-09-19T10:32:41Z</time>
</trkpt>
<trkpt lat="48.9380957" lon="2.8587946">
<ele>51.11</ele>
<time>2021-09-19T10:32:48Z</time>
</trkpt>
<trkpt lat="48.9381840" lon="2.8585100">
<ele>51.63</ele>
<time>2021-09-19T10:32:54Z</time>
</trkpt>
<trkpt lat="48.9382821" lon="2.8582528">
<ele>51.62</ele>
<time>2021-09-19T10:33:00Z</time>
</trkpt>
<trkpt lat="48.9383868" lon="2.8579886">
<ele>52.15</ele>
<time>2021-09-19T10:33:06Z</time>
</trkpt>
<trkpt lat="48.9384713" lon="2.8577442">
<ele>51.90</ele>
<time>2021-09-19T10:33:12Z</time>
</trkpt>
<trkpt lat="48.9385670" lon="2.8574723">
<ele>52.16</ele>
<time>2021-09-19T10:33:19Z</time>
</trkpt>
<trkpt lat="48.9384883" lon="2.8572095">
<ele>53.36</ele>
<time>2021-09-19T10:33:30Z</time>
</trkpt>
<trkpt lat="48.9383026" lon="2.8570319">
<ele>52.86</ele>
<time>2021-09-19T10:33:36Z</time>
</trkpt>
<trkpt lat="48.9381345" lon="2.8568772">
<ele>52.48</ele>
<time>2021-09-19T10:33:41Z</time>
</trkpt>
<trkpt lat="48.9379570" lon="2.8567382">
<ele>53.50</ele>
<time>2021-09-19T10:33:46Z</time>
</trkpt>
<trkpt lat="48.9377717" lon="2.8565915">
<ele>53.40</ele>
<time>2021-09-19T10:33:51Z</time>
</trkpt>
<trkpt lat="48.9375993" lon="2.8564603">
<ele>54.05</ele>
<time>2021-09-19T10:33:56Z</time>
</trkpt>
<trkpt lat="48.9374304" lon="2.8563516">
<ele>53.21</ele>
<time>2021-09-19T10:34:01Z</time>
</trkpt>
<trkpt lat="48.9372316" lon="2.8562210">
<ele>54.58</ele>
<time>2021-09-19T10:34:06Z</time>
</trkpt>
<trkpt lat="48.9370310" lon="2.8560909">
<ele>55.02</ele>
<time>2021-09-19T10:34:11Z</time>
</trkpt>
<trkpt lat="48.9368247" lon="2.8559619">
<ele>54.18</ele>
<time>2021-09-19T10:34:16Z</time>
</trkpt>
<trkpt lat="48.9366450" lon="2.8558598">
<ele>53.59</ele>
<time>2021-09-19T10:34:20Z</time>
</trkpt>
<trkpt lat="48.9364731" lon="2.8557557">
<ele>52.90</ele>
<time>2021-09-19T10:34:24Z</time>
</trkpt>
<trkpt lat="48.9363034" lon="2.8556590">
<ele>53.19</ele>
<time>2021-09-19T10:34:29Z</time>
</trkpt>
<trkpt lat="48.9361294" lon="2.8555488">
<ele>53.05</ele>
<time>2021-09-19T10:34:35Z</time>
</trkpt>
<trkpt lat="48.9359285" lon="2.8554324">
<ele>52.51</ele>
<time>2021-09-19T10:34:41Z</time>
</trkpt>
<trkpt lat="48.9357357" lon="2.8553288">
<ele>51.98</ele>
<time>2021-09-19T10:34:46Z</time>
</trkpt>
<trkpt lat="48.9355340" lon="2.8552275">
<ele>52.56</ele>
<time>2021-09-19T10:34:51Z</time>
</trkpt>
<trkpt lat="48.9353346" lon="2.8551036">
<ele>52.78</ele>
<time>2021-09-19T10:34:56Z</time>
</trkpt>
<trkpt lat="48.9351657" lon="2.8549508">
<ele>53.97</ele>
<time>2021-09-19T10:35:01Z</time>
</trkpt>
<trkpt lat="48.9349822" lon="2.8547672">
<ele>54.75</ele>
<time>2021-09-19T10:35:06Z</time>
</trkpt>
<trkpt lat="48.9348137" lon="2.8545360">
<ele>54.68</ele>
<time>2021-09-19T10:35:11Z</time>
</trkpt>
<trkpt lat="48.9346980" lon="2.8543258">
<ele>54.17</ele>
<time>2021-09-19T10:35:15Z</time>
</trkpt>
<trkpt lat="48.9345907" lon="2.8540959">
<ele>54.22</ele>
<time>2021-09-19T10:35:19Z</time>
</trkpt>
<trkpt lat="48.9344828" lon="2.8538197">
<ele>54.62</ele>
<time>2021-09-19T10:35:24Z</time>
</trkpt>
<trkpt lat="48.9344194" lon="2.8535330">
<ele>55.17</ele>
<time>2021-09-19T10:35:29Z</time>
</trkpt>
<trkpt lat="48.9343605" lon="2.8532259">
<ele>55.79</ele>
<time>2021-09-19T10:35:34Z</time>
</trkpt>
<trkpt lat="48.9343365" lon="2.8529528">
<ele>57.62</ele>
<time>2021-09-19T10:35:38Z</time>
</trkpt>
<trkpt lat="48.9343006" lon="2.8526548">
<ele>58.49</ele>
<time>2021-09-19T10:35:42Z</time>
</trkpt>
<trkpt lat="48.9342808" lon="2.8523494">
<ele>58.84</ele>
<time>2021-09-19T10:35:46Z</time>
</trkpt>
<trkpt lat="48.9342776" lon="2.8520519">
<ele>60.11</ele>
<time>2021-09-19T10:35:50Z</time>
</trkpt>
<trkpt lat="48.9342669" lon="2.8517715">
<ele>59.30</ele>
<time>2021-09-19T10:35:54Z</time>
</trkpt>
<trkpt lat="48.9342325" lon="2.8514602">
<ele>58.55</ele>
<time>2021-09-19T10:35:59Z</time>
</trkpt>
<trkpt lat="48.9341889" lon="2.8511461">
<ele>58.47</ele>
<time>2021-09-19T10:36:04Z</time>
</trkpt>
<trkpt lat="48.9341026" lon="2.8508825">
<ele>57.45</ele>
<time>2021-09-19T10:36:08Z</time>
</trkpt>
<trkpt lat="48.9339763" lon="2.8506358">
<ele>57.77</ele>
<time>2021-09-19T10:36:12Z</time>
</trkpt>
<trkpt lat="48.9338197" lon="2.8504354">
<ele>57.81</ele>
<time>2021-09-19T10:36:16Z</time>
</trkpt>
<trkpt lat="48.9336366" lon="2.8502835">
<ele>57.02</ele>
<time>2021-09-19T10:36:20Z</time>
</trkpt>
<trkpt lat="48.9334600" lon="2.8501780">
<ele>56.85</ele>
<time>2021-09-19T10:36:24Z</time>
</trkpt>
<trkpt lat="48.9332635" lon="2.8500873">
<ele>56.68</ele>
<time>2021-09-19T10:36:28Z</time>
</trkpt>
<trkpt lat="48.9330705" lon="2.8500059">
<ele>57.23</ele>
<time>2021-09-19T10:36:32Z</time>
</trkpt>
<trkpt lat="48.9328896" lon="2.8499456">
<ele>56.73</ele>
<time>2021-09-19T10:36:36Z</time>
</trkpt>
<trkpt lat="48.9327105" lon="2.8499146">
<ele>56.06</ele>
<time>2021-09-19T10:36:40Z</time>
</trkpt>
<trkpt lat="48.9325208" lon="2.8499437">
<ele>56.18</ele>
<time>2021-09-19T10:36:44Z</time>
</trkpt>
<trkpt lat="48.9323430" lon="2.8500918">
<ele>54.16</ele>
<time>2021-09-19T10:36:49Z</time>
</trkpt>
<trkpt lat="48.9322064" lon="2.8502952">
<ele>55.38</ele>
<time>2021-09-19T10:36:53Z</time>
</trkpt>
<trkpt lat="48.9320788" lon="2.8505465">
<ele>56.19</ele>
<time>2021-09-19T10:36:59Z</time>
</trkpt>
<trkpt lat="48.9319804" lon="2.8508002">
<ele>54.94</ele>
<time>2021-09-19T10:37:03Z</time>
</trkpt>
<trkpt lat="48.9318859" lon="2.8510517">
<ele>54.22</ele>
<time>2021-09-19T10:37:07Z</time>
</trkpt>
<trkpt lat="48.9317489" lon="2.8512914">
<ele>55.60</ele>
<time>2021-09-19T10:37:11Z</time>
</trkpt>
<trkpt lat="48.9315841" lon="2.8514627">
<ele>57.47</ele>
<time>2021-09-19T10:37:15Z</time>
</trkpt>
<trkpt lat="48.9314020" lon="2.8515803">
<ele>56.32</ele>
<time>2021-09-19T10:37:19Z</time>
</trkpt>
<trkpt lat="48.9312213" lon="2.8516443">
<ele>56.95</ele>
<time>2021-09-19T10:37:23Z</time>
</trkpt>
<trkpt lat="48.9310347" lon="2.8516937">
<ele>56.84</ele>
<time>2021-09-19T10:37:27Z</time>
</trkpt>
<trkpt lat="48.9308486" lon="2.8517412">
<ele>57.15</ele>
<time>2021-09-19T10:37:31Z</time>
</trkpt>
<trkpt lat="48.9306636" lon="2.8517849">
<ele>57.69</ele>
<time>2021-09-19T10:37:35Z</time>
</trkpt>
<trkpt lat="48.9304620" lon="2.8518559">
<ele>56.60</ele>
<time>2021-09-19T10:37:40Z</time>
</trkpt>
<trkpt lat="48.9302623" lon="2.8519168">
<ele>56.32</ele>
<time>2021-09-19T10:37:44Z</time>
</trkpt>
<trkpt lat="48.9300480" lon="2.8519849">
<ele>56.38</ele>
<time>2021-09-19T10:37:49Z</time>
</trkpt>
<trkpt lat="48.9298527" lon="2.8520628">
<ele>56.84</ele>
<time>2021-09-19T10:37:54Z</time>
</trkpt>
<trkpt lat="48.9296385" lon="2.8521199">
<ele>56.90</ele>
<time>2021-09-19T10:37:59Z</time>
</trkpt>
<trkpt lat="48.9294634" lon="2.8521899">
<ele>56.74</ele>
<time>2021-09-19T10:38:03Z</time>
</trkpt>
<trkpt lat="48.9292494" lon="2.8522611">
<ele>56.13</ele>
<time>2021-09-19T10:38:08Z</time>
</trkpt>
<trkpt lat="48.9290259" lon="2.8523108">
<ele>57.25</ele>
<time>2021-09-19T10:38:13Z</time>
</trkpt>
<trkpt lat="48.9288004" lon="2.8523474">
<ele>57.13</ele>
<time>2021-09-19T10:38:18Z</time>
</trkpt>
<trkpt lat="48.9285895" lon="2.8523667">
<ele>56.35</ele>
<time>2021-09-19T10:38:23Z</time>
</trkpt>
<trkpt lat="48.9283687" lon="2.8523391">
<ele>56.21</ele>
<time>2021-09-19T10:38:28Z</time>
</trkpt>
<trkpt lat="48.9281887" lon="2.8522879">
<ele>57.41</ele>
<time>2021-09-19T10:38:32Z</time>
</trkpt>
<trkpt lat="48.9279750" lon="2.8522236">
<ele>56.39</ele>
<time>2021-09-19T10:38:37Z</time>
</trkpt>
<trkpt lat="48.9277668" lon="2.8521585">
<ele>55.49</ele>
<time>2021-09-19T10:38:42Z</time>
</trkpt>
<trkpt lat="48.9275593" lon="2.8520536">
<ele>55.76</ele>
<time>2021-09-19T10:38:47Z</time>
</trkpt>
<trkpt lat="48.9273671" lon="2.8519295">
<ele>55.67</ele>
<time>2021-09-19T10:38:52Z</time>
</trkpt>
<trkpt lat="48.9271797" lon="2.8518054">
<ele>56.69</ele>
<time>2021-09-19T10:38:57Z</time>
</trkpt>
<trkpt lat="48.9269873" lon="2.8516573">
<ele>57.29</ele>
<time>2021-09-19T10:39:02Z</time>
</trkpt>
<trkpt lat="48.9268346" lon="2.8515039">
<ele>56.90</ele>
<time>2021-09-19T10:39:06Z</time>
</trkpt>
<trkpt lat="48.9267049" lon="2.8513081">
<ele>59.32</ele>
<time>2021-09-19T10:39:11Z</time>
</trkpt>
<trkpt lat="48.9265477" lon="2.8510695">
<ele>59.09</ele>
<time>2021-09-19T10:39:16Z</time>
</trkpt>
<trkpt lat="48.9264079" lon="2.8508775">
<ele>56.73</ele>
<time>2021-09-19T10:39:20Z</time>
</trkpt>
<trkpt lat="48.9262822" lon="2.8506307">
<ele>56.76</ele>
<time>2021-09-19T10:39:25Z</time>
</trkpt>
<trkpt lat="48.9261615" lon="2.8504222">
<ele>59.62</ele>
<time>2021-09-19T10:39:30Z</time>
</trkpt>
<trkpt lat="48.9260047" lon="2.8502873">
<ele>57.74</ele>
<time>2021-09-19T10:39:34Z</time>
</trkpt>
<trkpt lat="48.9258064" lon="2.8501325">
<ele>56.38</ele>
<time>2021-09-19T10:39:39Z</time>
</trkpt>
<trkpt lat="48.9256307" lon="2.8500311">
<ele>55.74</ele>
<time>2021-09-19T10:39:43Z</time>
</trkpt>
<trkpt lat="48.9254163" lon="2.8499455">
<ele>56.11</ele>
<time>2021-09-19T10:39:48Z</time>
</trkpt>
<trkpt lat="48.9252347" lon="2.8498650">
<ele>57.26</ele>
<time>2021-09-19T10:39:52Z</time>
</trkpt>
<trkpt lat="48.9250593" lon="2.8497339">
<ele>57.87</ele>
<time>2021-09-19T10:39:57Z</time>
</trkpt>
<trkpt lat="48.9248731" lon="2.8495858">
<ele>58.71</ele>
<time>2021-09-19T10:40:02Z</time>
</trkpt>
<trkpt lat="48.9247025" lon="2.8494923">
<ele>56.25</ele>
<time>2021-09-19T10:40:06Z</time>
</trkpt>
<trkpt lat="48.9244932" lon="2.8493823">
<ele>52.80</ele>
<time>2021-09-19T10:40:11Z</time>
</trkpt>
<trkpt lat="48.9243075" lon="2.8492532">
<ele>54.51</ele>
<time>2021-09-19T10:40:16Z</time>
</trkpt>
<trkpt lat="48.9241113" lon="2.8491502">
<ele>54.29</ele>
<time>2021-09-19T10:40:21Z</time>
</trkpt>
<trkpt lat="48.9239319" lon="2.8490249">
<ele>55.18</ele>
<time>2021-09-19T10:40:26Z</time>
</trkpt>
<trkpt lat="48.9237603" lon="2.8488862">
<ele>55.04</ele>
<time>2021-09-19T10:40:31Z</time>
</trkpt>
<trkpt lat="48.9235789" lon="2.8487280">
<ele>55.31</ele>
<time>2021-09-19T10:40:36Z</time>
</trkpt>
<trkpt lat="48.9234002" lon="2.8485841">
<ele>55.16</ele>
<time>2021-09-19T10:40:41Z</time>
</trkpt>
<trkpt lat="48.9232271" lon="2.8484362">
<ele>54.99</ele>
<time>2021-09-19T10:40:45Z</time>
</trkpt>
<trkpt lat="48.9230628" lon="2.8482940">
<ele>55.87</ele>
<time>2021-09-19T10:40:50Z</time>
</trkpt>
<trkpt lat="48.9229146" lon="2.8481138">
<ele>59.33</ele>
<time>2021-09-19T10:40:54Z</time>
</trkpt>
<trkpt lat="48.9227217" lon="2.8479393">
<ele>59.24</ele>
<time>2021-09-19T10:40:59Z</time>
</trkpt>
<trkpt lat="48.9225630" lon="2.8478083">
<ele>57.72</ele>
<time>2021-09-19T10:41:03Z</time>
</trkpt>
<trkpt lat="48.9224024" lon="2.8476471">
<ele>56.64</ele>
<time>2021-09-19T10:41:07Z</time>
</trkpt>
<trkpt lat="48.9222301" lon="2.8474717">
<ele>56.20</ele>
<time>2021-09-19T10:41:12Z</time>
</trkpt>
<trkpt lat="48.9220826" lon="2.8472904">
<ele>57.34</ele>
<time>2021-09-19T10:41:17Z</time>
</trkpt>
<trkpt lat="48.9219340" lon="2.8471191">
<ele>59.10</ele>
<time>2021-09-19T10:41:22Z</time>
</trkpt>
<trkpt lat="48.9217648" lon="2.8469164">
<ele>60.40</ele>
<time>2021-09-19T10:41:27Z</time>
</trkpt>
<trkpt lat="48.9216164" lon="2.8467286">
<ele>59.24</ele>
<time>2021-09-19T10:41:32Z</time>
</trkpt>
<trkpt lat="48.9214836" lon="2.8465333">
<ele>59.19</ele>
<time>2021-09-19T10:41:36Z</time>
</trkpt>
<trkpt lat="48.9213393" lon="2.8463595">
<ele>60.77</ele>
<time>2021-09-19T10:41:41Z</time>
</trkpt>
<trkpt lat="48.9211581" lon="2.8462044">
<ele>57.71</ele>
<time>2021-09-19T10:41:47Z</time>
</trkpt>
<trkpt lat="48.9210099" lon="2.8459702">
<ele>57.68</ele>
<time>2021-09-19T10:41:52Z</time>
</trkpt>
<trkpt lat="48.9208756" lon="2.8457478">
<ele>57.50</ele>
<time>2021-09-19T10:41:57Z</time>
</trkpt>
<trkpt lat="48.9207088" lon="2.8455337">
<ele>55.84</ele>
<time>2021-09-19T10:42:02Z</time>
</trkpt>
<trkpt lat="48.9205673" lon="2.8453032">
<ele>55.56</ele>
<time>2021-09-19T10:42:07Z</time>
</trkpt>
<trkpt lat="48.9204482" lon="2.8450947">
<ele>56.91</ele>
<time>2021-09-19T10:42:12Z</time>
</trkpt>
<trkpt lat="48.9203290" lon="2.8448760">
<ele>57.67</ele>
<time>2021-09-19T10:42:17Z</time>
</trkpt>
<trkpt lat="48.9201925" lon="2.8446331">
<ele>56.96</ele>
<time>2021-09-19T10:42:22Z</time>
</trkpt>
<trkpt lat="48.9200673" lon="2.8443931">
<ele>56.18</ele>
<time>2021-09-19T10:42:27Z</time>
</trkpt>
<trkpt lat="48.9199516" lon="2.8441139">
<ele>55.20</ele>
<time>2021-09-19T10:42:32Z</time>
</trkpt>
<trkpt lat="48.9198422" lon="2.8438876">
<ele>54.49</ele>
<time>2021-09-19T10:42:36Z</time>
</trkpt>
<trkpt lat="48.9197292" lon="2.8436444">
<ele>54.34</ele>
<time>2021-09-19T10:42:40Z</time>
</trkpt>
<trkpt lat="48.9196068" lon="2.8433777">
<ele>54.80</ele>
<time>2021-09-19T10:42:45Z</time>
</trkpt>
<trkpt lat="48.9194976" lon="2.8431122">
<ele>55.19</ele>
<time>2021-09-19T10:42:50Z</time>
</trkpt>
<trkpt lat="48.9193981" lon="2.8428592">
<ele>55.83</ele>
<time>2021-09-19T10:42:55Z</time>
</trkpt>
<trkpt lat="48.9192931" lon="2.8425816">
<ele>56.25</ele>
<time>2021-09-19T10:43:00Z</time>
</trkpt>
<trkpt lat="48.9192026" lon="2.8422896">
<ele>58.07</ele>
<time>2021-09-19T10:43:05Z</time>
</trkpt>
<trkpt lat="48.9191209" lon="2.8420149">
<ele>61.22</ele>
<time>2021-09-19T10:43:10Z</time>
</trkpt>
<trkpt lat="48.9190397" lon="2.8417507">
<ele>59.50</ele>
<time>2021-09-19T10:43:15Z</time>
</trkpt>
<trkpt lat="48.9189626" lon="2.8414791">
<ele>60.47</ele>
<time>2021-09-19T10:43:20Z</time>
</trkpt>
<trkpt lat="48.9188854" lon="2.8411810">
<ele>59.65</ele>
<time>2021-09-19T10:43:25Z</time>
</trkpt>
<trkpt lat="48.9188205" lon="2.8408911">
<ele>58.75</ele>
<time>2021-09-19T10:43:30Z</time>
</trkpt>
<trkpt lat="48.9187500" lon="2.8405854">
<ele>58.31</ele>
<time>2021-09-19T10:43:35Z</time>
</trkpt>
<trkpt lat="48.9187062" lon="2.8403112">
<ele>59.60</ele>
<time>2021-09-19T10:43:39Z</time>
</trkpt>
<trkpt lat="48.9186611" lon="2.8399976">
<ele>57.65</ele>
<time>2021-09-19T10:43:44Z</time>
</trkpt>
<trkpt lat="48.9186342" lon="2.8396714">
<ele>59.19</ele>
<time>2021-09-19T10:43:50Z</time>
</trkpt>
<trkpt lat="48.9186151" lon="2.8393970">
<ele>60.77</ele>
<time>2021-09-19T10:43:54Z</time>
</trkpt>
<trkpt lat="48.9185856" lon="2.8391243">
<ele>59.49</ele>
<time>2021-09-19T10:43:58Z</time>
</trkpt>
<trkpt lat="48.9185846" lon="2.8388425">
<ele>58.34</ele>
<time>2021-09-19T10:44:03Z</time>
</trkpt>
<trkpt lat="48.9185921" lon="2.8385465">
<ele>58.35</ele>
<time>2021-09-19T10:44:08Z</time>
</trkpt>
<trkpt lat="48.9185978" lon="2.8382479">
<ele>58.32</ele>
<time>2021-09-19T10:44:13Z</time>
</trkpt>
<trkpt lat="48.9186208" lon="2.8379585">
<ele>59.30</ele>
<time>2021-09-19T10:44:19Z</time>
</trkpt>
<trkpt lat="48.9186359" lon="2.8376624">
<ele>59.57</ele>
<time>2021-09-19T10:44:27Z</time>
</trkpt>
<trkpt lat="48.9186656" lon="2.8373802">
<ele>59.22</ele>
<time>2021-09-19T10:45:07Z</time>
</trkpt>
<trkpt lat="48.9187132" lon="2.8370619">
<ele>57.11</ele>
<time>2021-09-19T10:45:12Z</time>
</trkpt>
<trkpt lat="48.9187662" lon="2.8367561">
<ele>56.62</ele>
<time>2021-09-19T10:45:16Z</time>
</trkpt>
<trkpt lat="48.9188237" lon="2.8364883">
<ele>55.86</ele>
<time>2021-09-19T10:45:20Z</time>
</trkpt>
<trkpt lat="48.9188888" lon="2.8361767">
<ele>54.96</ele>
<time>2021-09-19T10:45:26Z</time>
</trkpt>
<trkpt lat="48.9189417" lon="2.8358852">
<ele>55.46</ele>
<time>2021-09-19T10:45:31Z</time>
</trkpt>
<trkpt lat="48.9190126" lon="2.8356025">
<ele>56.00</ele>
<time>2021-09-19T10:45:38Z</time>
</trkpt>
<trkpt lat="48.9190794" lon="2.8353419">
<ele>56.03</ele>
<time>2021-09-19T10:45:42Z</time>
</trkpt>
<trkpt lat="48.9191442" lon="2.8350776">
<ele>56.41</ele>
<time>2021-09-19T10:45:47Z</time>
</trkpt>
<trkpt lat="48.9192233" lon="2.8347875">
<ele>55.48</ele>
<time>2021-09-19T10:45:53Z</time>
</trkpt>
<trkpt lat="48.9192991" lon="2.8344841">
<ele>54.30</ele>
<time>2021-09-19T10:45:59Z</time>
</trkpt>
<trkpt lat="48.9193844" lon="2.8341890">
<ele>55.10</ele>
<time>2021-09-19T10:46:05Z</time>
</trkpt>
<trkpt lat="48.9194592" lon="2.8339387">
<ele>56.21</ele>
<time>2021-09-19T10:46:10Z</time>
</trkpt>
<trkpt lat="48.9195425" lon="2.8336396">
<ele>55.76</ele>
<time>2021-09-19T10:46:16Z</time>
</trkpt>
<trkpt lat="48.9196408" lon="2.8333524">
<ele>56.35</ele>
<time>2021-09-19T10:46:22Z</time>
</trkpt>
<trkpt lat="48.9197200" lon="2.8331054">
<ele>56.11</ele>
<time>2021-09-19T10:46:27Z</time>
</trkpt>
<trkpt lat="48.9198019" lon="2.8328506">
<ele>55.57</ele>
<time>2021-09-19T10:46:32Z</time>
</trkpt>
<trkpt lat="48.9198946" lon="2.8326048">
<ele>55.72</ele>
<time>2021-09-19T10:46:37Z</time>
</trkpt>
<trkpt lat="48.9199941" lon="2.8323538">
<ele>57.22</ele>
<time>2021-09-19T10:46:42Z</time>
</trkpt>
<trkpt lat="48.9201189" lon="2.8320737">
<ele>56.39</ele>
<time>2021-09-19T10:46:47Z</time>
</trkpt>
<trkpt lat="48.9202360" lon="2.8318022">
<ele>54.74</ele>
<time>2021-09-19T10:46:52Z</time>
</trkpt>
<trkpt lat="48.9203595" lon="2.8315548">
<ele>54.98</ele>
<time>2021-09-19T10:46:57Z</time>
</trkpt>
<trkpt lat="48.9204929" lon="2.8313056">
<ele>55.25</ele>
<time>2021-09-19T10:47:03Z</time>
</trkpt>
<trkpt lat="48.9206271" lon="2.8310961">
<ele>55.18</ele>
<time>2021-09-19T10:47:08Z</time>
</trkpt>
<trkpt lat="48.9207619" lon="2.8309121">
<ele>55.10</ele>
<time>2021-09-19T10:47:13Z</time>
</trkpt>
<trkpt lat="48.9206739" lon="2.8306565">
<ele>56.83</ele>
<time>2021-09-19T10:48:13Z</time>
</trkpt>
<trkpt lat="48.9205034" lon="2.8305291">
<ele>54.74</ele>
<time>2021-09-19T10:48:17Z</time>
</trkpt>
<trkpt lat="48.9203153" lon="2.8303897">
<ele>53.75</ele>
<time>2021-09-19T10:48:22Z</time>
</trkpt>
<trkpt lat="48.9201437" lon="2.8302614">
<ele>52.95</ele>
<time>2021-09-19T10:48:27Z</time>
</trkpt>
<trkpt lat="48.9199702" lon="2.8301643">
<ele>53.64</ele>
<time>2021-09-19T10:48:32Z</time>
</trkpt>
<trkpt lat="48.9197854" lon="2.8300456">
<ele>52.20</ele>
<time>2021-09-19T10:48:37Z</time>
</trkpt>
<trkpt lat="48.9196065" lon="2.8299384">
<ele>51.41</ele>
<time>2021-09-19T10:48:42Z</time>
</trkpt>
<trkpt lat="48.9194099" lon="2.8298267">
<ele>52.04</ele>
<time>2021-09-19T10:48:48Z</time>
</trkpt>
<trkpt lat="48.9192158" lon="2.8297369">
<ele>52.33</ele>
<time>2021-09-19T10:48:53Z</time>
</trkpt>
<trkpt lat="48.9190103" lon="2.8296295">
<ele>51.99</ele>
<time>2021-09-19T10:48:58Z</time>
</trkpt>
<trkpt lat="48.9188362" lon="2.8295422">
<ele>52.03</ele>
<time>2021-09-19T10:49:02Z</time>
</trkpt>
<trkpt lat="48.9186265" lon="2.8294231">
<ele>52.03</ele>
<time>2021-09-19T10:49:07Z</time>
</trkpt>
<trkpt lat="48.9184422" lon="2.8292945">
<ele>51.85</ele>
<time>2021-09-19T10:49:12Z</time>
</trkpt>
<trkpt lat="48.9182366" lon="2.8291905">
<ele>50.85</ele>
<time>2021-09-19T10:49:17Z</time>
</trkpt>
<trkpt lat="48.9180615" lon="2.8290723">
<ele>51.18</ele>
<time>2021-09-19T10:49:21Z</time>
</trkpt>
<trkpt lat="48.9178813" lon="2.8289812">
<ele>50.20</ele>
<time>2021-09-19T10:49:25Z</time>
</trkpt>
<trkpt lat="48.9176452" lon="2.8288467">
<ele>50.61</ele>
<time>2021-09-19T10:49:30Z</time>
</trkpt>
<trkpt lat="48.9174369" lon="2.8287384">
<ele>50.13</ele>
<time>2021-09-19T10:49:35Z</time>
</trkpt>
<trkpt lat="48.9172495" lon="2.8286234">
<ele>49.50</ele>
<time>2021-09-19T10:49:40Z</time>
</trkpt>
<trkpt lat="48.9170101" lon="2.8284609">
<ele>51.07</ele>
<time>2021-09-19T10:49:44Z</time>
</trkpt>
<trkpt lat="48.9168116" lon="2.8283439">
<ele>52.11</ele>
<time>2021-09-19T10:49:49Z</time>
</trkpt>
<trkpt lat="48.9166168" lon="2.8282373">
<ele>52.18</ele>
<time>2021-09-19T10:49:54Z</time>
</trkpt>
<trkpt lat="48.9164341" lon="2.8281443">
<ele>52.12</ele>
<time>2021-09-19T10:49:58Z</time>
</trkpt>
<trkpt lat="48.9162594" lon="2.8280360">
<ele>52.57</ele>
<time>2021-09-19T10:50:02Z</time>
</trkpt>
<trkpt lat="48.9160781" lon="2.8279607">
<ele>51.82</ele>
<time>2021-09-19T10:50:06Z</time>
</trkpt>
<trkpt lat="48.9159006" lon="2.8278463">
<ele>51.69</ele>
<time>2021-09-19T10:50:10Z</time>
</trkpt>
<trkpt lat="48.9157112" lon="2.8277510">
<ele>50.97</ele>
<time>2021-09-19T10:50:14Z</time>
</trkpt>
<trkpt lat="48.9155214" lon="2.8276465">
<ele>50.52</ele>
<time>2021-09-19T10:50:18Z</time>
</trkpt>
<trkpt lat="48.9153385" lon="2.8275357">
<ele>49.51</ele>
<time>2021-09-19T10:50:22Z</time>
</trkpt>
<trkpt lat="48.9151418" lon="2.8274602">
<ele>48.93</ele>
<time>2021-09-19T10:50:26Z</time>
</trkpt>
<trkpt lat="48.9149515" lon="2.8273538">
<ele>48.37</ele>
<time>2021-09-19T10:50:30Z</time>
</trkpt>
<trkpt lat="48.9147799" lon="2.8272440">
<ele>48.13</ele>
<time>2021-09-19T10:50:34Z</time>
</trkpt>
<trkpt lat="48.9146109" lon="2.8271338">
<ele>47.64</ele>
<time>2021-09-19T10:50:39Z</time>
</trkpt>
<trkpt lat="48.9144805" lon="2.8268967">
<ele>47.00</ele>
<time>2021-09-19T10:50:44Z</time>
</trkpt>
<trkpt lat="48.9145028" lon="2.8265478">
<ele>47.51</ele>
<time>2021-09-19T10:50:49Z</time>
</trkpt>
<trkpt lat="48.9145256" lon="2.8262497">
<ele>47.85</ele>
<time>2021-09-19T10:50:53Z</time>
</trkpt>
<trkpt lat="48.9145257" lon="2.8259752">
<ele>48.57</ele>
<time>2021-09-19T10:50:57Z</time>
</trkpt>
<trkpt lat="48.9145016" lon="2.8256669">
<ele>48.23</ele>
<time>2021-09-19T10:51:01Z</time>
</trkpt>
<trkpt lat="48.9143346" lon="2.8255114">
<ele>47.36</ele>
<time>2021-09-19T10:51:06Z</time>
</trkpt>
<trkpt lat="48.9141267" lon="2.8254123">
<ele>46.87</ele>
<time>2021-09-19T10:51:10Z</time>
</trkpt>
<trkpt lat="48.9139269" lon="2.8253060">
<ele>47.82</ele>
<time>2021-09-19T10:51:14Z</time>
</trkpt>
<trkpt lat="48.9137374" lon="2.8252123">
<ele>47.51</ele>
<time>2021-09-19T10:51:18Z</time>
</trkpt>
<trkpt lat="48.9135625" lon="2.8251312">
<ele>47.77</ele>
<time>2021-09-19T10:51:22Z</time>
</trkpt>
<trkpt lat="48.9133690" lon="2.8250379">
<ele>46.87</ele>
<time>2021-09-19T10:51:26Z</time>
</trkpt>
<trkpt lat="48.9131779" lon="2.8249310">
<ele>46.32</ele>
<time>2021-09-19T10:51:30Z</time>
</trkpt>
<trkpt lat="48.9129964" lon="2.8248186">
<ele>47.06</ele>
<time>2021-09-19T10:51:34Z</time>
</trkpt>
<trkpt lat="48.9128031" lon="2.8246920">
<ele>46.15</ele>
<time>2021-09-19T10:51:39Z</time>
</trkpt>
<trkpt lat="48.9126409" lon="2.8245499">
<ele>45.49</ele>
<time>2021-09-19T10:51:44Z</time>
</trkpt>
<trkpt lat="48.9124588" lon="2.8244527">
<ele>45.06</ele>
<time>2021-09-19T10:51:49Z</time>
</trkpt>
<trkpt lat="48.9122665" lon="2.8243860">
<ele>44.42</ele>
<time>2021-09-19T10:51:54Z</time>
</trkpt>
<trkpt lat="48.9120849" lon="2.8243085">
<ele>44.63</ele>
<time>2021-09-19T10:51:59Z</time>
</trkpt>
<trkpt lat="48.9118991" lon="2.8242469">
<ele>43.92</ele>
<time>2021-09-19T10:52:04Z</time>
</trkpt>
<trkpt lat="48.9117139" lon="2.8241704">
<ele>42.05</ele>
<time>2021-09-19T10:52:10Z</time>
</trkpt>
<trkpt lat="48.9117171" lon="2.8238880">
<ele>44.82</ele>
<time>2021-09-19T10:52:19Z</time>
</trkpt>
<trkpt lat="48.9117791" lon="2.8236138">
<ele>46.40</ele>
<time>2021-09-19T10:52:25Z</time>
</trkpt>
<trkpt lat="48.9118662" lon="2.8233246">
<ele>46.58</ele>
<time>2021-09-19T10:52:31Z</time>
</trkpt>
<trkpt lat="48.9119314" lon="2.8230311">
<ele>47.34</ele>
<time>2021-09-19T10:52:36Z</time>
</trkpt>
<trkpt lat="48.9120057" lon="2.8227683">
<ele>46.73</ele>
<time>2021-09-19T10:52:41Z</time>
</trkpt>
<trkpt lat="48.9120810" lon="2.8224821">
<ele>47.75</ele>
<time>2021-09-19T10:52:46Z</time>
</trkpt>
<trkpt lat="48.9121313" lon="2.8221896">
<ele>48.71</ele>
<time>2021-09-19T10:52:51Z</time>
</trkpt>
<trkpt lat="48.9121855" lon="2.8218966">
<ele>50.00</ele>
<time>2021-09-19T10:52:56Z</time>
</trkpt>
<trkpt lat="48.9122435" lon="2.8216274">
<ele>48.91</ele>
<time>2021-09-19T10:53:01Z</time>
</trkpt>
<trkpt lat="48.9122758" lon="2.8213257">
<ele>50.59</ele>
<time>2021-09-19T10:53:06Z</time>
</trkpt>
<trkpt lat="48.9122936" lon="2.8210142">
<ele>51.95</ele>
<time>2021-09-19T10:53:11Z</time>
</trkpt>
<trkpt lat="48.9123227" lon="2.8207175">
<ele>50.96</ele>
<time>2021-09-19T10:53:16Z</time>
</trkpt>
<trkpt lat="48.9123515" lon="2.8204198">
<ele>50.66</ele>
<time>2021-09-19T10:53:21Z</time>
</trkpt>
<trkpt lat="48.9123739" lon="2.8201105">
<ele>50.12</ele>
<time>2021-09-19T10:53:26Z</time>
</trkpt>
<trkpt lat="48.9123842" lon="2.8198208">
<ele>48.95</ele>
<time>2021-09-19T10:53:31Z</time>
</trkpt>
<trkpt lat="48.9124074" lon="2.8195145">
<ele>47.28</ele>
<time>2021-09-19T10:53:37Z</time>
</trkpt>
<trkpt lat="48.9124316" lon="2.8192388">
<ele>45.69</ele>
<time>2021-09-19T10:53:42Z</time>
</trkpt>
<trkpt lat="48.9124485" lon="2.8189587">
<ele>45.36</ele>
<time>2021-09-19T10:53:47Z</time>
</trkpt>
<trkpt lat="48.9124638" lon="2.8186675">
<ele>45.51</ele>
<time>2021-09-19T10:53:52Z</time>
</trkpt>
<trkpt lat="48.9124780" lon="2.8183799">
<ele>45.73</ele>
<time>2021-09-19T10:53:57Z</time>
</trkpt>
<trkpt lat="48.9124884" lon="2.8181021">
<ele>46.44</ele>
<time>2021-09-19T10:54:02Z</time>
</trkpt>
<trkpt lat="48.9125052" lon="2.8178107">
<ele>46.05</ele>
<time>2021-09-19T10:54:07Z</time>
</trkpt>
<trkpt lat="48.9125184" lon="2.8175137">
<ele>46.34</ele>
<time>2021-09-19T10:54:12Z</time>
</trkpt>
<trkpt lat="48.9125251" lon="2.8172122">
<ele>46.41</ele>
<time>2021-09-19T10:54:17Z</time>
</trkpt>
<trkpt lat="48.9125378" lon="2.8169108">
<ele>46.36</ele>
<time>2021-09-19T10:54:22Z</time>
</trkpt>
<trkpt lat="48.9125525" lon="2.8165884">
<ele>46.58</ele>
<time>2021-09-19T10:54:27Z</time>
</trkpt>
<trkpt lat="48.9125704" lon="2.8162800">
<ele>46.91</ele>
<time>2021-09-19T10:54:32Z</time>
</trkpt>
<trkpt lat="48.9125784" lon="2.8159732">
<ele>47.31</ele>
<time>2021-09-19T10:54:37Z</time>
</trkpt>
<trkpt lat="48.9125682" lon="2.8156811">
<ele>48.26</ele>
<time>2021-09-19T10:54:43Z</time>
</trkpt>
<trkpt lat="48.9124622" lon="2.8154435">
<ele>48.45</ele>
<time>2021-09-19T10:54:51Z</time>
</trkpt>
<trkpt lat="48.9123002" lon="2.8153183">
<ele>48.85</ele>
<time>2021-09-19T10:54:57Z</time>
</trkpt>
<trkpt lat="48.9121177" lon="2.8152945">
<ele>49.56</ele>
<time>2021-09-19T10:55:02Z</time>
</trkpt>
<trkpt lat="48.9119382" lon="2.8152704">
<ele>49.86</ele>
<time>2021-09-19T10:55:07Z</time>
</trkpt>
<trkpt lat="48.9117219" lon="2.8152519">
<ele>50.75</ele>
<time>2021-09-19T10:55:13Z</time>
</trkpt>
<trkpt lat="48.9115206" lon="2.8152379">
<ele>50.00</ele>
<time>2021-09-19T10:55:18Z</time>
</trkpt>
<trkpt lat="48.9112981" lon="2.8152190">
<ele>48.71</ele>
<time>2021-09-19T10:55:23Z</time>
</trkpt>
<trkpt lat="48.9111031" lon="2.8152050">
<ele>47.94</ele>
<time>2021-09-19T10:55:27Z</time>
</trkpt>
<trkpt lat="48.9108897" lon="2.8151906">
<ele>47.07</ele>
<time>2021-09-19T10:55:31Z</time>
</trkpt>
<trkpt lat="48.9106680" lon="2.8151775">
<ele>47.07</ele>
<time>2021-09-19T10:55:35Z</time>
</trkpt>
<trkpt lat="48.9104418" lon="2.8151641">
<ele>47.63</ele>
<time>2021-09-19T10:55:39Z</time>
</trkpt>
<trkpt lat="48.9102437" lon="2.8151445">
<ele>47.16</ele>
<time>2021-09-19T10:55:43Z</time>
</trkpt>
<trkpt lat="48.9100495" lon="2.8151296">
<ele>46.65</ele>
<time>2021-09-19T10:55:47Z</time>
</trkpt>
<trkpt lat="48.9098501" lon="2.8150994">
<ele>47.06</ele>
<time>2021-09-19T10:55:51Z</time>
</trkpt>
<trkpt lat="48.9096272" lon="2.8150760">
<ele>47.64</ele>
<time>2021-09-19T10:55:56Z</time>
</trkpt>
<trkpt lat="48.9094474" lon="2.8150591">
<ele>48.11</ele>
<time>2021-09-19T10:56:00Z</time>
</trkpt>
<trkpt lat="48.9092542" lon="2.8151018">
<ele>46.83</ele>
<time>2021-09-19T10:56:05Z</time>
</trkpt>
<trkpt lat="48.9090927" lon="2.8153452">
<ele>45.72</ele>
<time>2021-09-19T10:56:09Z</time>
</trkpt>
<trkpt lat="48.9089110" lon="2.8155686">
<ele>46.76</ele>
<time>2021-09-19T10:56:13Z</time>
</trkpt>
<trkpt lat="48.9087279" lon="2.8157143">
<ele>47.36</ele>
<time>2021-09-19T10:56:17Z</time>
</trkpt>
<trkpt lat="48.9085502" lon="2.8157886">
<ele>47.08</ele>
<time>2021-09-19T10:56:22Z</time>
</trkpt>
<trkpt lat="48.9083258" lon="2.8158784">
<ele>48.44</ele>
<time>2021-09-19T10:56:27Z</time>
</trkpt>
<trkpt lat="48.9081331" lon="2.8159793">
<ele>47.13</ele>
<time>2021-09-19T10:56:31Z</time>
</trkpt>
<trkpt lat="48.9079463" lon="2.8160744">
<ele>45.63</ele>
<time>2021-09-19T10:56:35Z</time>
</trkpt>
<trkpt lat="48.9077410" lon="2.8161519">
<ele>45.09</ele>
<time>2021-09-19T10:56:40Z</time>
</trkpt>
<trkpt lat="48.9075522" lon="2.8162188">
<ele>45.31</ele>
<time>2021-09-19T10:56:45Z</time>
</trkpt>
<trkpt lat="48.9073588" lon="2.8163046">
<ele>45.56</ele>
<time>2021-09-19T10:56:50Z</time>
</trkpt>
<trkpt lat="48.9071818" lon="2.8163791">
<ele>45.93</ele>
<time>2021-09-19T10:56:55Z</time>
</trkpt>
<trkpt lat="48.9070001" lon="2.8164746">
<ele>46.21</ele>
<time>2021-09-19T10:57:00Z</time>
</trkpt>
<trkpt lat="48.9068143" lon="2.8165873">
<ele>46.03</ele>
<time>2021-09-19T10:57:05Z</time>
</trkpt>
<trkpt lat="48.9066190" lon="2.8167135">
<ele>45.88</ele>
<time>2021-09-19T10:57:10Z</time>
</trkpt>
<trkpt lat="48.9064238" lon="2.8168612">
<ele>45.39</ele>
<time>2021-09-19T10:57:15Z</time>
</trkpt>
<trkpt lat="48.9062319" lon="2.8170309">
<ele>44.79</ele>
<time>2021-09-19T10:57:20Z</time>
</trkpt>
<trkpt lat="48.9060545" lon="2.8172027">
<ele>43.98</ele>
<time>2021-09-19T10:57:25Z</time>
</trkpt>
<trkpt lat="48.9058961" lon="2.8173655">
<ele>43.94</ele>
<time>2021-09-19T10:57:30Z</time>
</trkpt>
<trkpt lat="48.9057435" lon="2.8175331">
<ele>43.55</ele>
<time>2021-09-19T10:57:35Z</time>
</trkpt>
<trkpt lat="48.9055633" lon="2.8177112">
<ele>42.45</ele>
<time>2021-09-19T10:57:40Z</time>
</trkpt>
<trkpt lat="48.9053942" lon="2.8178737">
<ele>42.93</ele>
<time>2021-09-19T10:57:45Z</time>
</trkpt>
<trkpt lat="48.9052383" lon="2.8180372">
<ele>43.28</ele>
<time>2021-09-19T10:57:50Z</time>
</trkpt>
<trkpt lat="48.9050720" lon="2.8181824">
<ele>43.45</ele>
<time>2021-09-19T10:57:54Z</time>
</trkpt>
<trkpt lat="48.9049221" lon="2.8183523">
<ele>41.84</ele>
<time>2021-09-19T10:57:58Z</time>
</trkpt>
<trkpt lat="48.9047442" lon="2.8185331">
<ele>42.21</ele>
<time>2021-09-19T10:58:04Z</time>
</trkpt>
<trkpt lat="48.9045880" lon="2.8186797">
<ele>43.27</ele>
<time>2021-09-19T10:58:09Z</time>
</trkpt>
<trkpt lat="48.9044258" lon="2.8188370">
<ele>43.97</ele>
<time>2021-09-19T10:58:14Z</time>
</trkpt>
<trkpt lat="48.9042546" lon="2.8189966">
<ele>43.82</ele>
<time>2021-09-19T10:58:19Z</time>
</trkpt>
<trkpt lat="48.9040842" lon="2.8191388">
<ele>44.54</ele>
<time>2021-09-19T10:58:24Z</time>
</trkpt>
<trkpt lat="48.9038809" lon="2.8192564">
<ele>43.82</ele>
<time>2021-09-19T10:58:30Z</time>
</trkpt>
<trkpt lat="48.9036919" lon="2.8193282">
<ele>43.60</ele>
<time>2021-09-19T10:58:35Z</time>
</trkpt>
<trkpt lat="48.9034929" lon="2.8194005">
<ele>43.15</ele>
<time>2021-09-19T10:58:40Z</time>
</trkpt>
<trkpt lat="48.9032823" lon="2.8194481">
<ele>43.13</ele>
<time>2021-09-19T10:58:45Z</time>
</trkpt>
<trkpt lat="48.9030767" lon="2.8194976">
<ele>43.45</ele>
<time>2021-09-19T10:58:50Z</time>
</trkpt>
<trkpt lat="48.9028915" lon="2.8195313">
<ele>43.91</ele>
<time>2021-09-19T10:58:55Z</time>
</trkpt>
<trkpt lat="48.9027035" lon="2.8195483">
<ele>42.53</ele>
<time>2021-09-19T10:59:07Z</time>
</trkpt>
<trkpt lat="48.9024836" lon="2.8195810">
<ele>47.35</ele>
<time>2021-09-19T11:01:25Z</time>
</trkpt>
<trkpt lat="48.9022959" lon="2.8196305">
<ele>46.83</ele>
<time>2021-09-19T11:01:29Z</time>
</trkpt>
<trkpt lat="48.9020978" lon="2.8196875">
<ele>47.17</ele>
<time>2021-09-19T11:01:33Z</time>
</trkpt>
<trkpt lat="48.9019089" lon="2.8197439">
<ele>47.26</ele>
<time>2021-09-19T11:01:37Z</time>
</trkpt>
<trkpt lat="48.9017185" lon="2.8198050">
<ele>45.56</ele>
<time>2021-09-19T11:01:44Z</time>
</trkpt>
<trkpt lat="48.9016009" lon="2.8195947">
<ele>47.31</ele>
<time>2021-09-19T11:01:51Z</time>
</trkpt>
<trkpt lat="48.9014879" lon="2.8193752">
<ele>48.05</ele>
<time>2021-09-19T11:01:59Z</time>
</trkpt>
<trkpt lat="48.9013975" lon="2.8196506">
<ele>46.69</ele>
<time>2021-09-19T11:02:08Z</time>
</trkpt>
<trkpt lat="48.9013988" lon="2.8199530">
<ele>47.65</ele>
<time>2021-09-19T11:02:13Z</time>
</trkpt>
<trkpt lat="48.9013470" lon="2.8202311">
<ele>50.53</ele>
<time>2021-09-19T11:02:18Z</time>
</trkpt>
<trkpt lat="48.9012643" lon="2.8204999">
<ele>45.79</ele>
<time>2021-09-19T11:02:23Z</time>
</trkpt>
<trkpt lat="48.9012231" lon="2.8208182">
<ele>46.61</ele>
<time>2021-09-19T11:02:28Z</time>
</trkpt>
<trkpt lat="48.9011915" lon="2.8211275">
<ele>46.39</ele>
<time>2021-09-19T11:02:33Z</time>
</trkpt>
<trkpt lat="48.9011692" lon="2.8214434">
<ele>47.21</ele>
<time>2021-09-19T11:02:38Z</time>
</trkpt>
<trkpt lat="48.9011536" lon="2.8217232">
<ele>48.14</ele>
<time>2021-09-19T11:02:42Z</time>
</trkpt>
<trkpt lat="48.9011416" lon="2.8220389">
<ele>46.44</ele>
<time>2021-09-19T11:02:47Z</time>
</trkpt>
<trkpt lat="48.9011245" lon="2.8223525">
<ele>46.58</ele>
<time>2021-09-19T11:02:52Z</time>
</trkpt>
<trkpt lat="48.9009297" lon="2.8223913">
<ele>48.16</ele>
<time>2021-09-19T11:03:03Z</time>
</trkpt>
<trkpt lat="48.9009450" lon="2.8226752">
<ele>47.40</ele>
<time>2021-09-19T11:03:09Z</time>
</trkpt>
<trkpt lat="48.9010065" lon="2.8229558">
<ele>47.22</ele>
<time>2021-09-19T11:03:13Z</time>
</trkpt>
<trkpt lat="48.9010744" lon="2.8232180">
<ele>48.23</ele>
<time>2021-09-19T11:03:17Z</time>
</trkpt>
<trkpt lat="48.9011384" lon="2.8235090">
<ele>48.65</ele>
<time>2021-09-19T11:03:23Z</time>
</trkpt>
<trkpt lat="48.9011805" lon="2.8238030">
<ele>49.19</ele>
<time>2021-09-19T11:03:28Z</time>
</trkpt>
<trkpt lat="48.9012032" lon="2.8241096">
<ele>50.93</ele>
<time>2021-09-19T11:03:33Z</time>
</trkpt>
<trkpt lat="48.9012099" lon="2.8244167">
<ele>51.55</ele>
<time>2021-09-19T11:03:38Z</time>
</trkpt>
<trkpt lat="48.9012373" lon="2.8247295">
<ele>54.05</ele>
<time>2021-09-19T11:03:44Z</time>
</trkpt>
<trkpt lat="48.9012566" lon="2.8250311">
<ele>52.20</ele>
<time>2021-09-19T11:03:48Z</time>
</trkpt>
<trkpt lat="48.9012320" lon="2.8253170">
<ele>51.26</ele>
<time>2021-09-19T11:03:52Z</time>
</trkpt>
<trkpt lat="48.9011612" lon="2.8257173">
<ele>50.06</ele>
<time>2021-09-19T11:03:58Z</time>
</trkpt>
<trkpt lat="48.9010871" lon="2.8260119">
<ele>52.00</ele>
<time>2021-09-19T11:04:03Z</time>
</trkpt>
<trkpt lat="48.9010642" lon="2.8263122">
<ele>49.61</ele>
<time>2021-09-19T11:04:08Z</time>
</trkpt>
<trkpt lat="48.9010413" lon="2.8265925">
<ele>47.25</ele>
<time>2021-09-19T11:04:12Z</time>
</trkpt>
<trkpt lat="48.9009759" lon="2.8268701">
<ele>45.65</ele>
<time>2021-09-19T11:04:17Z</time>
</trkpt>
<trkpt lat="48.9009645" lon="2.8271626">
<ele>40.35</ele>
<time>2021-09-19T11:04:22Z</time>
</trkpt>
<trkpt lat="48.9008956" lon="2.8274630">
<ele>40.17</ele>
<time>2021-09-19T11:04:26Z</time>
</trkpt>
<trkpt lat="48.9008216" lon="2.8277179">
<ele>41.39</ele>
<time>2021-09-19T11:04:30Z</time>
</trkpt>
<trkpt lat="48.9007437" lon="2.8279751">
<ele>42.56</ele>
<time>2021-09-19T11:04:34Z</time>
</trkpt>
<trkpt lat="48.9006519" lon="2.8282573">
<ele>47.83</ele>
<time>2021-09-19T11:04:41Z</time>
</trkpt>
<trkpt lat="48.9005880" lon="2.8285180">
<ele>44.61</ele>
<time>2021-09-19T11:04:45Z</time>
</trkpt>
<trkpt lat="48.9004614" lon="2.8287825">
<ele>44.11</ele>
<time>2021-09-19T11:04:50Z</time>
</trkpt>
<trkpt lat="48.9003702" lon="2.8290332">
<ele>43.37</ele>
<time>2021-09-19T11:04:55Z</time>
</trkpt>
<trkpt lat="48.9002320" lon="2.8293393">
<ele>43.47</ele>
<time>2021-09-19T11:04:59Z</time>
</trkpt>
<trkpt lat="48.9000906" lon="2.8296134">
<ele>44.78</ele>
<time>2021-09-19T11:05:03Z</time>
</trkpt>
<trkpt lat="48.8999536" lon="2.8298396">
<ele>44.70</ele>
<time>2021-09-19T11:05:07Z</time>
</trkpt>
<trkpt lat="48.8998501" lon="2.8300824">
<ele>44.90</ele>
<time>2021-09-19T11:05:11Z</time>
</trkpt>
<trkpt lat="48.8997620" lon="2.8303360">
<ele>45.99</ele>
<time>2021-09-19T11:05:15Z</time>
</trkpt>
<trkpt lat="48.8996805" lon="2.8306155">
<ele>46.17</ele>
<time>2021-09-19T11:05:19Z</time>
</trkpt>
<trkpt lat="48.8995968" lon="2.8308711">
<ele>45.97</ele>
<time>2021-09-19T11:05:23Z</time>
</trkpt>
<trkpt lat="48.8995019" lon="2.8311371">
<ele>46.45</ele>
<time>2021-09-19T11:05:27Z</time>
</trkpt>
<trkpt lat="48.8994354" lon="2.8314119">
<ele>46.98</ele>
<time>2021-09-19T11:05:31Z</time>
</trkpt>
<trkpt lat="48.8993616" lon="2.8317131">
<ele>47.98</ele>
<time>2021-09-19T11:05:36Z</time>
</trkpt>
<trkpt lat="48.8993190" lon="2.8319971">
<ele>48.11</ele>
<time>2021-09-19T11:05:41Z</time>
</trkpt>
<trkpt lat="48.8991616" lon="2.8321522">
<ele>49.66</ele>
<time>2021-09-19T11:05:51Z</time>
</trkpt>
<trkpt lat="48.8989587" lon="2.8320497">
<ele>51.03</ele>
<time>2021-09-19T11:05:57Z</time>
</trkpt>
<trkpt lat="48.8989605" lon="2.8317628">
<ele>48.71</ele>
<time>2021-09-19T11:06:05Z</time>
</trkpt>
<trkpt lat="48.8990657" lon="2.8315164">
<ele>47.34</ele>
<time>2021-09-19T11:06:10Z</time>
</trkpt>
<trkpt lat="48.8991417" lon="2.8312246">
<ele>47.04</ele>
<time>2021-09-19T11:06:14Z</time>
</trkpt>
<trkpt lat="48.8992222" lon="2.8309393">
<ele>46.93</ele>
<time>2021-09-19T11:06:18Z</time>
</trkpt>
<trkpt lat="48.8993183" lon="2.8306906">
<ele>48.14</ele>
<time>2021-09-19T11:06:22Z</time>
</trkpt>
<trkpt lat="48.8994270" lon="2.8303907">
<ele>48.37</ele>
<time>2021-09-19T11:06:27Z</time>
</trkpt>
<trkpt lat="48.8992371" lon="2.8301943">
<ele>45.79</ele>
<time>2021-09-19T11:06:32Z</time>
</trkpt>
<trkpt lat="48.8990514" lon="2.8300879">
<ele>44.58</ele>
<time>2021-09-19T11:06:36Z</time>
</trkpt>
<trkpt lat="48.8988566" lon="2.8299785">
<ele>45.17</ele>
<time>2021-09-19T11:06:41Z</time>
</trkpt>
<trkpt lat="48.8986863" lon="2.8298155">
<ele>45.50</ele>
<time>2021-09-19T11:06:45Z</time>
</trkpt>
<trkpt lat="48.8984983" lon="2.8297118">
<ele>45.66</ele>
<time>2021-09-19T11:06:49Z</time>
</trkpt>
<trkpt lat="48.8982957" lon="2.8296183">
<ele>46.65</ele>
<time>2021-09-19T11:06:54Z</time>
</trkpt>
<trkpt lat="48.8981145" lon="2.8295236">
<ele>49.10</ele>
<time>2021-09-19T11:06:59Z</time>
</trkpt>
<trkpt lat="48.8979032" lon="2.8294169">
<ele>48.99</ele>
<time>2021-09-19T11:07:03Z</time>
</trkpt>
<trkpt lat="48.8976976" lon="2.8293304">
<ele>49.27</ele>
<time>2021-09-19T11:07:06Z</time>
</trkpt>
<trkpt lat="48.8975136" lon="2.8292389">
<ele>49.88</ele>
<time>2021-09-19T11:07:09Z</time>
</trkpt>
<trkpt lat="48.8973181" lon="2.8291156">
<ele>48.29</ele>
<time>2021-09-19T11:07:13Z</time>
</trkpt>
<trkpt lat="48.8971502" lon="2.8289603">
<ele>48.64</ele>
<time>2021-09-19T11:07:18Z</time>
</trkpt>
<trkpt lat="48.8969341" lon="2.8288582">
<ele>48.86</ele>
<time>2021-09-19T11:07:23Z</time>
</trkpt>
<trkpt lat="48.8967245" lon="2.8287140">
<ele>46.98</ele>
<time>2021-09-19T11:07:27Z</time>
</trkpt>
<trkpt lat="48.8965893" lon="2.8284680">
<ele>47.04</ele>
<time>2021-09-19T11:07:31Z</time>
</trkpt>
<trkpt lat="48.8965399" lon="2.8281772">
<ele>46.88</ele>
<time>2021-09-19T11:07:35Z</time>
</trkpt>
<trkpt lat="48.8964345" lon="2.8279283">
<ele>45.41</ele>
<time>2021-09-19T11:07:43Z</time>
</trkpt>
<trkpt lat="48.8963757" lon="2.8276551">
<ele>46.15</ele>
<time>2021-09-19T11:07:48Z</time>
</trkpt>
<trkpt lat="48.8962049" lon="2.8275633">
<ele>45.64</ele>
<time>2021-09-19T11:07:52Z</time>
</trkpt>
<trkpt lat="48.8959901" lon="2.8274847">
<ele>46.77</ele>
<time>2021-09-19T11:07:57Z</time>
</trkpt>
<trkpt lat="48.8957727" lon="2.8274128">
<ele>47.93</ele>
<time>2021-09-19T11:08:02Z</time>
</trkpt>
<trkpt lat="48.8955637" lon="2.8273365">
<ele>47.89</ele>
<time>2021-09-19T11:08:06Z</time>
</trkpt>
<trkpt lat="48.8953861" lon="2.8272703">
<ele>48.38</ele>
<time>2021-09-19T11:08:09Z</time>
</trkpt>
<trkpt lat="48.8951866" lon="2.8271872">
<ele>49.33</ele>
<time>2021-09-19T11:08:13Z</time>
</trkpt>
<trkpt lat="48.8949851" lon="2.8271068">
<ele>46.91</ele>
<time>2021-09-19T11:08:17Z</time>
</trkpt>
<trkpt lat="48.8947949" lon="2.8270469">
<ele>46.56</ele>
<time>2021-09-19T11:08:21Z</time>
</trkpt>
<trkpt lat="48.8946065" lon="2.8269762">
<ele>46.98</ele>
<time>2021-09-19T11:08:25Z</time>
</trkpt>
<trkpt lat="48.8944215" lon="2.8269100">
<ele>47.52</ele>
<time>2021-09-19T11:08:29Z</time>
</trkpt>
<trkpt lat="48.8942212" lon="2.8268297">
<ele>46.14</ele>
<time>2021-09-19T11:08:33Z</time>
</trkpt>
<trkpt lat="48.8940325" lon="2.8267787">
<ele>47.28</ele>
<time>2021-09-19T11:08:37Z</time>
</trkpt>
<trkpt lat="48.8938263" lon="2.8266838">
<ele>46.98</ele>
<time>2021-09-19T11:08:42Z</time>
</trkpt>
<trkpt lat="48.8936203" lon="2.8266247">
<ele>48.69</ele>
<time>2021-09-19T11:08:47Z</time>
</trkpt>
<trkpt lat="48.8934287" lon="2.8265786">
<ele>48.95</ele>
<time>2021-09-19T11:08:51Z</time>
</trkpt>
<trkpt lat="48.8932553" lon="2.8266726">
<ele>46.42</ele>
<time>2021-09-19T11:08:57Z</time>
</trkpt>
<trkpt lat="48.8931700" lon="2.8269288">
<ele>45.38</ele>
<time>2021-09-19T11:09:01Z</time>
</trkpt>
<trkpt lat="48.8930284" lon="2.8271444">
<ele>44.97</ele>
<time>2021-09-19T11:09:06Z</time>
</trkpt>
<trkpt lat="48.8928799" lon="2.8273340">
<ele>47.27</ele>
<time>2021-09-19T11:09:10Z</time>
</trkpt>
<trkpt lat="48.8927771" lon="2.8276060">
<ele>44.70</ele>
<time>2021-09-19T11:09:15Z</time>
</trkpt>
<trkpt lat="48.8926862" lon="2.8278985">
<ele>46.37</ele>
<time>2021-09-19T11:09:21Z</time>
</trkpt>
<trkpt lat="48.8925752" lon="2.8281417">
<ele>45.20</ele>
<time>2021-09-19T11:09:26Z</time>
</trkpt>
<trkpt lat="48.8924519" lon="2.8283654">
<ele>46.11</ele>
<time>2021-09-19T11:09:30Z</time>
</trkpt>
<trkpt lat="48.8923320" lon="2.8286253">
<ele>48.12</ele>
<time>2021-09-19T11:09:34Z</time>
</trkpt>
<trkpt lat="48.8922271" lon="2.8288698">
<ele>48.44</ele>
<time>2021-09-19T11:09:38Z</time>
</trkpt>
<trkpt lat="48.8921102" lon="2.8290808">
<ele>49.12</ele>
<time>2021-09-19T11:09:41Z</time>
</trkpt>
<trkpt lat="48.8919901" lon="2.8293551">
<ele>49.34</ele>
<time>2021-09-19T11:09:45Z</time>
</trkpt>
<trkpt lat="48.8918873" lon="2.8296166">
<ele>48.86</ele>
<time>2021-09-19T11:09:49Z</time>
</trkpt>
<trkpt lat="48.8917695" lon="2.8298575">
<ele>47.50</ele>
<time>2021-09-19T11:09:53Z</time>
</trkpt>
<trkpt lat="48.8916297" lon="2.8301042">
<ele>48.37</ele>
<time>2021-09-19T11:09:58Z</time>
</trkpt>
<trkpt lat="48.8914591" lon="2.8302173">
<ele>46.20</ele>
<time>2021-09-19T11:10:03Z</time>
</trkpt>
<trkpt lat="48.8914244" lon="2.8304916">
<ele>45.15</ele>
<time>2021-09-19T11:10:08Z</time>
</trkpt>
<trkpt lat="48.8913457" lon="2.8307693">
<ele>45.22</ele>
<time>2021-09-19T11:10:13Z</time>
</trkpt>
<trkpt lat="48.8912215" lon="2.8310555">
<ele>44.85</ele>
<time>2021-09-19T11:10:17Z</time>
</trkpt>
<trkpt lat="48.8910912" lon="2.8313355">
<ele>47.20</ele>
<time>2021-09-19T11:10:21Z</time>
</trkpt>
<trkpt lat="48.8909671" lon="2.8316294">
<ele>47.95</ele>
<time>2021-09-19T11:10:25Z</time>
</trkpt>
<trkpt lat="48.8908262" lon="2.8319074">
<ele>48.24</ele>
<time>2021-09-19T11:10:29Z</time>
</trkpt>
<trkpt lat="48.8906966" lon="2.8321503">
<ele>45.62</ele>
<time>2021-09-19T11:10:33Z</time>
</trkpt>
<trkpt lat="48.8905845" lon="2.8323774">
<ele>45.22</ele>
<time>2021-09-19T11:10:37Z</time>
</trkpt>
<trkpt lat="48.8904701" lon="2.8325977">
<ele>44.80</ele>
<time>2021-09-19T11:10:42Z</time>
</trkpt>
<trkpt lat="48.8903016" lon="2.8327401">
<ele>43.46</ele>
<time>2021-09-19T11:10:47Z</time>
</trkpt>
<trkpt lat="48.8902006" lon="2.8329813">
<ele>44.97</ele>
<time>2021-09-19T11:10:51Z</time>
</trkpt>
<trkpt lat="48.8900918" lon="2.8332724">
<ele>45.88</ele>
<time>2021-09-19T11:10:55Z</time>
</trkpt>
<trkpt lat="48.8899897" lon="2.8335696">
<ele>45.29</ele>
<time>2021-09-19T11:10:59Z</time>
</trkpt>
<trkpt lat="48.8898873" lon="2.8338368">
<ele>44.35</ele>
<time>2021-09-19T11:11:03Z</time>
</trkpt>
<trkpt lat="48.8897861" lon="2.8340855">
<ele>44.77</ele>
<time>2021-09-19T11:11:07Z</time>
</trkpt>
<trkpt lat="48.8897503" lon="2.8343747">
<ele>44.21</ele>
<time>2021-09-19T11:11:13Z</time>
</trkpt>
<trkpt lat="48.8897320" lon="2.8346701">
<ele>45.75</ele>
<time>2021-09-19T11:11:20Z</time>
</trkpt>
<trkpt lat="48.8896465" lon="2.8349302">
<ele>44.67</ele>
<time>2021-09-19T11:11:28Z</time>
</trkpt>
<trkpt lat="48.8895764" lon="2.8352208">
<ele>46.05</ele>
<time>2021-09-19T11:11:33Z</time>
</trkpt>
<trkpt lat="48.8894938" lon="2.8354717">
<ele>47.85</ele>
<time>2021-09-19T11:11:37Z</time>
</trkpt>
<trkpt lat="48.8894078" lon="2.8357578">
<ele>48.23</ele>
<time>2021-09-19T11:11:41Z</time>
</trkpt>
<trkpt lat="48.8893221" lon="2.8360084">
<ele>46.74</ele>
<time>2021-09-19T11:11:45Z</time>
</trkpt>
<trkpt lat="48.8892573" lon="2.8362986">
<ele>46.20</ele>
<time>2021-09-19T11:11:50Z</time>
</trkpt>
<trkpt lat="48.8891803" lon="2.8366016">
<ele>43.76</ele>
<time>2021-09-19T11:11:55Z</time>
</trkpt>
<trkpt lat="48.8890966" lon="2.8368764">
<ele>46.25</ele>
<time>2021-09-19T11:12:02Z</time>
</trkpt>
<trkpt lat="48.8890302" lon="2.8371566">
<ele>46.43</ele>
<time>2021-09-19T11:12:06Z</time>
</trkpt>
<trkpt lat="48.8889529" lon="2.8374671">
<ele>45.67</ele>
<time>2021-09-19T11:12:10Z</time>
</trkpt>
<trkpt lat="48.8888601" lon="2.8378047">
<ele>45.00</ele>
<time>2021-09-19T11:12:14Z</time>
</trkpt>
<trkpt lat="48.8887752" lon="2.8380607">
<ele>44.89</ele>
<time>2021-09-19T11:12:17Z</time>
</trkpt>
<trkpt lat="48.8886955" lon="2.8383495">
<ele>45.21</ele>
<time>2021-09-19T11:12:21Z</time>
</trkpt>
<trkpt lat="48.8885929" lon="2.8386452">
<ele>46.12</ele>
<time>2021-09-19T11:12:25Z</time>
</trkpt>
<trkpt lat="48.8885370" lon="2.8389751">
<ele>46.46</ele>
<time>2021-09-19T11:12:30Z</time>
</trkpt>
<trkpt lat="48.8884499" lon="2.8392647">
<ele>45.75</ele>
<time>2021-09-19T11:12:34Z</time>
</trkpt>
<trkpt lat="48.8883425" lon="2.8395530">
<ele>46.39</ele>
<time>2021-09-19T11:12:40Z</time>
</trkpt>
<trkpt lat="48.8883256" lon="2.8398765">
<ele>45.54</ele>
<time>2021-09-19T11:12:45Z</time>
</trkpt>
<trkpt lat="48.8882250" lon="2.8401734">
<ele>47.56</ele>
<time>2021-09-19T11:12:50Z</time>
</trkpt>
<trkpt lat="48.8881221" lon="2.8404844">
<ele>50.43</ele>
<time>2021-09-19T11:12:55Z</time>
</trkpt>
<trkpt lat="48.8880380" lon="2.8407375">
<ele>49.41</ele>
<time>2021-09-19T11:12:59Z</time>
</trkpt>
<trkpt lat="48.8879676" lon="2.8410775">
<ele>48.15</ele>
<time>2021-09-19T11:13:03Z</time>
</trkpt>
<trkpt lat="48.8879004" lon="2.8413397">
<ele>48.46</ele>
<time>2021-09-19T11:13:07Z</time>
</trkpt>
<trkpt lat="48.8878099" lon="2.8416170">
<ele>47.50</ele>
<time>2021-09-19T11:13:11Z</time>
</trkpt>
<trkpt lat="48.8877201" lon="2.8419119">
<ele>48.60</ele>
<time>2021-09-19T11:13:15Z</time>
</trkpt>
<trkpt lat="48.8876438" lon="2.8422097">
<ele>48.03</ele>
<time>2021-09-19T11:13:19Z</time>
</trkpt>
<trkpt lat="48.8875845" lon="2.8425249">
<ele>46.96</ele>
<time>2021-09-19T11:13:23Z</time>
</trkpt>
<trkpt lat="48.8875240" lon="2.8428133">
<ele>45.55</ele>
<time>2021-09-19T11:13:26Z</time>
</trkpt>
<trkpt lat="48.8874368" lon="2.8430995">
<ele>45.66</ele>
<time>2021-09-19T11:13:30Z</time>
</trkpt>
<trkpt lat="48.8873793" lon="2.8433948">
<ele>44.44</ele>
<time>2021-09-19T11:13:38Z</time>
</trkpt>
<trkpt lat="48.8872970" lon="2.8437169">
<ele>45.37</ele>
<time>2021-09-19T11:13:43Z</time>
</trkpt>
<trkpt lat="48.8871793" lon="2.8439676">
<ele>46.99</ele>
<time>2021-09-19T11:13:47Z</time>
</trkpt>
<trkpt lat="48.8871014" lon="2.8442576">
<ele>48.62</ele>
<time>2021-09-19T11:13:54Z</time>
</trkpt>
<trkpt lat="48.8870132" lon="2.8445070">
<ele>49.05</ele>
<time>2021-09-19T11:13:58Z</time>
</trkpt>
<trkpt lat="48.8869395" lon="2.8447676">
<ele>52.93</ele>
<time>2021-09-19T11:14:03Z</time>
</trkpt>
<trkpt lat="48.8868531" lon="2.8450801">
<ele>52.08</ele>
<time>2021-09-19T11:14:09Z</time>
</trkpt>
<trkpt lat="48.8867767" lon="2.8453300">
<ele>47.73</ele>
<time>2021-09-19T11:14:19Z</time>
</trkpt>
<trkpt lat="48.8865647" lon="2.8452619">
<ele>45.77</ele>
<time>2021-09-19T11:14:25Z</time>
</trkpt>
<trkpt lat="48.8863434" lon="2.8453118">
<ele>47.93</ele>
<time>2021-09-19T11:14:30Z</time>
</trkpt>
<trkpt lat="48.8861342" lon="2.8453545">
<ele>48.13</ele>
<time>2021-09-19T11:14:36Z</time>
</trkpt>
<trkpt lat="48.8860099" lon="2.8456061">
<ele>46.90</ele>
<time>2021-09-19T11:14:41Z</time>
</trkpt>
<trkpt lat="48.8859238" lon="2.8459015">
<ele>44.65</ele>
<time>2021-09-19T11:14:45Z</time>
</trkpt>
<trkpt lat="48.8858885" lon="2.8461937">
<ele>44.03</ele>
<time>2021-09-19T11:14:49Z</time>
</trkpt>
<trkpt lat="48.8857714" lon="2.8464495">
<ele>43.73</ele>
<time>2021-09-19T11:14:53Z</time>
</trkpt>
<trkpt lat="48.8856467" lon="2.8466749">
<ele>43.21</ele>
<time>2021-09-19T11:14:57Z</time>
</trkpt>
<trkpt lat="48.8854714" lon="2.8467927">
<ele>42.99</ele>
<time>2021-09-19T11:15:02Z</time>
</trkpt>
<trkpt lat="48.8852975" lon="2.8466583">
<ele>43.90</ele>
<time>2021-09-19T11:15:07Z</time>
</trkpt>
<trkpt lat="48.8851126" lon="2.8465443">
<ele>44.35</ele>
<time>2021-09-19T11:15:10Z</time>
</trkpt>
<trkpt lat="48.8849472" lon="2.8464352">
<ele>44.80</ele>
<time>2021-09-19T11:15:14Z</time>
</trkpt>
<trkpt lat="48.8847733" lon="2.8463296">
<ele>46.63</ele>
<time>2021-09-19T11:15:18Z</time>
</trkpt>
<trkpt lat="48.8845515" lon="2.8462045">
<ele>48.23</ele>
<time>2021-09-19T11:15:24Z</time>
</trkpt>
<trkpt lat="48.8843514" lon="2.8461157">
<ele>50.28</ele>
<time>2021-09-19T11:15:30Z</time>
</trkpt>
<trkpt lat="48.8841730" lon="2.8460395">
<ele>53.92</ele>
<time>2021-09-19T11:15:35Z</time>
</trkpt>
<trkpt lat="48.8839813" lon="2.8459881">
<ele>53.91</ele>
<time>2021-09-19T11:15:41Z</time>
</trkpt>
<trkpt lat="48.8838000" lon="2.8459455">
<ele>53.07</ele>
<time>2021-09-19T11:15:46Z</time>
</trkpt>
<trkpt lat="48.8836228" lon="2.8458386">
<ele>54.52</ele>
<time>2021-09-19T11:15:54Z</time>
</trkpt>
<trkpt lat="48.8834619" lon="2.8459797">
<ele>55.34</ele>
<time>2021-09-19T11:16:01Z</time>
</trkpt>
<trkpt lat="48.8834312" lon="2.8462790">
<ele>53.44</ele>
<time>2021-09-19T11:16:05Z</time>
</trkpt>
<trkpt lat="48.8833934" lon="2.8465903">
<ele>52.43</ele>
<time>2021-09-19T11:16:09Z</time>
</trkpt>
<trkpt lat="48.8833487" lon="2.8469243">
<ele>51.97</ele>
<time>2021-09-19T11:16:13Z</time>
</trkpt>
<trkpt lat="48.8832853" lon="2.8472573">
<ele>51.01</ele>
<time>2021-09-19T11:16:17Z</time>
</trkpt>
<trkpt lat="48.8832180" lon="2.8475996">
<ele>50.10</ele>
<time>2021-09-19T11:16:21Z</time>
</trkpt>
<trkpt lat="48.8831602" lon="2.8479006">
<ele>49.87</ele>
<time>2021-09-19T11:16:25Z</time>
</trkpt>
<trkpt lat="48.8831103" lon="2.8482217">
<ele>48.53</ele>
<time>2021-09-19T11:16:30Z</time>
</trkpt>
<trkpt lat="48.8829252" lon="2.8483262">
<ele>47.73</ele>
<time>2021-09-19T11:16:37Z</time>
</trkpt>
<trkpt lat="48.8827328" lon="2.8481949">
<ele>48.62</ele>
<time>2021-09-19T11:16:42Z</time>
</trkpt>
<trkpt lat="48.8825491" lon="2.8480783">
<ele>50.88</ele>
<time>2021-09-19T11:16:46Z</time>
</trkpt>
<trkpt lat="48.8823639" lon="2.8479668">
<ele>52.31</ele>
<time>2021-09-19T11:16:50Z</time>
</trkpt>
<trkpt lat="48.8821847" lon="2.8478313">
<ele>52.81</ele>
<time>2021-09-19T11:16:54Z</time>
</trkpt>
<trkpt lat="48.8819998" lon="2.8477151">
<ele>53.23</ele>
<time>2021-09-19T11:16:58Z</time>
</trkpt>
<trkpt lat="48.8817986" lon="2.8476077">
<ele>54.36</ele>
<time>2021-09-19T11:17:03Z</time>
</trkpt>
<trkpt lat="48.8816223" lon="2.8475506">
<ele>54.43</ele>
<time>2021-09-19T11:17:07Z</time>
</trkpt>
<trkpt lat="48.8814276" lon="2.8474881">
<ele>53.79</ele>
<time>2021-09-19T11:17:11Z</time>
</trkpt>
<trkpt lat="48.8812346" lon="2.8473896">
<ele>53.91</ele>
<time>2021-09-19T11:17:15Z</time>
</trkpt>
<trkpt lat="48.8810534" lon="2.8472531">
<ele>54.09</ele>
<time>2021-09-19T11:17:19Z</time>
</trkpt>
<trkpt lat="48.8808846" lon="2.8471157">
<ele>54.46</ele>
<time>2021-09-19T11:17:23Z</time>
</trkpt>
<trkpt lat="48.8807151" lon="2.8469695">
<ele>55.76</ele>
<time>2021-09-19T11:17:27Z</time>
</trkpt>
<trkpt lat="48.8805377" lon="2.8468251">
<ele>55.32</ele>
<time>2021-09-19T11:17:31Z</time>
</trkpt>
<trkpt lat="48.8803480" lon="2.8466718">
<ele>54.30</ele>
<time>2021-09-19T11:17:35Z</time>
</trkpt>
<trkpt lat="48.8801539" lon="2.8465240">
<ele>53.57</ele>
<time>2021-09-19T11:17:39Z</time>
</trkpt>
<trkpt lat="48.8799683" lon="2.8463979">
<ele>54.10</ele>
<time>2021-09-19T11:17:43Z</time>
</trkpt>
<trkpt lat="48.8797950" lon="2.8462707">
<ele>55.63</ele>
<time>2021-09-19T11:17:47Z</time>
</trkpt>
<trkpt lat="48.8796214" lon="2.8461412">
<ele>55.60</ele>
<time>2021-09-19T11:17:51Z</time>
</trkpt>
<trkpt lat="48.8794523" lon="2.8460153">
<ele>56.00</ele>
<time>2021-09-19T11:17:55Z</time>
</trkpt>
<trkpt lat="48.8792615" lon="2.8458713">
<ele>56.12</ele>
<time>2021-09-19T11:18:00Z</time>
</trkpt>
<trkpt lat="48.8790894" lon="2.8457293">
<ele>56.80</ele>
<time>2021-09-19T11:18:05Z</time>
</trkpt>
<trkpt lat="48.8789061" lon="2.8456681">
<ele>57.06</ele>
<time>2021-09-19T11:18:10Z</time>
</trkpt>
<trkpt lat="48.8787307" lon="2.8455621">
<ele>57.24</ele>
<time>2021-09-19T11:18:15Z</time>
</trkpt>
<trkpt lat="48.8785462" lon="2.8454095">
<ele>57.91</ele>
<time>2021-09-19T11:18:20Z</time>
</trkpt>
<trkpt lat="48.8783956" lon="2.8452399">
<ele>57.52</ele>
<time>2021-09-19T11:18:25Z</time>
</trkpt>
<trkpt lat="48.8782238" lon="2.8450508">
<ele>56.39</ele>
<time>2021-09-19T11:18:32Z</time>
</trkpt>
<trkpt lat="48.8780269" lon="2.8448984">
<ele>56.27</ele>
<time>2021-09-19T11:18:37Z</time>
</trkpt>
<trkpt lat="48.8778455" lon="2.8447700">
<ele>56.41</ele>
<time>2021-09-19T11:18:41Z</time>
</trkpt>
<trkpt lat="48.8776753" lon="2.8446485">
<ele>56.68</ele>
<time>2021-09-19T11:18:45Z</time>
</trkpt>
<trkpt lat="48.8775105" lon="2.8445248">
<ele>57.51</ele>
<time>2021-09-19T11:18:49Z</time>
</trkpt>
<trkpt lat="48.8773355" lon="2.8444070">
<ele>57.91</ele>
<time>2021-09-19T11:18:53Z</time>
</trkpt>
<trkpt lat="48.8771535" lon="2.8442876">
<ele>58.39</ele>
<time>2021-09-19T11:18:57Z</time>
</trkpt>
<trkpt lat="48.8769757" lon="2.8441447">
<ele>58.81</ele>
<time>2021-09-19T11:19:01Z</time>
</trkpt>
<trkpt lat="48.8767908" lon="2.8440245">
<ele>59.09</ele>
<time>2021-09-19T11:19:05Z</time>
</trkpt>
<trkpt lat="48.8766191" lon="2.8439120">
<ele>59.99</ele>
<time>2021-09-19T11:19:09Z</time>
</trkpt>
<trkpt lat="48.8764267" lon="2.8437702">
<ele>60.15</ele>
<time>2021-09-19T11:19:14Z</time>
</trkpt>
<trkpt lat="48.8762509" lon="2.8436564">
<ele>59.98</ele>
<time>2021-09-19T11:19:18Z</time>
</trkpt>
<trkpt lat="48.8760710" lon="2.8435421">
<ele>59.57</ele>
<time>2021-09-19T11:19:22Z</time>
</trkpt>
<trkpt lat="48.8758879" lon="2.8434058">
<ele>59.79</ele>
<time>2021-09-19T11:19:26Z</time>
</trkpt>
<trkpt lat="48.8757157" lon="2.8432705">
<ele>60.10</ele>
<time>2021-09-19T11:19:30Z</time>
</trkpt>
<trkpt lat="48.8755388" lon="2.8431437">
<ele>60.18</ele>
<time>2021-09-19T11:19:34Z</time>
</trkpt>
<trkpt lat="48.8753785" lon="2.8430109">
<ele>62.07</ele>
<time>2021-09-19T11:19:39Z</time>
</trkpt>
<trkpt lat="48.8752022" lon="2.8429108">
<ele>63.73</ele>
<time>2021-09-19T11:19:45Z</time>
</trkpt>
<trkpt lat="48.8750173" lon="2.8428729">
<ele>65.19</ele>
<time>2021-09-19T11:19:52Z</time>
</trkpt>
<trkpt lat="48.8748397" lon="2.8428072">
<ele>64.68</ele>
<time>2021-09-19T11:19:59Z</time>
</trkpt>
<trkpt lat="48.8746481" lon="2.8427051">
<ele>70.43</ele>
<time>2021-09-19T11:20:06Z</time>
</trkpt>
<trkpt lat="48.8744804" lon="2.8426025">
<ele>73.60</ele>
<time>2021-09-19T11:20:14Z</time>
</trkpt>
<trkpt lat="48.8743117" lon="2.8424911">
<ele>75.07</ele>
<time>2021-09-19T11:20:21Z</time>
</trkpt>
<trkpt lat="48.8741266" lon="2.8423904">
<ele>79.75</ele>
<time>2021-09-19T11:20:28Z</time>
</trkpt>
<trkpt lat="48.8739538" lon="2.8422938">
<ele>83.04</ele>
<time>2021-09-19T11:20:35Z</time>
</trkpt>
<trkpt lat="48.8738528" lon="2.8425203">
<ele>82.29</ele>
<time>2021-09-19T11:20:41Z</time>
</trkpt>
<trkpt lat="48.8737505" lon="2.8427708">
<ele>83.83</ele>
<time>2021-09-19T11:20:47Z</time>
</trkpt>
<trkpt lat="48.8736537" lon="2.8430223">
<ele>84.88</ele>
<time>2021-09-19T11:20:53Z</time>
</trkpt>
<trkpt lat="48.8735502" lon="2.8432765">
<ele>86.13</ele>
<time>2021-09-19T11:20:59Z</time>
</trkpt>
<trkpt lat="48.8734317" lon="2.8435155">
<ele>87.11</ele>
<time>2021-09-19T11:21:06Z</time>
</trkpt>
<trkpt lat="48.8733209" lon="2.8437395">
<ele>87.67</ele>
<time>2021-09-19T11:21:15Z</time>
</trkpt>
</trkseg>
</trk>
</gpx>
